<?xml version="1.0" encoding="UTF-8" standalone="no" ?>
<gpx xmlns="http://www.topografix.com/GPX/1/1" xmlns:xsi="http://www.w3.org/2001/XMLSchema-instance" xsi:schemaLocation="http://www.topografix.com/GPX/1/1 http://www.topografix.com/GPX/1/1/gpx.xsd" version="1.1" creator="VisuGPX - https://www.visugpx.com">
  <metadata>
    <name>Inscritions romaines de l'Aulp du Seuil</name>
    <desc><![CDATA[Les inscriptions , enfin ! pas de difficultés à partie du col de l' Aulp du Seuil]]></desc>
  </metadata>
  <trk>
    <name><![CDATA[2020-06-18 16-54-34]]></name>
    <trkseg>
      <trkpt lat="45.35604" lon="5.91912">
        <ele>1063.84</ele>
        <time>2020-06-18T07:55:08Z</time>
      </trkpt>
      <trkpt lat="45.35603" lon="5.91911">
        <ele>1066.24</ele>
        <time>2020-06-18T07:55:20Z</time>
      </trkpt>
      <trkpt lat="45.35607" lon="5.9191">
        <ele>1064.32</ele>
        <time>2020-06-18T07:55:39Z</time>
      </trkpt>
      <trkpt lat="45.35607" lon="5.91909">
        <ele>1064.8</ele>
        <time>2020-06-18T07:56:33Z</time>
      </trkpt>
      <trkpt lat="45.35607" lon="5.9191">
        <ele>1065.28</ele>
        <time>2020-06-18T07:56:53Z</time>
      </trkpt>
      <trkpt lat="45.35606" lon="5.91911">
        <ele>1064.8</ele>
        <time>2020-06-18T07:57:28Z</time>
      </trkpt>
      <trkpt lat="45.35606" lon="5.91912">
        <ele>1065.76</ele>
        <time>2020-06-18T07:58:00Z</time>
      </trkpt>
      <trkpt lat="45.35605" lon="5.91912">
        <ele>1065.76</ele>
        <time>2020-06-18T07:58:38Z</time>
      </trkpt>
      <trkpt lat="45.35606" lon="5.91912">
        <ele>1065.28</ele>
        <time>2020-06-18T07:59:30Z</time>
      </trkpt>
      <trkpt lat="45.35606" lon="5.91913">
        <ele>1065.28</ele>
        <time>2020-06-18T08:00:09Z</time>
      </trkpt>
      <trkpt lat="45.35605" lon="5.91914">
        <ele>1065.28</ele>
        <time>2020-06-18T08:00:47Z</time>
      </trkpt>
      <trkpt lat="45.35605" lon="5.91914">
        <ele>1065.28</ele>
        <time>2020-06-18T08:01:22Z</time>
      </trkpt>
      <trkpt lat="45.35605" lon="5.91912">
        <ele>1065.28</ele>
        <time>2020-06-18T08:01:39Z</time>
      </trkpt>
      <trkpt lat="45.35603" lon="5.91908">
        <ele>1065.28</ele>
        <time>2020-06-18T08:02:00Z</time>
      </trkpt>
      <trkpt lat="45.35599" lon="5.91901">
        <ele>1065.28</ele>
        <time>2020-06-18T08:02:04Z</time>
      </trkpt>
      <trkpt lat="45.35598" lon="5.91899">
        <ele>1065.28</ele>
        <time>2020-06-18T08:02:05Z</time>
      </trkpt>
      <trkpt lat="45.35595" lon="5.91892">
        <ele>1063.36</ele>
        <time>2020-06-18T08:02:11Z</time>
      </trkpt>
      <trkpt lat="45.35578" lon="5.91879">
        <ele>1062.39</ele>
        <time>2020-06-18T08:02:30Z</time>
      </trkpt>
      <trkpt lat="45.35557" lon="5.91873">
        <ele>1064.32</ele>
        <time>2020-06-18T08:02:51Z</time>
      </trkpt>
      <trkpt lat="45.35542" lon="5.91868">
        <ele>1061.43</ele>
        <time>2020-06-18T08:03:07Z</time>
      </trkpt>
      <trkpt lat="45.35534" lon="5.91862">
        <ele>1060.47</ele>
        <time>2020-06-18T08:03:15Z</time>
      </trkpt>
      <trkpt lat="45.35533" lon="5.91861">
        <ele>1059.99</ele>
        <time>2020-06-18T08:03:16Z</time>
      </trkpt>
      <trkpt lat="45.35518" lon="5.91847">
        <ele>1059.03</ele>
        <time>2020-06-18T08:03:31Z</time>
      </trkpt>
      <trkpt lat="45.35516" lon="5.91844">
        <ele>1058.55</ele>
        <time>2020-06-18T08:03:33Z</time>
      </trkpt>
      <trkpt lat="45.35515" lon="5.91843">
        <ele>1058.55</ele>
        <time>2020-06-18T08:03:34Z</time>
      </trkpt>
      <trkpt lat="45.35501" lon="5.91804">
        <ele>1059.51</ele>
        <time>2020-06-18T08:04:03Z</time>
      </trkpt>
      <trkpt lat="45.35487" lon="5.91762">
        <ele>1061.43</ele>
        <time>2020-06-18T08:04:32Z</time>
      </trkpt>
      <trkpt lat="45.35478" lon="5.91716">
        <ele>1062.39</ele>
        <time>2020-06-18T08:05:02Z</time>
      </trkpt>
      <trkpt lat="45.35468" lon="5.91676">
        <ele>1063.36</ele>
        <time>2020-06-18T08:05:24Z</time>
      </trkpt>
      <trkpt lat="45.35461" lon="5.9165">
        <ele>1063.84</ele>
        <time>2020-06-18T08:05:42Z</time>
      </trkpt>
      <trkpt lat="45.35454" lon="5.91628">
        <ele>1063.84</ele>
        <time>2020-06-18T08:05:57Z</time>
      </trkpt>
      <trkpt lat="45.35443" lon="5.91603">
        <ele>1066.72</ele>
        <time>2020-06-18T08:06:18Z</time>
      </trkpt>
      <trkpt lat="45.35436" lon="5.91593">
        <ele>1067.68</ele>
        <time>2020-06-18T08:06:27Z</time>
      </trkpt>
      <trkpt lat="45.35423" lon="5.91576">
        <ele>1070.57</ele>
        <time>2020-06-18T08:06:45Z</time>
      </trkpt>
      <trkpt lat="45.35403" lon="5.91543">
        <ele>1071.53</ele>
        <time>2020-06-18T08:07:15Z</time>
      </trkpt>
      <trkpt lat="45.35384" lon="5.91504">
        <ele>1074.89</ele>
        <time>2020-06-18T08:07:44Z</time>
      </trkpt>
      <trkpt lat="45.3538" lon="5.91463">
        <ele>1077.78</ele>
        <time>2020-06-18T08:08:13Z</time>
      </trkpt>
      <trkpt lat="45.3538" lon="5.91452">
        <ele>1078.26</ele>
        <time>2020-06-18T08:08:20Z</time>
      </trkpt>
      <trkpt lat="45.35379" lon="5.91445">
        <ele>1077.29</ele>
        <time>2020-06-18T08:08:23Z</time>
      </trkpt>
      <trkpt lat="45.35378" lon="5.91443">
        <ele>1077.29</ele>
        <time>2020-06-18T08:08:24Z</time>
      </trkpt>
      <trkpt lat="45.35377" lon="5.91415">
        <ele>1080.18</ele>
        <time>2020-06-18T08:08:40Z</time>
      </trkpt>
      <trkpt lat="45.35377" lon="5.9141">
        <ele>1082.1</ele>
        <time>2020-06-18T08:08:44Z</time>
      </trkpt>
      <trkpt lat="45.35373" lon="5.91381">
        <ele>1083.06</ele>
        <time>2020-06-18T08:09:06Z</time>
      </trkpt>
      <trkpt lat="45.35366" lon="5.91356">
        <ele>1084.99</ele>
        <time>2020-06-18T08:09:23Z</time>
      </trkpt>
      <trkpt lat="45.35359" lon="5.91341">
        <ele>1085.47</ele>
        <time>2020-06-18T08:09:34Z</time>
      </trkpt>
      <trkpt lat="45.3535" lon="5.91327">
        <ele>1086.91</ele>
        <time>2020-06-18T08:09:53Z</time>
      </trkpt>
      <trkpt lat="45.35348" lon="5.91326">
        <ele>1087.39</ele>
        <time>2020-06-18T08:10:22Z</time>
      </trkpt>
      <trkpt lat="45.35342" lon="5.9131">
        <ele>1087.87</ele>
        <time>2020-06-18T08:10:35Z</time>
      </trkpt>
      <trkpt lat="45.35343" lon="5.91308">
        <ele>1087.87</ele>
        <time>2020-06-18T08:10:36Z</time>
      </trkpt>
      <trkpt lat="45.35352" lon="5.91292">
        <ele>1089.31</ele>
        <time>2020-06-18T08:10:53Z</time>
      </trkpt>
      <trkpt lat="45.35367" lon="5.91307">
        <ele>1092.2</ele>
        <time>2020-06-18T08:11:16Z</time>
      </trkpt>
      <trkpt lat="45.35377" lon="5.91327">
        <ele>1094.12</ele>
        <time>2020-06-18T08:11:35Z</time>
      </trkpt>
      <trkpt lat="45.354" lon="5.91355">
        <ele>1096.04</ele>
        <time>2020-06-18T08:12:01Z</time>
      </trkpt>
      <trkpt lat="45.35419" lon="5.91378">
        <ele>1098.44</ele>
        <time>2020-06-18T08:12:27Z</time>
      </trkpt>
      <trkpt lat="45.3543" lon="5.91393">
        <ele>1100.37</ele>
        <time>2020-06-18T08:12:45Z</time>
      </trkpt>
      <trkpt lat="45.35449" lon="5.91409">
        <ele>1102.29</ele>
        <time>2020-06-18T08:13:03Z</time>
      </trkpt>
      <trkpt lat="45.35463" lon="5.91426">
        <ele>1105.17</ele>
        <time>2020-06-18T08:13:27Z</time>
      </trkpt>
      <trkpt lat="45.35466" lon="5.91431">
        <ele>1105.65</ele>
        <time>2020-06-18T08:13:33Z</time>
      </trkpt>
      <trkpt lat="45.35487" lon="5.91447">
        <ele>1108.54</ele>
        <time>2020-06-18T08:13:56Z</time>
      </trkpt>
      <trkpt lat="45.35511" lon="5.91457">
        <ele>1110.94</ele>
        <time>2020-06-18T08:14:21Z</time>
      </trkpt>
      <trkpt lat="45.35537" lon="5.9147">
        <ele>1113.82</ele>
        <time>2020-06-18T08:14:49Z</time>
      </trkpt>
      <trkpt lat="45.35552" lon="5.91479">
        <ele>1115.27</ele>
        <time>2020-06-18T08:15:04Z</time>
      </trkpt>
      <trkpt lat="45.35563" lon="5.91481">
        <ele>1116.23</ele>
        <time>2020-06-18T08:15:15Z</time>
      </trkpt>
      <trkpt lat="45.35578" lon="5.9148">
        <ele>1116.23</ele>
        <time>2020-06-18T08:15:29Z</time>
      </trkpt>
      <trkpt lat="45.35586" lon="5.91484">
        <ele>1117.19</ele>
        <time>2020-06-18T08:15:38Z</time>
      </trkpt>
      <trkpt lat="45.35603" lon="5.91483">
        <ele>1118.63</ele>
        <time>2020-06-18T08:15:56Z</time>
      </trkpt>
      <trkpt lat="45.35604" lon="5.91483">
        <ele>1118.63</ele>
        <time>2020-06-18T08:15:57Z</time>
      </trkpt>
      <trkpt lat="45.35618" lon="5.91474">
        <ele>1119.11</ele>
        <time>2020-06-18T08:16:11Z</time>
      </trkpt>
      <trkpt lat="45.35619" lon="5.91474">
        <ele>1119.11</ele>
        <time>2020-06-18T08:16:12Z</time>
      </trkpt>
      <trkpt lat="45.35624" lon="5.91478">
        <ele>1119.11</ele>
        <time>2020-06-18T08:16:18Z</time>
      </trkpt>
      <trkpt lat="45.35627" lon="5.91492">
        <ele>1119.59</ele>
        <time>2020-06-18T08:16:32Z</time>
      </trkpt>
      <trkpt lat="45.35631" lon="5.91493">
        <ele>1118.63</ele>
        <time>2020-06-18T08:16:49Z</time>
      </trkpt>
      <trkpt lat="45.35637" lon="5.9149">
        <ele>1122</ele>
        <time>2020-06-18T08:17:04Z</time>
      </trkpt>
      <trkpt lat="45.35637" lon="5.91493">
        <ele>1122</ele>
        <time>2020-06-18T08:17:06Z</time>
      </trkpt>
      <trkpt lat="45.35637" lon="5.91502">
        <ele>1122.48</ele>
        <time>2020-06-18T08:17:12Z</time>
      </trkpt>
      <trkpt lat="45.35638" lon="5.91504">
        <ele>1122.48</ele>
        <time>2020-06-18T08:17:13Z</time>
      </trkpt>
      <trkpt lat="45.35649" lon="5.91517">
        <ele>1123.92</ele>
        <time>2020-06-18T08:17:28Z</time>
      </trkpt>
      <trkpt lat="45.35664" lon="5.9151">
        <ele>1124.88</ele>
        <time>2020-06-18T08:17:49Z</time>
      </trkpt>
      <trkpt lat="45.35669" lon="5.91488">
        <ele>1127.76</ele>
        <time>2020-06-18T08:18:09Z</time>
      </trkpt>
      <trkpt lat="45.35677" lon="5.91474">
        <ele>1130.17</ele>
        <time>2020-06-18T08:18:26Z</time>
      </trkpt>
      <trkpt lat="45.35686" lon="5.91458">
        <ele>1131.13</ele>
        <time>2020-06-18T08:18:45Z</time>
      </trkpt>
      <trkpt lat="45.35686" lon="5.91444">
        <ele>1134.01</ele>
        <time>2020-06-18T08:18:58Z</time>
      </trkpt>
      <trkpt lat="45.35684" lon="5.91435">
        <ele>1135.45</ele>
        <time>2020-06-18T08:19:06Z</time>
      </trkpt>
      <trkpt lat="45.3568" lon="5.91427">
        <ele>1135.94</ele>
        <time>2020-06-18T08:19:13Z</time>
      </trkpt>
      <trkpt lat="45.3568" lon="5.91426">
        <ele>1136.42</ele>
        <time>2020-06-18T08:19:14Z</time>
      </trkpt>
      <trkpt lat="45.35674" lon="5.91417">
        <ele>1136.9</ele>
        <time>2020-06-18T08:19:26Z</time>
      </trkpt>
      <trkpt lat="45.3567" lon="5.91411">
        <ele>1136.42</ele>
        <time>2020-06-18T08:19:45Z</time>
      </trkpt>
      <trkpt lat="45.35657" lon="5.91401">
        <ele>1134.01</ele>
        <time>2020-06-18T08:20:02Z</time>
      </trkpt>
      <trkpt lat="45.35646" lon="5.91396">
        <ele>1135.94</ele>
        <time>2020-06-18T08:20:16Z</time>
      </trkpt>
      <trkpt lat="45.35636" lon="5.9139">
        <ele>1136.9</ele>
        <time>2020-06-18T08:20:29Z</time>
      </trkpt>
      <trkpt lat="45.35619" lon="5.91385">
        <ele>1136.42</ele>
        <time>2020-06-18T08:20:48Z</time>
      </trkpt>
      <trkpt lat="45.35595" lon="5.91371">
        <ele>1134.97</ele>
        <time>2020-06-18T08:21:10Z</time>
      </trkpt>
      <trkpt lat="45.35584" lon="5.9136">
        <ele>1133.53</ele>
        <time>2020-06-18T08:21:28Z</time>
      </trkpt>
      <trkpt lat="45.35586" lon="5.91362">
        <ele>1134.01</ele>
        <time>2020-06-18T08:21:39Z</time>
      </trkpt>
      <trkpt lat="45.35593" lon="5.91368">
        <ele>1134.01</ele>
        <time>2020-06-18T08:21:52Z</time>
      </trkpt>
      <trkpt lat="45.35605" lon="5.91359">
        <ele>1135.94</ele>
        <time>2020-06-18T08:22:13Z</time>
      </trkpt>
      <trkpt lat="45.35622" lon="5.91355">
        <ele>1137.86</ele>
        <time>2020-06-18T08:22:45Z</time>
      </trkpt>
      <trkpt lat="45.35624" lon="5.91356">
        <ele>1137.86</ele>
        <time>2020-06-18T08:22:48Z</time>
      </trkpt>
      <trkpt lat="45.35629" lon="5.91358">
        <ele>1141.22</ele>
        <time>2020-06-18T08:22:56Z</time>
      </trkpt>
      <trkpt lat="45.35641" lon="5.91359">
        <ele>1143.14</ele>
        <time>2020-06-18T08:23:13Z</time>
      </trkpt>
      <trkpt lat="45.35656" lon="5.91354">
        <ele>1146.03</ele>
        <time>2020-06-18T08:23:34Z</time>
      </trkpt>
      <trkpt lat="45.35669" lon="5.91347">
        <ele>1149.39</ele>
        <time>2020-06-18T08:23:55Z</time>
      </trkpt>
      <trkpt lat="45.35687" lon="5.91343">
        <ele>1152.28</ele>
        <time>2020-06-18T08:24:17Z</time>
      </trkpt>
      <trkpt lat="45.35711" lon="5.91337">
        <ele>1155.16</ele>
        <time>2020-06-18T08:24:44Z</time>
      </trkpt>
      <trkpt lat="45.35732" lon="5.9133">
        <ele>1157.56</ele>
        <time>2020-06-18T08:25:08Z</time>
      </trkpt>
      <trkpt lat="45.35746" lon="5.91322">
        <ele>1160.93</ele>
        <time>2020-06-18T08:25:33Z</time>
      </trkpt>
      <trkpt lat="45.35759" lon="5.91319">
        <ele>1163.81</ele>
        <time>2020-06-18T08:25:52Z</time>
      </trkpt>
      <trkpt lat="45.35769" lon="5.91313">
        <ele>1167.18</ele>
        <time>2020-06-18T08:26:10Z</time>
      </trkpt>
      <trkpt lat="45.35792" lon="5.91301">
        <ele>1170.06</ele>
        <time>2020-06-18T08:26:40Z</time>
      </trkpt>
      <trkpt lat="45.35798" lon="5.91299">
        <ele>1170.54</ele>
        <time>2020-06-18T08:26:47Z</time>
      </trkpt>
      <trkpt lat="45.35799" lon="5.91299">
        <ele>1170.54</ele>
        <time>2020-06-18T08:26:48Z</time>
      </trkpt>
      <trkpt lat="45.35819" lon="5.91292">
        <ele>1173.43</ele>
        <time>2020-06-18T08:27:12Z</time>
      </trkpt>
      <trkpt lat="45.35826" lon="5.9128">
        <ele>1176.31</ele>
        <time>2020-06-18T08:27:30Z</time>
      </trkpt>
      <trkpt lat="45.35829" lon="5.91271">
        <ele>1179.67</ele>
        <time>2020-06-18T08:27:47Z</time>
      </trkpt>
      <trkpt lat="45.35838" lon="5.91265">
        <ele>1183.04</ele>
        <time>2020-06-18T08:28:08Z</time>
      </trkpt>
      <trkpt lat="45.35846" lon="5.91258">
        <ele>1185.92</ele>
        <time>2020-06-18T08:28:38Z</time>
      </trkpt>
      <trkpt lat="45.35862" lon="5.91244">
        <ele>1188.33</ele>
        <time>2020-06-18T08:29:08Z</time>
      </trkpt>
      <trkpt lat="45.35868" lon="5.91234">
        <ele>1189.29</ele>
        <time>2020-06-18T08:29:35Z</time>
      </trkpt>
      <trkpt lat="45.35875" lon="5.91228">
        <ele>1192.65</ele>
        <time>2020-06-18T08:30:01Z</time>
      </trkpt>
      <trkpt lat="45.35884" lon="5.91222">
        <ele>1194.58</ele>
        <time>2020-06-18T08:30:16Z</time>
      </trkpt>
      <trkpt lat="45.35885" lon="5.91222">
        <ele>1194.58</ele>
        <time>2020-06-18T08:30:17Z</time>
      </trkpt>
      <trkpt lat="45.35897" lon="5.91213">
        <ele>1197.46</ele>
        <time>2020-06-18T08:30:41Z</time>
      </trkpt>
      <trkpt lat="45.35904" lon="5.91203">
        <ele>1200.82</ele>
        <time>2020-06-18T08:31:07Z</time>
      </trkpt>
      <trkpt lat="45.35917" lon="5.91189">
        <ele>1203.71</ele>
        <time>2020-06-18T08:31:33Z</time>
      </trkpt>
      <trkpt lat="45.35928" lon="5.91179">
        <ele>1206.11</ele>
        <time>2020-06-18T08:31:57Z</time>
      </trkpt>
      <trkpt lat="45.35938" lon="5.91168">
        <ele>1209</ele>
        <time>2020-06-18T08:32:20Z</time>
      </trkpt>
      <trkpt lat="45.35939" lon="5.91166">
        <ele>1209.48</ele>
        <time>2020-06-18T08:32:22Z</time>
      </trkpt>
      <trkpt lat="45.3594" lon="5.91165">
        <ele>1209.48</ele>
        <time>2020-06-18T08:32:23Z</time>
      </trkpt>
      <trkpt lat="45.35953" lon="5.91157">
        <ele>1210.44</ele>
        <time>2020-06-18T08:32:42Z</time>
      </trkpt>
      <trkpt lat="45.35957" lon="5.91156">
        <ele>1213.8</ele>
        <time>2020-06-18T08:32:51Z</time>
      </trkpt>
      <trkpt lat="45.35958" lon="5.91155">
        <ele>1214.28</ele>
        <time>2020-06-18T08:32:53Z</time>
      </trkpt>
      <trkpt lat="45.35967" lon="5.91147">
        <ele>1217.17</ele>
        <time>2020-06-18T08:33:22Z</time>
      </trkpt>
      <trkpt lat="45.35969" lon="5.91141">
        <ele>1217.17</ele>
        <time>2020-06-18T08:33:57Z</time>
      </trkpt>
      <trkpt lat="45.35961" lon="5.91143">
        <ele>1217.17</ele>
        <time>2020-06-18T08:34:05Z</time>
      </trkpt>
      <trkpt lat="45.35956" lon="5.91145">
        <ele>1216.69</ele>
        <time>2020-06-18T08:34:09Z</time>
      </trkpt>
      <trkpt lat="45.35955" lon="5.91145">
        <ele>1216.69</ele>
        <time>2020-06-18T08:34:12Z</time>
      </trkpt>
      <trkpt lat="45.35951" lon="5.91146">
        <ele>1216.69</ele>
        <time>2020-06-18T08:34:17Z</time>
      </trkpt>
      <trkpt lat="45.35948" lon="5.91149">
        <ele>1216.69</ele>
        <time>2020-06-18T08:34:20Z</time>
      </trkpt>
      <trkpt lat="45.35947" lon="5.91148">
        <ele>1216.69</ele>
        <time>2020-06-18T08:34:42Z</time>
      </trkpt>
      <trkpt lat="45.35953" lon="5.91154">
        <ele>1217.17</ele>
        <time>2020-06-18T08:35:23Z</time>
      </trkpt>
      <trkpt lat="45.3596" lon="5.91144">
        <ele>1216.69</ele>
        <time>2020-06-18T08:36:05Z</time>
      </trkpt>
      <trkpt lat="45.35964" lon="5.91137">
        <ele>1216.69</ele>
        <time>2020-06-18T08:36:42Z</time>
      </trkpt>
      <trkpt lat="45.35955" lon="5.91138">
        <ele>1216.69</ele>
        <time>2020-06-18T08:36:49Z</time>
      </trkpt>
      <trkpt lat="45.35954" lon="5.91139">
        <ele>1216.69</ele>
        <time>2020-06-18T08:36:53Z</time>
      </trkpt>
      <trkpt lat="45.35951" lon="5.91139">
        <ele>1216.69</ele>
        <time>2020-06-18T08:37:22Z</time>
      </trkpt>
      <trkpt lat="45.35946" lon="5.91137">
        <ele>1216.69</ele>
        <time>2020-06-18T08:37:34Z</time>
      </trkpt>
      <trkpt lat="45.35934" lon="5.91138">
        <ele>1216.69</ele>
        <time>2020-06-18T08:37:50Z</time>
      </trkpt>
      <trkpt lat="45.35932" lon="5.91139">
        <ele>1225.34</ele>
        <time>2020-06-18T08:37:54Z</time>
      </trkpt>
      <trkpt lat="45.35931" lon="5.91139">
        <ele>1225.82</ele>
        <time>2020-06-18T08:37:55Z</time>
      </trkpt>
      <trkpt lat="45.35918" lon="5.91136">
        <ele>1227.26</ele>
        <time>2020-06-18T08:38:12Z</time>
      </trkpt>
      <trkpt lat="45.35905" lon="5.91131">
        <ele>1230.14</ele>
        <time>2020-06-18T08:38:38Z</time>
      </trkpt>
      <trkpt lat="45.35902" lon="5.91132">
        <ele>1230.62</ele>
        <time>2020-06-18T08:38:42Z</time>
      </trkpt>
      <trkpt lat="45.35895" lon="5.9112">
        <ele>1233.99</ele>
        <time>2020-06-18T08:39:03Z</time>
      </trkpt>
      <trkpt lat="45.35891" lon="5.91119">
        <ele>1234.47</ele>
        <time>2020-06-18T08:39:10Z</time>
      </trkpt>
      <trkpt lat="45.35882" lon="5.91107">
        <ele>1237.83</ele>
        <time>2020-06-18T08:39:28Z</time>
      </trkpt>
      <trkpt lat="45.35875" lon="5.91097">
        <ele>1240.24</ele>
        <time>2020-06-18T08:39:46Z</time>
      </trkpt>
      <trkpt lat="45.35866" lon="5.91087">
        <ele>1243.12</ele>
        <time>2020-06-18T08:40:08Z</time>
      </trkpt>
      <trkpt lat="45.35855" lon="5.91075">
        <ele>1246.01</ele>
        <time>2020-06-18T08:40:28Z</time>
      </trkpt>
      <trkpt lat="45.3585" lon="5.91055">
        <ele>1249.37</ele>
        <time>2020-06-18T08:40:49Z</time>
      </trkpt>
      <trkpt lat="45.35848" lon="5.91048">
        <ele>1251.29</ele>
        <time>2020-06-18T08:41:01Z</time>
      </trkpt>
      <trkpt lat="45.35847" lon="5.91043">
        <ele>1252.25</ele>
        <time>2020-06-18T08:41:06Z</time>
      </trkpt>
      <trkpt lat="45.35847" lon="5.91041">
        <ele>1252.25</ele>
        <time>2020-06-18T08:41:07Z</time>
      </trkpt>
      <trkpt lat="45.35845" lon="5.91033">
        <ele>1254.18</ele>
        <time>2020-06-18T08:41:18Z</time>
      </trkpt>
      <trkpt lat="45.35845" lon="5.91032">
        <ele>1254.18</ele>
        <time>2020-06-18T08:41:19Z</time>
      </trkpt>
      <trkpt lat="45.35839" lon="5.91017">
        <ele>1257.54</ele>
        <time>2020-06-18T08:41:39Z</time>
      </trkpt>
      <trkpt lat="45.35839" lon="5.91015">
        <ele>1257.54</ele>
        <time>2020-06-18T08:41:40Z</time>
      </trkpt>
      <trkpt lat="45.35838" lon="5.90996">
        <ele>1260.43</ele>
        <time>2020-06-18T08:42:01Z</time>
      </trkpt>
      <trkpt lat="45.35836" lon="5.90977">
        <ele>1263.31</ele>
        <time>2020-06-18T08:42:21Z</time>
      </trkpt>
      <trkpt lat="45.35838" lon="5.90967">
        <ele>1266.67</ele>
        <time>2020-06-18T08:42:40Z</time>
      </trkpt>
      <trkpt lat="45.35842" lon="5.90961">
        <ele>1270.04</ele>
        <time>2020-06-18T08:43:03Z</time>
      </trkpt>
      <trkpt lat="45.35839" lon="5.90945">
        <ele>1272.92</ele>
        <time>2020-06-18T08:43:23Z</time>
      </trkpt>
      <trkpt lat="45.35832" lon="5.9093">
        <ele>1275.81</ele>
        <time>2020-06-18T08:43:41Z</time>
      </trkpt>
      <trkpt lat="45.35824" lon="5.90919">
        <ele>1279.17</ele>
        <time>2020-06-18T08:44:03Z</time>
      </trkpt>
      <trkpt lat="45.35819" lon="5.90914">
        <ele>1280.61</ele>
        <time>2020-06-18T08:44:14Z</time>
      </trkpt>
      <trkpt lat="45.35818" lon="5.90913">
        <ele>1280.61</ele>
        <time>2020-06-18T08:44:16Z</time>
      </trkpt>
      <trkpt lat="45.35817" lon="5.90912">
        <ele>1280.61</ele>
        <time>2020-06-18T08:44:17Z</time>
      </trkpt>
      <trkpt lat="45.35812" lon="5.90894">
        <ele>1280.61</ele>
        <time>2020-06-18T08:44:36Z</time>
      </trkpt>
      <trkpt lat="45.35811" lon="5.90892">
        <ele>1283.98</ele>
        <time>2020-06-18T08:44:41Z</time>
      </trkpt>
      <trkpt lat="45.35806" lon="5.90878">
        <ele>1285.42</ele>
        <time>2020-06-18T08:45:03Z</time>
      </trkpt>
      <trkpt lat="45.35803" lon="5.90862">
        <ele>1288.3</ele>
        <time>2020-06-18T08:45:29Z</time>
      </trkpt>
      <trkpt lat="45.35803" lon="5.90849">
        <ele>1291.67</ele>
        <time>2020-06-18T08:45:46Z</time>
      </trkpt>
      <trkpt lat="45.35805" lon="5.90836">
        <ele>1295.03</ele>
        <time>2020-06-18T08:46:03Z</time>
      </trkpt>
      <trkpt lat="45.35806" lon="5.90826">
        <ele>1297.92</ele>
        <time>2020-06-18T08:46:21Z</time>
      </trkpt>
      <trkpt lat="45.35805" lon="5.90815">
        <ele>1300.8</ele>
        <time>2020-06-18T08:46:40Z</time>
      </trkpt>
      <trkpt lat="45.35805" lon="5.90802">
        <ele>1304.17</ele>
        <time>2020-06-18T08:47:00Z</time>
      </trkpt>
      <trkpt lat="45.35807" lon="5.90788">
        <ele>1307.05</ele>
        <time>2020-06-18T08:47:20Z</time>
      </trkpt>
      <trkpt lat="45.35807" lon="5.90779">
        <ele>1310.41</ele>
        <time>2020-06-18T08:47:37Z</time>
      </trkpt>
      <trkpt lat="45.35802" lon="5.90769">
        <ele>1313.3</ele>
        <time>2020-06-18T08:47:54Z</time>
      </trkpt>
      <trkpt lat="45.35802" lon="5.90765">
        <ele>1315.7</ele>
        <time>2020-06-18T08:48:05Z</time>
      </trkpt>
      <trkpt lat="45.35793" lon="5.9076">
        <ele>1318.59</ele>
        <time>2020-06-18T08:48:26Z</time>
      </trkpt>
      <trkpt lat="45.35776" lon="5.90747">
        <ele>1320.99</ele>
        <time>2020-06-18T08:48:54Z</time>
      </trkpt>
      <trkpt lat="45.35768" lon="5.90735">
        <ele>1324.35</ele>
        <time>2020-06-18T08:49:11Z</time>
      </trkpt>
      <trkpt lat="45.35762" lon="5.90725">
        <ele>1327.24</ele>
        <time>2020-06-18T08:49:30Z</time>
      </trkpt>
      <trkpt lat="45.35759" lon="5.90713">
        <ele>1330.6</ele>
        <time>2020-06-18T08:49:45Z</time>
      </trkpt>
      <trkpt lat="45.3575" lon="5.907">
        <ele>1333.97</ele>
        <time>2020-06-18T08:50:05Z</time>
      </trkpt>
      <trkpt lat="45.35741" lon="5.9068">
        <ele>1337.33</ele>
        <time>2020-06-18T08:50:29Z</time>
      </trkpt>
      <trkpt lat="45.35735" lon="5.90666">
        <ele>1340.22</ele>
        <time>2020-06-18T08:50:49Z</time>
      </trkpt>
      <trkpt lat="45.35731" lon="5.90654">
        <ele>1343.58</ele>
        <time>2020-06-18T08:51:09Z</time>
      </trkpt>
      <trkpt lat="45.35723" lon="5.90638">
        <ele>1346.46</ele>
        <time>2020-06-18T08:51:32Z</time>
      </trkpt>
      <trkpt lat="45.35721" lon="5.90628">
        <ele>1348.39</ele>
        <time>2020-06-18T08:51:45Z</time>
      </trkpt>
      <trkpt lat="45.35718" lon="5.90622">
        <ele>1349.35</ele>
        <time>2020-06-18T08:51:52Z</time>
      </trkpt>
      <trkpt lat="45.35715" lon="5.90605">
        <ele>1352.23</ele>
        <time>2020-06-18T08:52:11Z</time>
      </trkpt>
      <trkpt lat="45.35706" lon="5.90597">
        <ele>1354.15</ele>
        <time>2020-06-18T08:52:25Z</time>
      </trkpt>
      <trkpt lat="45.35706" lon="5.90596">
        <ele>1354.63</ele>
        <time>2020-06-18T08:52:26Z</time>
      </trkpt>
      <trkpt lat="45.35705" lon="5.90595">
        <ele>1354.63</ele>
        <time>2020-06-18T08:52:27Z</time>
      </trkpt>
      <trkpt lat="45.35699" lon="5.90585">
        <ele>1357.52</ele>
        <time>2020-06-18T08:52:45Z</time>
      </trkpt>
      <trkpt lat="45.35689" lon="5.90574">
        <ele>1360.4</ele>
        <time>2020-06-18T08:53:07Z</time>
      </trkpt>
      <trkpt lat="45.35679" lon="5.90562">
        <ele>1363.29</ele>
        <time>2020-06-18T08:53:30Z</time>
      </trkpt>
      <trkpt lat="45.35672" lon="5.90547">
        <ele>1366.65</ele>
        <time>2020-06-18T08:53:54Z</time>
      </trkpt>
      <trkpt lat="45.3567" lon="5.90541">
        <ele>1367.13</ele>
        <time>2020-06-18T08:54:00Z</time>
      </trkpt>
      <trkpt lat="45.35666" lon="5.90529">
        <ele>1370.02</ele>
        <time>2020-06-18T08:54:18Z</time>
      </trkpt>
      <trkpt lat="45.35658" lon="5.90515">
        <ele>1373.38</ele>
        <time>2020-06-18T08:54:41Z</time>
      </trkpt>
      <trkpt lat="45.35652" lon="5.90497">
        <ele>1376.26</ele>
        <time>2020-06-18T08:55:03Z</time>
      </trkpt>
      <trkpt lat="45.35649" lon="5.90469">
        <ele>1378.19</ele>
        <time>2020-06-18T08:55:32Z</time>
      </trkpt>
      <trkpt lat="45.35648" lon="5.90463">
        <ele>1382.03</ele>
        <time>2020-06-18T08:55:39Z</time>
      </trkpt>
      <trkpt lat="45.35647" lon="5.90462">
        <ele>1382.03</ele>
        <time>2020-06-18T08:55:40Z</time>
      </trkpt>
      <trkpt lat="45.35642" lon="5.90444">
        <ele>1384.92</ele>
        <time>2020-06-18T08:56:07Z</time>
      </trkpt>
      <trkpt lat="45.3563" lon="5.90423">
        <ele>1387.8</ele>
        <time>2020-06-18T08:56:31Z</time>
      </trkpt>
      <trkpt lat="45.3562" lon="5.90405">
        <ele>1391.17</ele>
        <time>2020-06-18T08:56:54Z</time>
      </trkpt>
      <trkpt lat="45.35605" lon="5.90391">
        <ele>1394.05</ele>
        <time>2020-06-18T08:57:18Z</time>
      </trkpt>
      <trkpt lat="45.35594" lon="5.90383">
        <ele>1396.93</ele>
        <time>2020-06-18T08:57:40Z</time>
      </trkpt>
      <trkpt lat="45.35582" lon="5.90373">
        <ele>1399.82</ele>
        <time>2020-06-18T08:58:00Z</time>
      </trkpt>
      <trkpt lat="45.35573" lon="5.90362">
        <ele>1403.18</ele>
        <time>2020-06-18T08:58:22Z</time>
      </trkpt>
      <trkpt lat="45.35568" lon="5.90361">
        <ele>1404.14</ele>
        <time>2020-06-18T08:58:28Z</time>
      </trkpt>
      <trkpt lat="45.35557" lon="5.90356">
        <ele>1407.03</ele>
        <time>2020-06-18T08:58:48Z</time>
      </trkpt>
      <trkpt lat="45.35552" lon="5.90354">
        <ele>1408.47</ele>
        <time>2020-06-18T08:58:58Z</time>
      </trkpt>
      <trkpt lat="45.35551" lon="5.90354">
        <ele>1408.47</ele>
        <time>2020-06-18T08:58:59Z</time>
      </trkpt>
      <trkpt lat="45.35538" lon="5.9035">
        <ele>1411.83</ele>
        <time>2020-06-18T08:59:18Z</time>
      </trkpt>
      <trkpt lat="45.3553" lon="5.90342">
        <ele>1414.72</ele>
        <time>2020-06-18T08:59:39Z</time>
      </trkpt>
      <trkpt lat="45.35522" lon="5.90335">
        <ele>1417.6</ele>
        <time>2020-06-18T08:59:57Z</time>
      </trkpt>
      <trkpt lat="45.35517" lon="5.90323">
        <ele>1420.97</ele>
        <time>2020-06-18T09:00:16Z</time>
      </trkpt>
      <trkpt lat="45.35515" lon="5.90316">
        <ele>1423.85</ele>
        <time>2020-06-18T09:00:36Z</time>
      </trkpt>
      <trkpt lat="45.3552" lon="5.90302">
        <ele>1427.21</ele>
        <time>2020-06-18T09:00:56Z</time>
      </trkpt>
      <trkpt lat="45.35516" lon="5.9029">
        <ele>1430.1</ele>
        <time>2020-06-18T09:01:16Z</time>
      </trkpt>
      <trkpt lat="45.35504" lon="5.90285">
        <ele>1432.98</ele>
        <time>2020-06-18T09:01:39Z</time>
      </trkpt>
      <trkpt lat="45.35495" lon="5.90289">
        <ele>1436.35</ele>
        <time>2020-06-18T09:01:59Z</time>
      </trkpt>
      <trkpt lat="45.35482" lon="5.90296">
        <ele>1439.23</ele>
        <time>2020-06-18T09:02:20Z</time>
      </trkpt>
      <trkpt lat="45.35475" lon="5.90285">
        <ele>1441.63</ele>
        <time>2020-06-18T09:02:46Z</time>
      </trkpt>
      <trkpt lat="45.35469" lon="5.9028">
        <ele>1442.11</ele>
        <time>2020-06-18T09:03:00Z</time>
      </trkpt>
      <trkpt lat="45.35473" lon="5.90269">
        <ele>1444.04</ele>
        <time>2020-06-18T09:03:16Z</time>
      </trkpt>
      <trkpt lat="45.35475" lon="5.90259">
        <ele>1447.4</ele>
        <time>2020-06-18T09:03:32Z</time>
      </trkpt>
      <trkpt lat="45.35474" lon="5.90241">
        <ele>1450.29</ele>
        <time>2020-06-18T09:03:53Z</time>
      </trkpt>
      <trkpt lat="45.35475" lon="5.9022">
        <ele>1453.17</ele>
        <time>2020-06-18T09:04:11Z</time>
      </trkpt>
      <trkpt lat="45.35476" lon="5.9021">
        <ele>1453.65</ele>
        <time>2020-06-18T09:04:19Z</time>
      </trkpt>
      <trkpt lat="45.35482" lon="5.90192">
        <ele>1454.61</ele>
        <time>2020-06-18T09:04:36Z</time>
      </trkpt>
      <trkpt lat="45.35484" lon="5.90188">
        <ele>1457.5</ele>
        <time>2020-06-18T09:04:40Z</time>
      </trkpt>
      <trkpt lat="45.35492" lon="5.90169">
        <ele>1458.46</ele>
        <time>2020-06-18T09:04:58Z</time>
      </trkpt>
      <trkpt lat="45.35502" lon="5.90156">
        <ele>1460.86</ele>
        <time>2020-06-18T09:05:18Z</time>
      </trkpt>
      <trkpt lat="45.35514" lon="5.90153">
        <ele>1464.23</ele>
        <time>2020-06-18T09:05:39Z</time>
      </trkpt>
      <trkpt lat="45.35527" lon="5.90155">
        <ele>1467.11</ele>
        <time>2020-06-18T09:05:59Z</time>
      </trkpt>
      <trkpt lat="45.35538" lon="5.90159">
        <ele>1469.99</ele>
        <time>2020-06-18T09:06:18Z</time>
      </trkpt>
      <trkpt lat="45.35546" lon="5.90157">
        <ele>1473.36</ele>
        <time>2020-06-18T09:06:39Z</time>
      </trkpt>
      <trkpt lat="45.35552" lon="5.90154">
        <ele>1476.24</ele>
        <time>2020-06-18T09:06:55Z</time>
      </trkpt>
      <trkpt lat="45.35561" lon="5.90158">
        <ele>1479.13</ele>
        <time>2020-06-18T09:07:12Z</time>
      </trkpt>
      <trkpt lat="45.35571" lon="5.9016">
        <ele>1482.01</ele>
        <time>2020-06-18T09:07:30Z</time>
      </trkpt>
      <trkpt lat="45.35582" lon="5.90157">
        <ele>1485.37</ele>
        <time>2020-06-18T09:07:49Z</time>
      </trkpt>
      <trkpt lat="45.35593" lon="5.90157">
        <ele>1488.26</ele>
        <time>2020-06-18T09:08:08Z</time>
      </trkpt>
      <trkpt lat="45.35601" lon="5.90153">
        <ele>1491.62</ele>
        <time>2020-06-18T09:08:29Z</time>
      </trkpt>
      <trkpt lat="45.35612" lon="5.90153">
        <ele>1494.51</ele>
        <time>2020-06-18T09:08:50Z</time>
      </trkpt>
      <trkpt lat="45.35622" lon="5.9015">
        <ele>1497.87</ele>
        <time>2020-06-18T09:09:12Z</time>
      </trkpt>
      <trkpt lat="45.35633" lon="5.90149">
        <ele>1500.76</ele>
        <time>2020-06-18T09:09:33Z</time>
      </trkpt>
      <trkpt lat="45.3564" lon="5.90146">
        <ele>1504.12</ele>
        <time>2020-06-18T09:09:48Z</time>
      </trkpt>
      <trkpt lat="45.35649" lon="5.90145">
        <ele>1507</ele>
        <time>2020-06-18T09:10:08Z</time>
      </trkpt>
      <trkpt lat="45.35658" lon="5.90145">
        <ele>1509.89</ele>
        <time>2020-06-18T09:10:29Z</time>
      </trkpt>
      <trkpt lat="45.35669" lon="5.90149">
        <ele>1512.77</ele>
        <time>2020-06-18T09:10:51Z</time>
      </trkpt>
      <trkpt lat="45.35677" lon="5.90148">
        <ele>1516.14</ele>
        <time>2020-06-18T09:11:11Z</time>
      </trkpt>
      <trkpt lat="45.35678" lon="5.90136">
        <ele>1519.02</ele>
        <time>2020-06-18T09:11:32Z</time>
      </trkpt>
      <trkpt lat="45.35675" lon="5.90128">
        <ele>1522.39</ele>
        <time>2020-06-18T09:11:50Z</time>
      </trkpt>
      <trkpt lat="45.35671" lon="5.90122">
        <ele>1525.27</ele>
        <time>2020-06-18T09:12:09Z</time>
      </trkpt>
      <trkpt lat="45.35666" lon="5.90113">
        <ele>1528.63</ele>
        <time>2020-06-18T09:12:30Z</time>
      </trkpt>
      <trkpt lat="45.3566" lon="5.90099">
        <ele>1531.52</ele>
        <time>2020-06-18T09:12:51Z</time>
      </trkpt>
      <trkpt lat="45.35655" lon="5.90088">
        <ele>1534.4</ele>
        <time>2020-06-18T09:13:08Z</time>
      </trkpt>
      <trkpt lat="45.35647" lon="5.90078">
        <ele>1537.77</ele>
        <time>2020-06-18T09:13:29Z</time>
      </trkpt>
      <trkpt lat="45.35639" lon="5.90061">
        <ele>1540.65</ele>
        <time>2020-06-18T09:13:52Z</time>
      </trkpt>
      <trkpt lat="45.35629" lon="5.90048">
        <ele>1544.01</ele>
        <time>2020-06-18T09:14:16Z</time>
      </trkpt>
      <trkpt lat="45.35623" lon="5.90031">
        <ele>1546.9</ele>
        <time>2020-06-18T09:14:38Z</time>
      </trkpt>
      <trkpt lat="45.35621" lon="5.90009">
        <ele>1549.78</ele>
        <time>2020-06-18T09:15:03Z</time>
      </trkpt>
      <trkpt lat="45.35619" lon="5.89994">
        <ele>1553.15</ele>
        <time>2020-06-18T09:15:24Z</time>
      </trkpt>
      <trkpt lat="45.35617" lon="5.8998">
        <ele>1556.03</ele>
        <time>2020-06-18T09:15:44Z</time>
      </trkpt>
      <trkpt lat="45.35613" lon="5.89969">
        <ele>1559.4</ele>
        <time>2020-06-18T09:16:06Z</time>
      </trkpt>
      <trkpt lat="45.35619" lon="5.89959">
        <ele>1562.28</ele>
        <time>2020-06-18T09:16:27Z</time>
      </trkpt>
      <trkpt lat="45.35621" lon="5.89948">
        <ele>1565.16</ele>
        <time>2020-06-18T09:16:51Z</time>
      </trkpt>
      <trkpt lat="45.35623" lon="5.8994">
        <ele>1568.53</ele>
        <time>2020-06-18T09:17:10Z</time>
      </trkpt>
      <trkpt lat="45.35628" lon="5.89927">
        <ele>1571.41</ele>
        <time>2020-06-18T09:17:34Z</time>
      </trkpt>
      <trkpt lat="45.35628" lon="5.8992">
        <ele>1574.3</ele>
        <time>2020-06-18T09:17:50Z</time>
      </trkpt>
      <trkpt lat="45.35637" lon="5.89908">
        <ele>1577.18</ele>
        <time>2020-06-18T09:18:11Z</time>
      </trkpt>
      <trkpt lat="45.35637" lon="5.89897">
        <ele>1580.54</ele>
        <time>2020-06-18T09:18:31Z</time>
      </trkpt>
      <trkpt lat="45.35638" lon="5.89885">
        <ele>1583.43</ele>
        <time>2020-06-18T09:18:51Z</time>
      </trkpt>
      <trkpt lat="45.35632" lon="5.89867">
        <ele>1586.79</ele>
        <time>2020-06-18T09:19:15Z</time>
      </trkpt>
      <trkpt lat="45.35627" lon="5.89852">
        <ele>1589.68</ele>
        <time>2020-06-18T09:19:37Z</time>
      </trkpt>
      <trkpt lat="45.3562" lon="5.89837">
        <ele>1592.56</ele>
        <time>2020-06-18T09:19:59Z</time>
      </trkpt>
      <trkpt lat="45.35624" lon="5.8983">
        <ele>1594</ele>
        <time>2020-06-18T09:20:17Z</time>
      </trkpt>
      <trkpt lat="45.35635" lon="5.89838">
        <ele>1597.37</ele>
        <time>2020-06-18T09:20:38Z</time>
      </trkpt>
      <trkpt lat="45.35635" lon="5.89827">
        <ele>1599.77</ele>
        <time>2020-06-18T09:20:57Z</time>
      </trkpt>
      <trkpt lat="45.35633" lon="5.89818">
        <ele>1602.17</ele>
        <time>2020-06-18T09:21:14Z</time>
      </trkpt>
      <trkpt lat="45.35628" lon="5.89807">
        <ele>1605.54</ele>
        <time>2020-06-18T09:21:34Z</time>
      </trkpt>
      <trkpt lat="45.35622" lon="5.89795">
        <ele>1608.42</ele>
        <time>2020-06-18T09:21:54Z</time>
      </trkpt>
      <trkpt lat="45.35619" lon="5.89784">
        <ele>1611.31</ele>
        <time>2020-06-18T09:22:12Z</time>
      </trkpt>
      <trkpt lat="45.35619" lon="5.89769">
        <ele>1614.67</ele>
        <time>2020-06-18T09:22:36Z</time>
      </trkpt>
      <trkpt lat="45.3562" lon="5.89757">
        <ele>1617.07</ele>
        <time>2020-06-18T09:22:55Z</time>
      </trkpt>
      <trkpt lat="45.35619" lon="5.89744">
        <ele>1619.96</ele>
        <time>2020-06-18T09:23:17Z</time>
      </trkpt>
      <trkpt lat="45.35614" lon="5.89733">
        <ele>1623.32</ele>
        <time>2020-06-18T09:23:39Z</time>
      </trkpt>
      <trkpt lat="45.35613" lon="5.89721">
        <ele>1626.21</ele>
        <time>2020-06-18T09:24:00Z</time>
      </trkpt>
      <trkpt lat="45.35611" lon="5.89711">
        <ele>1629.09</ele>
        <time>2020-06-18T09:24:19Z</time>
      </trkpt>
      <trkpt lat="45.35616" lon="5.89706">
        <ele>1631.98</ele>
        <time>2020-06-18T09:24:38Z</time>
      </trkpt>
      <trkpt lat="45.35613" lon="5.89699">
        <ele>1634.38</ele>
        <time>2020-06-18T09:24:53Z</time>
      </trkpt>
      <trkpt lat="45.35608" lon="5.8969">
        <ele>1637.26</ele>
        <time>2020-06-18T09:25:15Z</time>
      </trkpt>
      <trkpt lat="45.35616" lon="5.89684">
        <ele>1640.63</ele>
        <time>2020-06-18T09:25:35Z</time>
      </trkpt>
      <trkpt lat="45.35614" lon="5.89681">
        <ele>1642.55</ele>
        <time>2020-06-18T09:25:50Z</time>
      </trkpt>
      <trkpt lat="45.35615" lon="5.89668">
        <ele>1645.43</ele>
        <time>2020-06-18T09:26:12Z</time>
      </trkpt>
      <trkpt lat="45.35616" lon="5.8966">
        <ele>1648.32</ele>
        <time>2020-06-18T09:26:31Z</time>
      </trkpt>
      <trkpt lat="45.35614" lon="5.89651">
        <ele>1651.2</ele>
        <time>2020-06-18T09:26:51Z</time>
      </trkpt>
      <trkpt lat="45.35613" lon="5.8964">
        <ele>1654.09</ele>
        <time>2020-06-18T09:27:11Z</time>
      </trkpt>
      <trkpt lat="45.3562" lon="5.89639">
        <ele>1656.49</ele>
        <time>2020-06-18T09:27:31Z</time>
      </trkpt>
      <trkpt lat="45.35626" lon="5.89642">
        <ele>1659.85</ele>
        <time>2020-06-18T09:27:50Z</time>
      </trkpt>
      <trkpt lat="45.35632" lon="5.89648">
        <ele>1662.74</ele>
        <time>2020-06-18T09:28:14Z</time>
      </trkpt>
      <trkpt lat="45.35639" lon="5.89653">
        <ele>1665.62</ele>
        <time>2020-06-18T09:28:38Z</time>
      </trkpt>
      <trkpt lat="45.35643" lon="5.89649">
        <ele>1668.02</ele>
        <time>2020-06-18T09:29:00Z</time>
      </trkpt>
      <trkpt lat="45.35649" lon="5.89648">
        <ele>1671.39</ele>
        <time>2020-06-18T09:29:23Z</time>
      </trkpt>
      <trkpt lat="45.35646" lon="5.8964">
        <ele>1673.79</ele>
        <time>2020-06-18T09:29:44Z</time>
      </trkpt>
      <trkpt lat="45.35643" lon="5.8963">
        <ele>1677.16</ele>
        <time>2020-06-18T09:30:05Z</time>
      </trkpt>
      <trkpt lat="45.35648" lon="5.89628">
        <ele>1679.56</ele>
        <time>2020-06-18T09:30:22Z</time>
      </trkpt>
      <trkpt lat="45.35654" lon="5.89624">
        <ele>1681.96</ele>
        <time>2020-06-18T09:30:42Z</time>
      </trkpt>
      <trkpt lat="45.35651" lon="5.89613">
        <ele>1684.37</ele>
        <time>2020-06-18T09:31:00Z</time>
      </trkpt>
      <trkpt lat="45.35646" lon="5.89603">
        <ele>1687.73</ele>
        <time>2020-06-18T09:31:18Z</time>
      </trkpt>
      <trkpt lat="45.35643" lon="5.89593">
        <ele>1689.65</ele>
        <time>2020-06-18T09:31:33Z</time>
      </trkpt>
      <trkpt lat="45.35637" lon="5.89586">
        <ele>1693.02</ele>
        <time>2020-06-18T09:31:54Z</time>
      </trkpt>
      <trkpt lat="45.35632" lon="5.89577">
        <ele>1695.42</ele>
        <time>2020-06-18T09:32:14Z</time>
      </trkpt>
      <trkpt lat="45.35634" lon="5.89569">
        <ele>1697.83</ele>
        <time>2020-06-18T09:32:32Z</time>
      </trkpt>
      <trkpt lat="45.35644" lon="5.89569">
        <ele>1701.19</ele>
        <time>2020-06-18T09:32:51Z</time>
      </trkpt>
      <trkpt lat="45.35651" lon="5.89573">
        <ele>1704.55</ele>
        <time>2020-06-18T09:33:11Z</time>
      </trkpt>
      <trkpt lat="45.35661" lon="5.89573">
        <ele>1707.44</ele>
        <time>2020-06-18T09:33:36Z</time>
      </trkpt>
      <trkpt lat="45.35659" lon="5.89567">
        <ele>1710.32</ele>
        <time>2020-06-18T09:33:58Z</time>
      </trkpt>
      <trkpt lat="45.35654" lon="5.89557">
        <ele>1713.21</ele>
        <time>2020-06-18T09:34:16Z</time>
      </trkpt>
      <trkpt lat="45.35651" lon="5.89546">
        <ele>1716.09</ele>
        <time>2020-06-18T09:34:39Z</time>
      </trkpt>
      <trkpt lat="45.35663" lon="5.89546">
        <ele>1719.46</ele>
        <time>2020-06-18T09:35:01Z</time>
      </trkpt>
      <trkpt lat="45.35672" lon="5.89546">
        <ele>1721.86</ele>
        <time>2020-06-18T09:35:21Z</time>
      </trkpt>
      <trkpt lat="45.35678" lon="5.89552">
        <ele>1725.22</ele>
        <time>2020-06-18T09:35:42Z</time>
      </trkpt>
      <trkpt lat="45.35684" lon="5.89564">
        <ele>1728.11</ele>
        <time>2020-06-18T09:36:03Z</time>
      </trkpt>
      <trkpt lat="45.35691" lon="5.89564">
        <ele>1730.51</ele>
        <time>2020-06-18T09:36:24Z</time>
      </trkpt>
      <trkpt lat="45.35699" lon="5.8957">
        <ele>1733.88</ele>
        <time>2020-06-18T09:36:44Z</time>
      </trkpt>
      <trkpt lat="45.35693" lon="5.89558">
        <ele>1736.76</ele>
        <time>2020-06-18T09:37:05Z</time>
      </trkpt>
      <trkpt lat="45.35686" lon="5.89541">
        <ele>1739.64</ele>
        <time>2020-06-18T09:37:31Z</time>
      </trkpt>
      <trkpt lat="45.35682" lon="5.89529">
        <ele>1742.05</ele>
        <time>2020-06-18T09:37:48Z</time>
      </trkpt>
      <trkpt lat="45.35691" lon="5.89535">
        <ele>1744.93</ele>
        <time>2020-06-18T09:38:06Z</time>
      </trkpt>
      <trkpt lat="45.35701" lon="5.89539">
        <ele>1747.33</ele>
        <time>2020-06-18T09:38:26Z</time>
      </trkpt>
      <trkpt lat="45.35707" lon="5.89552">
        <ele>1750.7</ele>
        <time>2020-06-18T09:38:48Z</time>
      </trkpt>
      <trkpt lat="45.35713" lon="5.89559">
        <ele>1753.58</ele>
        <time>2020-06-18T09:39:06Z</time>
      </trkpt>
      <trkpt lat="45.35708" lon="5.89546">
        <ele>1755.99</ele>
        <time>2020-06-18T09:39:24Z</time>
      </trkpt>
      <trkpt lat="45.35704" lon="5.89528">
        <ele>1759.35</ele>
        <time>2020-06-18T09:39:46Z</time>
      </trkpt>
      <trkpt lat="45.35708" lon="5.89538">
        <ele>1761.75</ele>
        <time>2020-06-18T09:40:10Z</time>
      </trkpt>
      <trkpt lat="45.35724" lon="5.89551">
        <ele>1765.12</ele>
        <time>2020-06-18T09:40:32Z</time>
      </trkpt>
      <trkpt lat="45.35723" lon="5.89569">
        <ele>1768</ele>
        <time>2020-06-18T09:40:56Z</time>
      </trkpt>
      <trkpt lat="45.35731" lon="5.89582">
        <ele>1770.89</ele>
        <time>2020-06-18T09:41:21Z</time>
      </trkpt>
      <trkpt lat="45.35744" lon="5.89608">
        <ele>1773.77</ele>
        <time>2020-06-18T09:41:47Z</time>
      </trkpt>
      <trkpt lat="45.35749" lon="5.89632">
        <ele>1777.13</ele>
        <time>2020-06-18T09:42:12Z</time>
      </trkpt>
      <trkpt lat="45.35747" lon="5.89654">
        <ele>1779.06</ele>
        <time>2020-06-18T09:42:31Z</time>
      </trkpt>
      <trkpt lat="45.35749" lon="5.89676">
        <ele>1781.46</ele>
        <time>2020-06-18T09:42:52Z</time>
      </trkpt>
      <trkpt lat="45.35745" lon="5.89703">
        <ele>1784.34</ele>
        <time>2020-06-18T09:43:16Z</time>
      </trkpt>
      <trkpt lat="45.35742" lon="5.89731">
        <ele>1786.75</ele>
        <time>2020-06-18T09:43:44Z</time>
      </trkpt>
      <trkpt lat="45.35743" lon="5.89763">
        <ele>1789.63</ele>
        <time>2020-06-18T09:44:14Z</time>
      </trkpt>
      <trkpt lat="45.35754" lon="5.89779">
        <ele>1786.75</ele>
        <time>2020-06-18T09:44:31Z</time>
      </trkpt>
      <trkpt lat="45.35764" lon="5.89789">
        <ele>1790.11</ele>
        <time>2020-06-18T09:44:49Z</time>
      </trkpt>
      <trkpt lat="45.35765" lon="5.89792">
        <ele>1792.03</ele>
        <time>2020-06-18T09:44:52Z</time>
      </trkpt>
      <trkpt lat="45.35777" lon="5.89796">
        <ele>1792.52</ele>
        <time>2020-06-18T09:45:08Z</time>
      </trkpt>
      <trkpt lat="45.35783" lon="5.89795">
        <ele>1792.03</ele>
        <time>2020-06-18T09:45:14Z</time>
      </trkpt>
      <trkpt lat="45.35793" lon="5.8978">
        <ele>1790.11</ele>
        <time>2020-06-18T09:45:29Z</time>
      </trkpt>
      <trkpt lat="45.35799" lon="5.89766">
        <ele>1789.15</ele>
        <time>2020-06-18T09:45:43Z</time>
      </trkpt>
      <trkpt lat="45.35806" lon="5.89748">
        <ele>1787.23</ele>
        <time>2020-06-18T09:45:59Z</time>
      </trkpt>
      <trkpt lat="45.35807" lon="5.89746">
        <ele>1787.23</ele>
        <time>2020-06-18T09:46:00Z</time>
      </trkpt>
      <trkpt lat="45.35824" lon="5.89746">
        <ele>1787.71</ele>
        <time>2020-06-18T09:46:21Z</time>
      </trkpt>
      <trkpt lat="45.35823" lon="5.89734">
        <ele>1790.11</ele>
        <time>2020-06-18T09:46:40Z</time>
      </trkpt>
      <trkpt lat="45.35818" lon="5.89724">
        <ele>1793</ele>
        <time>2020-06-18T09:46:55Z</time>
      </trkpt>
      <trkpt lat="45.35814" lon="5.89722">
        <ele>1796.36</ele>
        <time>2020-06-18T09:47:12Z</time>
      </trkpt>
      <trkpt lat="45.3581" lon="5.89728">
        <ele>1799.24</ele>
        <time>2020-06-18T09:47:32Z</time>
      </trkpt>
      <trkpt lat="45.35809" lon="5.89716">
        <ele>1802.13</ele>
        <time>2020-06-18T09:47:55Z</time>
      </trkpt>
      <trkpt lat="45.35812" lon="5.89711">
        <ele>1805.49</ele>
        <time>2020-06-18T09:48:10Z</time>
      </trkpt>
      <trkpt lat="45.35813" lon="5.89698">
        <ele>1808.38</ele>
        <time>2020-06-18T09:48:29Z</time>
      </trkpt>
      <trkpt lat="45.35814" lon="5.89685">
        <ele>1811.26</ele>
        <time>2020-06-18T09:48:47Z</time>
      </trkpt>
      <trkpt lat="45.35818" lon="5.89683">
        <ele>1814.15</ele>
        <time>2020-06-18T09:49:05Z</time>
      </trkpt>
      <trkpt lat="45.35818" lon="5.89681">
        <ele>1811.74</ele>
        <time>2020-06-18T09:49:21Z</time>
      </trkpt>
      <trkpt lat="45.35815" lon="5.8968">
        <ele>1810.3</ele>
        <time>2020-06-18T09:49:36Z</time>
      </trkpt>
      <trkpt lat="45.35816" lon="5.89681">
        <ele>1813.66</ele>
        <time>2020-06-18T09:49:42Z</time>
      </trkpt>
      <trkpt lat="45.35814" lon="5.89682">
        <ele>1812.22</ele>
        <time>2020-06-18T09:50:14Z</time>
      </trkpt>
      <trkpt lat="45.35814" lon="5.89683">
        <ele>1813.18</ele>
        <time>2020-06-18T09:51:03Z</time>
      </trkpt>
      <trkpt lat="45.35815" lon="5.89683">
        <ele>1813.66</ele>
        <time>2020-06-18T09:51:30Z</time>
      </trkpt>
      <trkpt lat="45.35815" lon="5.89683">
        <ele>1814.63</ele>
        <time>2020-06-18T09:51:39Z</time>
      </trkpt>
      <trkpt lat="45.35815" lon="5.89684">
        <ele>1813.18</ele>
        <time>2020-06-18T09:52:17Z</time>
      </trkpt>
      <trkpt lat="45.35816" lon="5.89684">
        <ele>1812.7</ele>
        <time>2020-06-18T09:52:50Z</time>
      </trkpt>
      <trkpt lat="45.35823" lon="5.8968">
        <ele>1811.26</ele>
        <time>2020-06-18T09:53:09Z</time>
      </trkpt>
      <trkpt lat="45.35833" lon="5.89673">
        <ele>1808.38</ele>
        <time>2020-06-18T09:53:30Z</time>
      </trkpt>
      <trkpt lat="45.35827" lon="5.89662">
        <ele>1805.49</ele>
        <time>2020-06-18T09:53:46Z</time>
      </trkpt>
      <trkpt lat="45.35822" lon="5.89651">
        <ele>1803.09</ele>
        <time>2020-06-18T09:54:04Z</time>
      </trkpt>
      <trkpt lat="45.35818" lon="5.89637">
        <ele>1800.21</ele>
        <time>2020-06-18T09:54:18Z</time>
      </trkpt>
      <trkpt lat="45.35814" lon="5.89624">
        <ele>1796.84</ele>
        <time>2020-06-18T09:54:32Z</time>
      </trkpt>
      <trkpt lat="45.35812" lon="5.89608">
        <ele>1793.96</ele>
        <time>2020-06-18T09:54:48Z</time>
      </trkpt>
      <trkpt lat="45.35808" lon="5.89597">
        <ele>1791.07</ele>
        <time>2020-06-18T09:55:05Z</time>
      </trkpt>
      <trkpt lat="45.35809" lon="5.89588">
        <ele>1788.19</ele>
        <time>2020-06-18T09:55:21Z</time>
      </trkpt>
      <trkpt lat="45.35809" lon="5.89585">
        <ele>1787.71</ele>
        <time>2020-06-18T09:55:24Z</time>
      </trkpt>
      <trkpt lat="45.35808" lon="5.89576">
        <ele>1784.82</ele>
        <time>2020-06-18T09:55:35Z</time>
      </trkpt>
      <trkpt lat="45.35804" lon="5.89563">
        <ele>1781.46</ele>
        <time>2020-06-18T09:55:48Z</time>
      </trkpt>
      <trkpt lat="45.35799" lon="5.89549">
        <ele>1778.58</ele>
        <time>2020-06-18T09:56:04Z</time>
      </trkpt>
      <trkpt lat="45.35794" lon="5.89538">
        <ele>1775.21</ele>
        <time>2020-06-18T09:56:17Z</time>
      </trkpt>
      <trkpt lat="45.3579" lon="5.89524">
        <ele>1772.33</ele>
        <time>2020-06-18T09:56:34Z</time>
      </trkpt>
      <trkpt lat="45.35788" lon="5.89514">
        <ele>1768.96</ele>
        <time>2020-06-18T09:56:49Z</time>
      </trkpt>
      <trkpt lat="45.35798" lon="5.89515">
        <ele>1766.08</ele>
        <time>2020-06-18T09:57:05Z</time>
      </trkpt>
      <trkpt lat="45.35798" lon="5.89504">
        <ele>1763.2</ele>
        <time>2020-06-18T09:57:20Z</time>
      </trkpt>
      <trkpt lat="45.35798" lon="5.89493">
        <ele>1759.83</ele>
        <time>2020-06-18T09:57:35Z</time>
      </trkpt>
      <trkpt lat="45.358" lon="5.89483">
        <ele>1756.95</ele>
        <time>2020-06-18T09:57:49Z</time>
      </trkpt>
      <trkpt lat="45.358" lon="5.8947">
        <ele>1753.58</ele>
        <time>2020-06-18T09:58:03Z</time>
      </trkpt>
      <trkpt lat="45.35801" lon="5.89456">
        <ele>1750.22</ele>
        <time>2020-06-18T09:58:20Z</time>
      </trkpt>
      <trkpt lat="45.35802" lon="5.89439">
        <ele>1747.33</ele>
        <time>2020-06-18T09:58:36Z</time>
      </trkpt>
      <trkpt lat="45.35801" lon="5.89434">
        <ele>1744.93</ele>
        <time>2020-06-18T09:58:54Z</time>
      </trkpt>
      <trkpt lat="45.35802" lon="5.89424">
        <ele>1743.97</ele>
        <time>2020-06-18T09:59:16Z</time>
      </trkpt>
      <trkpt lat="45.35803" lon="5.89415">
        <ele>1740.6</ele>
        <time>2020-06-18T09:59:24Z</time>
      </trkpt>
      <trkpt lat="45.35804" lon="5.89413">
        <ele>1739.64</ele>
        <time>2020-06-18T09:59:26Z</time>
      </trkpt>
      <trkpt lat="45.35805" lon="5.89401">
        <ele>1739.16</ele>
        <time>2020-06-18T09:59:36Z</time>
      </trkpt>
      <trkpt lat="45.35804" lon="5.89387">
        <ele>1737.72</ele>
        <time>2020-06-18T09:59:51Z</time>
      </trkpt>
      <trkpt lat="45.3581" lon="5.89376">
        <ele>1734.84</ele>
        <time>2020-06-18T10:00:05Z</time>
      </trkpt>
      <trkpt lat="45.35816" lon="5.89367">
        <ele>1731.47</ele>
        <time>2020-06-18T10:00:19Z</time>
      </trkpt>
      <trkpt lat="45.35823" lon="5.89358">
        <ele>1728.59</ele>
        <time>2020-06-18T10:00:31Z</time>
      </trkpt>
      <trkpt lat="45.35833" lon="5.89355">
        <ele>1725.22</ele>
        <time>2020-06-18T10:00:45Z</time>
      </trkpt>
      <trkpt lat="45.3584" lon="5.89351">
        <ele>1722.34</ele>
        <time>2020-06-18T10:00:55Z</time>
      </trkpt>
      <trkpt lat="45.35847" lon="5.89343">
        <ele>1718.97</ele>
        <time>2020-06-18T10:01:07Z</time>
      </trkpt>
      <trkpt lat="45.35854" lon="5.89337">
        <ele>1716.09</ele>
        <time>2020-06-18T10:01:19Z</time>
      </trkpt>
      <trkpt lat="45.35861" lon="5.89327">
        <ele>1712.73</ele>
        <time>2020-06-18T10:01:32Z</time>
      </trkpt>
      <trkpt lat="45.35868" lon="5.89315">
        <ele>1709.84</ele>
        <time>2020-06-18T10:01:48Z</time>
      </trkpt>
      <trkpt lat="45.35874" lon="5.89302">
        <ele>1706.96</ele>
        <time>2020-06-18T10:02:05Z</time>
      </trkpt>
      <trkpt lat="45.35881" lon="5.89292">
        <ele>1703.59</ele>
        <time>2020-06-18T10:02:19Z</time>
      </trkpt>
      <trkpt lat="45.35889" lon="5.89282">
        <ele>1700.71</ele>
        <time>2020-06-18T10:02:32Z</time>
      </trkpt>
      <trkpt lat="45.35896" lon="5.89274">
        <ele>1697.83</ele>
        <time>2020-06-18T10:02:44Z</time>
      </trkpt>
      <trkpt lat="45.35904" lon="5.89263">
        <ele>1694.46</ele>
        <time>2020-06-18T10:02:58Z</time>
      </trkpt>
      <trkpt lat="45.35911" lon="5.89251">
        <ele>1692.06</ele>
        <time>2020-06-18T10:03:12Z</time>
      </trkpt>
      <trkpt lat="45.35915" lon="5.89246">
        <ele>1691.1</ele>
        <time>2020-06-18T10:03:18Z</time>
      </trkpt>
      <trkpt lat="45.35918" lon="5.89242">
        <ele>1690.62</ele>
        <time>2020-06-18T10:03:22Z</time>
      </trkpt>
      <trkpt lat="45.35919" lon="5.89241">
        <ele>1690.14</ele>
        <time>2020-06-18T10:03:24Z</time>
      </trkpt>
      <trkpt lat="45.35928" lon="5.89237">
        <ele>1688.69</ele>
        <time>2020-06-18T10:03:34Z</time>
      </trkpt>
      <trkpt lat="45.35935" lon="5.89235">
        <ele>1688.21</ele>
        <time>2020-06-18T10:03:42Z</time>
      </trkpt>
      <trkpt lat="45.35938" lon="5.89234">
        <ele>1687.73</ele>
        <time>2020-06-18T10:03:45Z</time>
      </trkpt>
      <trkpt lat="45.35948" lon="5.89225">
        <ele>1685.33</ele>
        <time>2020-06-18T10:04:01Z</time>
      </trkpt>
      <trkpt lat="45.35952" lon="5.89217">
        <ele>1683.41</ele>
        <time>2020-06-18T10:04:16Z</time>
      </trkpt>
      <trkpt lat="45.35953" lon="5.892">
        <ele>1681</ele>
        <time>2020-06-18T10:04:30Z</time>
      </trkpt>
      <trkpt lat="45.35956" lon="5.89185">
        <ele>1678.12</ele>
        <time>2020-06-18T10:04:44Z</time>
      </trkpt>
      <trkpt lat="45.35959" lon="5.89183">
        <ele>1677.16</ele>
        <time>2020-06-18T10:04:49Z</time>
      </trkpt>
      <trkpt lat="45.35964" lon="5.89168">
        <ele>1673.79</ele>
        <time>2020-06-18T10:05:04Z</time>
      </trkpt>
      <trkpt lat="45.35969" lon="5.89155">
        <ele>1670.43</ele>
        <time>2020-06-18T10:05:18Z</time>
      </trkpt>
      <trkpt lat="45.35974" lon="5.89144">
        <ele>1667.54</ele>
        <time>2020-06-18T10:05:33Z</time>
      </trkpt>
      <trkpt lat="45.35981" lon="5.89139">
        <ele>1664.18</ele>
        <time>2020-06-18T10:05:47Z</time>
      </trkpt>
      <trkpt lat="45.35979" lon="5.89124">
        <ele>1661.3</ele>
        <time>2020-06-18T10:06:00Z</time>
      </trkpt>
      <trkpt lat="45.3598" lon="5.8911">
        <ele>1658.89</ele>
        <time>2020-06-18T10:06:13Z</time>
      </trkpt>
      <trkpt lat="45.35981" lon="5.89104">
        <ele>1658.41</ele>
        <time>2020-06-18T10:06:17Z</time>
      </trkpt>
      <trkpt lat="45.35984" lon="5.89101">
        <ele>1657.93</ele>
        <time>2020-06-18T10:06:21Z</time>
      </trkpt>
      <trkpt lat="45.35993" lon="5.891">
        <ele>1656.49</ele>
        <time>2020-06-18T10:06:30Z</time>
      </trkpt>
      <trkpt lat="45.35998" lon="5.891">
        <ele>1656.01</ele>
        <time>2020-06-18T10:06:35Z</time>
      </trkpt>
      <trkpt lat="45.36004" lon="5.89098">
        <ele>1654.57</ele>
        <time>2020-06-18T10:06:46Z</time>
      </trkpt>
      <trkpt lat="45.36005" lon="5.89095">
        <ele>1654.09</ele>
        <time>2020-06-18T10:06:48Z</time>
      </trkpt>
      <trkpt lat="45.36005" lon="5.89085">
        <ele>1653.6</ele>
        <time>2020-06-18T10:06:55Z</time>
      </trkpt>
      <trkpt lat="45.36007" lon="5.8908">
        <ele>1653.12</ele>
        <time>2020-06-18T10:07:00Z</time>
      </trkpt>
      <trkpt lat="45.36012" lon="5.89075">
        <ele>1652.16</ele>
        <time>2020-06-18T10:07:06Z</time>
      </trkpt>
      <trkpt lat="45.36025" lon="5.89058">
        <ele>1650.72</ele>
        <time>2020-06-18T10:07:24Z</time>
      </trkpt>
      <trkpt lat="45.36039" lon="5.89044">
        <ele>1650.72</ele>
        <time>2020-06-18T10:07:41Z</time>
      </trkpt>
      <trkpt lat="45.36052" lon="5.89036">
        <ele>1648.8</ele>
        <time>2020-06-18T10:07:56Z</time>
      </trkpt>
      <trkpt lat="45.36054" lon="5.89031">
        <ele>1648.32</ele>
        <time>2020-06-18T10:08:00Z</time>
      </trkpt>
      <trkpt lat="45.36056" lon="5.89022">
        <ele>1647.84</ele>
        <time>2020-06-18T10:08:07Z</time>
      </trkpt>
      <trkpt lat="45.3606" lon="5.89003">
        <ele>1648.8</ele>
        <time>2020-06-18T10:08:22Z</time>
      </trkpt>
      <trkpt lat="45.36062" lon="5.88998">
        <ele>1648.8</ele>
        <time>2020-06-18T10:08:27Z</time>
      </trkpt>
      <trkpt lat="45.36069" lon="5.88981">
        <ele>1649.28</ele>
        <time>2020-06-18T10:08:42Z</time>
      </trkpt>
      <trkpt lat="45.36078" lon="5.88973">
        <ele>1651.2</ele>
        <time>2020-06-18T10:08:57Z</time>
      </trkpt>
      <trkpt lat="45.36079" lon="5.88972">
        <ele>1651.2</ele>
        <time>2020-06-18T10:08:59Z</time>
      </trkpt>
      <trkpt lat="45.36089" lon="5.88961">
        <ele>1649.76</ele>
        <time>2020-06-18T10:09:15Z</time>
      </trkpt>
      <trkpt lat="45.36096" lon="5.88964">
        <ele>1648.32</ele>
        <time>2020-06-18T10:09:23Z</time>
      </trkpt>
      <trkpt lat="45.36103" lon="5.88965">
        <ele>1647.84</ele>
        <time>2020-06-18T10:09:30Z</time>
      </trkpt>
      <trkpt lat="45.3611" lon="5.88963">
        <ele>1647.36</ele>
        <time>2020-06-18T10:09:38Z</time>
      </trkpt>
      <trkpt lat="45.36112" lon="5.88964">
        <ele>1647.36</ele>
        <time>2020-06-18T10:09:40Z</time>
      </trkpt>
      <trkpt lat="45.36125" lon="5.88959">
        <ele>1644.95</ele>
        <time>2020-06-18T10:09:58Z</time>
      </trkpt>
      <trkpt lat="45.36129" lon="5.88957">
        <ele>1643.99</ele>
        <time>2020-06-18T10:10:03Z</time>
      </trkpt>
      <trkpt lat="45.36133" lon="5.88957">
        <ele>1643.03</ele>
        <time>2020-06-18T10:10:18Z</time>
      </trkpt>
      <trkpt lat="45.36136" lon="5.88957">
        <ele>1643.03</ele>
        <time>2020-06-18T10:10:21Z</time>
      </trkpt>
      <trkpt lat="45.36147" lon="5.88951">
        <ele>1642.07</ele>
        <time>2020-06-18T10:10:35Z</time>
      </trkpt>
      <trkpt lat="45.36157" lon="5.8895">
        <ele>1641.59</ele>
        <time>2020-06-18T10:10:48Z</time>
      </trkpt>
      <trkpt lat="45.36171" lon="5.8895">
        <ele>1641.11</ele>
        <time>2020-06-18T10:11:03Z</time>
      </trkpt>
      <trkpt lat="45.36177" lon="5.88953">
        <ele>1641.11</ele>
        <time>2020-06-18T10:11:09Z</time>
      </trkpt>
      <trkpt lat="45.36189" lon="5.88954">
        <ele>1640.15</ele>
        <time>2020-06-18T10:11:24Z</time>
      </trkpt>
      <trkpt lat="45.36204" lon="5.88955">
        <ele>1638.22</ele>
        <time>2020-06-18T10:11:40Z</time>
      </trkpt>
      <trkpt lat="45.36213" lon="5.88954">
        <ele>1638.22</ele>
        <time>2020-06-18T10:11:51Z</time>
      </trkpt>
      <trkpt lat="45.36214" lon="5.88952">
        <ele>1638.22</ele>
        <time>2020-06-18T10:11:53Z</time>
      </trkpt>
      <trkpt lat="45.36222" lon="5.88949">
        <ele>1637.74</ele>
        <time>2020-06-18T10:12:03Z</time>
      </trkpt>
      <trkpt lat="45.36229" lon="5.88947">
        <ele>1637.26</ele>
        <time>2020-06-18T10:12:11Z</time>
      </trkpt>
      <trkpt lat="45.36238" lon="5.88948">
        <ele>1637.26</ele>
        <time>2020-06-18T10:12:22Z</time>
      </trkpt>
      <trkpt lat="45.36249" lon="5.88946">
        <ele>1636.3</ele>
        <time>2020-06-18T10:12:36Z</time>
      </trkpt>
      <trkpt lat="45.3625" lon="5.88946">
        <ele>1635.82</ele>
        <time>2020-06-18T10:12:38Z</time>
      </trkpt>
      <trkpt lat="45.36256" lon="5.88949">
        <ele>1634.38</ele>
        <time>2020-06-18T10:12:46Z</time>
      </trkpt>
      <trkpt lat="45.36268" lon="5.88945">
        <ele>1632.46</ele>
        <time>2020-06-18T10:13:02Z</time>
      </trkpt>
      <trkpt lat="45.36269" lon="5.88945">
        <ele>1632.46</ele>
        <time>2020-06-18T10:13:03Z</time>
      </trkpt>
      <trkpt lat="45.36274" lon="5.88942">
        <ele>1631.98</ele>
        <time>2020-06-18T10:13:09Z</time>
      </trkpt>
      <trkpt lat="45.36281" lon="5.88936">
        <ele>1631.01</ele>
        <time>2020-06-18T10:13:20Z</time>
      </trkpt>
      <trkpt lat="45.36284" lon="5.88933">
        <ele>1630.53</ele>
        <time>2020-06-18T10:13:23Z</time>
      </trkpt>
      <trkpt lat="45.36296" lon="5.88923">
        <ele>1628.61</ele>
        <time>2020-06-18T10:13:40Z</time>
      </trkpt>
      <trkpt lat="45.36313" lon="5.88914">
        <ele>1626.69</ele>
        <time>2020-06-18T10:13:59Z</time>
      </trkpt>
      <trkpt lat="45.3632" lon="5.88905">
        <ele>1626.21</ele>
        <time>2020-06-18T10:14:11Z</time>
      </trkpt>
      <trkpt lat="45.36326" lon="5.88902">
        <ele>1625.25</ele>
        <time>2020-06-18T10:14:19Z</time>
      </trkpt>
      <trkpt lat="45.36341" lon="5.88904">
        <ele>1623.8</ele>
        <time>2020-06-18T10:14:34Z</time>
      </trkpt>
      <trkpt lat="45.36354" lon="5.88903">
        <ele>1622.84</ele>
        <time>2020-06-18T10:14:48Z</time>
      </trkpt>
      <trkpt lat="45.36367" lon="5.88897">
        <ele>1620.44</ele>
        <time>2020-06-18T10:15:05Z</time>
      </trkpt>
      <trkpt lat="45.36376" lon="5.88895">
        <ele>1619</ele>
        <time>2020-06-18T10:15:17Z</time>
      </trkpt>
      <trkpt lat="45.36385" lon="5.88891">
        <ele>1619.48</ele>
        <time>2020-06-18T10:15:32Z</time>
      </trkpt>
      <trkpt lat="45.36388" lon="5.88891">
        <ele>1619</ele>
        <time>2020-06-18T10:15:35Z</time>
      </trkpt>
      <trkpt lat="45.36399" lon="5.88885">
        <ele>1617.56</ele>
        <time>2020-06-18T10:15:50Z</time>
      </trkpt>
      <trkpt lat="45.36402" lon="5.88882">
        <ele>1617.07</ele>
        <time>2020-06-18T10:15:54Z</time>
      </trkpt>
      <trkpt lat="45.36411" lon="5.88877">
        <ele>1616.59</ele>
        <time>2020-06-18T10:16:04Z</time>
      </trkpt>
      <trkpt lat="45.36424" lon="5.88878">
        <ele>1616.11</ele>
        <time>2020-06-18T10:16:19Z</time>
      </trkpt>
      <trkpt lat="45.36433" lon="5.88879">
        <ele>1615.63</ele>
        <time>2020-06-18T10:16:31Z</time>
      </trkpt>
      <trkpt lat="45.36434" lon="5.88878">
        <ele>1615.63</ele>
        <time>2020-06-18T10:16:33Z</time>
      </trkpt>
      <trkpt lat="45.36436" lon="5.88877">
        <ele>1615.15</ele>
        <time>2020-06-18T10:16:35Z</time>
      </trkpt>
      <trkpt lat="45.36451" lon="5.8887">
        <ele>1612.27</ele>
        <time>2020-06-18T10:16:51Z</time>
      </trkpt>
      <trkpt lat="45.36458" lon="5.88866">
        <ele>1610.83</ele>
        <time>2020-06-18T10:17:03Z</time>
      </trkpt>
      <trkpt lat="45.36461" lon="5.88863">
        <ele>1610.35</ele>
        <time>2020-06-18T10:17:06Z</time>
      </trkpt>
      <trkpt lat="45.36476" lon="5.88856">
        <ele>1609.38</ele>
        <time>2020-06-18T10:17:23Z</time>
      </trkpt>
      <trkpt lat="45.36486" lon="5.88851">
        <ele>1609.86</ele>
        <time>2020-06-18T10:17:37Z</time>
      </trkpt>
      <trkpt lat="45.36487" lon="5.88851">
        <ele>1609.86</ele>
        <time>2020-06-18T10:17:39Z</time>
      </trkpt>
      <trkpt lat="45.365" lon="5.88845">
        <ele>1607.94</ele>
        <time>2020-06-18T10:17:56Z</time>
      </trkpt>
      <trkpt lat="45.36509" lon="5.88839">
        <ele>1606.02</ele>
        <time>2020-06-18T10:18:14Z</time>
      </trkpt>
      <trkpt lat="45.36517" lon="5.88833">
        <ele>1605.06</ele>
        <time>2020-06-18T10:18:30Z</time>
      </trkpt>
      <trkpt lat="45.36524" lon="5.88827">
        <ele>1603.62</ele>
        <time>2020-06-18T10:18:39Z</time>
      </trkpt>
      <trkpt lat="45.3653" lon="5.88822">
        <ele>1603.14</ele>
        <time>2020-06-18T10:18:51Z</time>
      </trkpt>
      <trkpt lat="45.36531" lon="5.88821">
        <ele>1603.14</ele>
        <time>2020-06-18T10:18:52Z</time>
      </trkpt>
      <trkpt lat="45.36536" lon="5.88822">
        <ele>1602.17</ele>
        <time>2020-06-18T10:19:04Z</time>
      </trkpt>
      <trkpt lat="45.36544" lon="5.88815">
        <ele>1602.17</ele>
        <time>2020-06-18T10:19:18Z</time>
      </trkpt>
      <trkpt lat="45.36544" lon="5.88812">
        <ele>1602.66</ele>
        <time>2020-06-18T10:19:20Z</time>
      </trkpt>
      <trkpt lat="45.36547" lon="5.88807">
        <ele>1602.66</ele>
        <time>2020-06-18T10:19:25Z</time>
      </trkpt>
      <trkpt lat="45.36555" lon="5.88808">
        <ele>1603.14</ele>
        <time>2020-06-18T10:19:36Z</time>
      </trkpt>
      <trkpt lat="45.3657" lon="5.88811">
        <ele>1601.69</ele>
        <time>2020-06-18T10:19:53Z</time>
      </trkpt>
      <trkpt lat="45.36575" lon="5.88808">
        <ele>1600.73</ele>
        <time>2020-06-18T10:20:00Z</time>
      </trkpt>
      <trkpt lat="45.36585" lon="5.888">
        <ele>1598.81</ele>
        <time>2020-06-18T10:20:15Z</time>
      </trkpt>
      <trkpt lat="45.36589" lon="5.88796">
        <ele>1598.81</ele>
        <time>2020-06-18T10:20:22Z</time>
      </trkpt>
      <trkpt lat="45.36592" lon="5.88795">
        <ele>1598.81</ele>
        <time>2020-06-18T10:20:26Z</time>
      </trkpt>
      <trkpt lat="45.36596" lon="5.88793">
        <ele>1597.85</ele>
        <time>2020-06-18T10:20:31Z</time>
      </trkpt>
      <trkpt lat="45.366" lon="5.88787">
        <ele>1596.89</ele>
        <time>2020-06-18T10:20:38Z</time>
      </trkpt>
      <trkpt lat="45.36609" lon="5.8878">
        <ele>1596.41</ele>
        <time>2020-06-18T10:20:53Z</time>
      </trkpt>
      <trkpt lat="45.36619" lon="5.88781">
        <ele>1597.37</ele>
        <time>2020-06-18T10:21:06Z</time>
      </trkpt>
      <trkpt lat="45.36621" lon="5.88779">
        <ele>1597.37</ele>
        <time>2020-06-18T10:21:09Z</time>
      </trkpt>
      <trkpt lat="45.36633" lon="5.88777">
        <ele>1597.85</ele>
        <time>2020-06-18T10:21:23Z</time>
      </trkpt>
      <trkpt lat="45.36637" lon="5.88775">
        <ele>1598.33</ele>
        <time>2020-06-18T10:21:27Z</time>
      </trkpt>
      <trkpt lat="45.36644" lon="5.88773">
        <ele>1598.33</ele>
        <time>2020-06-18T10:21:40Z</time>
      </trkpt>
      <trkpt lat="45.3665" lon="5.88775">
        <ele>1598.33</ele>
        <time>2020-06-18T10:21:50Z</time>
      </trkpt>
      <trkpt lat="45.3666" lon="5.88774">
        <ele>1597.37</ele>
        <time>2020-06-18T10:22:02Z</time>
      </trkpt>
      <trkpt lat="45.36662" lon="5.88773">
        <ele>1597.37</ele>
        <time>2020-06-18T10:22:04Z</time>
      </trkpt>
      <trkpt lat="45.36673" lon="5.88765">
        <ele>1596.41</ele>
        <time>2020-06-18T10:22:20Z</time>
      </trkpt>
      <trkpt lat="45.36684" lon="5.88765">
        <ele>1594.96</ele>
        <time>2020-06-18T10:22:34Z</time>
      </trkpt>
      <trkpt lat="45.36696" lon="5.88759">
        <ele>1593.04</ele>
        <time>2020-06-18T10:22:48Z</time>
      </trkpt>
      <trkpt lat="45.36698" lon="5.88758">
        <ele>1592.08</ele>
        <time>2020-06-18T10:22:51Z</time>
      </trkpt>
      <trkpt lat="45.36698" lon="5.88757">
        <ele>1593.52</ele>
        <time>2020-06-18T10:22:55Z</time>
      </trkpt>
      <trkpt lat="45.36697" lon="5.88751">
        <ele>1592.56</ele>
        <time>2020-06-18T10:23:10Z</time>
      </trkpt>
      <trkpt lat="45.36698" lon="5.88745">
        <ele>1594</ele>
        <time>2020-06-18T10:23:28Z</time>
      </trkpt>
      <trkpt lat="45.36698" lon="5.88731">
        <ele>1592.08</ele>
        <time>2020-06-18T10:23:41Z</time>
      </trkpt>
      <trkpt lat="45.36699" lon="5.88724">
        <ele>1591.6</ele>
        <time>2020-06-18T10:23:47Z</time>
      </trkpt>
      <trkpt lat="45.36707" lon="5.88711">
        <ele>1591.12</ele>
        <time>2020-06-18T10:24:03Z</time>
      </trkpt>
      <trkpt lat="45.36711" lon="5.88697">
        <ele>1591.6</ele>
        <time>2020-06-18T10:24:17Z</time>
      </trkpt>
      <trkpt lat="45.36713" lon="5.88689">
        <ele>1592.08</ele>
        <time>2020-06-18T10:24:27Z</time>
      </trkpt>
      <trkpt lat="45.36711" lon="5.88681">
        <ele>1594</ele>
        <time>2020-06-18T10:24:36Z</time>
      </trkpt>
      <trkpt lat="45.36709" lon="5.88668">
        <ele>1594</ele>
        <time>2020-06-18T10:24:50Z</time>
      </trkpt>
      <trkpt lat="45.36701" lon="5.8866">
        <ele>1593.04</ele>
        <time>2020-06-18T10:25:05Z</time>
      </trkpt>
      <trkpt lat="45.36699" lon="5.88658">
        <ele>1594.96</ele>
        <time>2020-06-18T10:25:09Z</time>
      </trkpt>
      <trkpt lat="45.36692" lon="5.88657">
        <ele>1594.96</ele>
        <time>2020-06-18T10:25:20Z</time>
      </trkpt>
      <trkpt lat="45.36689" lon="5.88649">
        <ele>1596.41</ele>
        <time>2020-06-18T10:25:33Z</time>
      </trkpt>
      <trkpt lat="45.36688" lon="5.88642">
        <ele>1594.48</ele>
        <time>2020-06-18T10:25:43Z</time>
      </trkpt>
      <trkpt lat="45.36686" lon="5.88637">
        <ele>1594</ele>
        <time>2020-06-18T10:25:47Z</time>
      </trkpt>
      <trkpt lat="45.36684" lon="5.88636">
        <ele>1593.04</ele>
        <time>2020-06-18T10:25:49Z</time>
      </trkpt>
      <trkpt lat="45.36677" lon="5.88632">
        <ele>1590.64</ele>
        <time>2020-06-18T10:25:56Z</time>
      </trkpt>
      <trkpt lat="45.36671" lon="5.88629">
        <ele>1591.6</ele>
        <time>2020-06-18T10:26:07Z</time>
      </trkpt>
      <trkpt lat="45.36665" lon="5.88623">
        <ele>1592.08</ele>
        <time>2020-06-18T10:26:19Z</time>
      </trkpt>
      <trkpt lat="45.36653" lon="5.88611">
        <ele>1592.56</ele>
        <time>2020-06-18T10:26:37Z</time>
      </trkpt>
      <trkpt lat="45.36654" lon="5.88603">
        <ele>1592.56</ele>
        <time>2020-06-18T10:26:50Z</time>
      </trkpt>
      <trkpt lat="45.36666" lon="5.88603">
        <ele>1593.52</ele>
        <time>2020-06-18T10:27:06Z</time>
      </trkpt>
      <trkpt lat="45.36669" lon="5.88604">
        <ele>1594.96</ele>
        <time>2020-06-18T10:27:11Z</time>
      </trkpt>
      <trkpt lat="45.36682" lon="5.88604">
        <ele>1594.96</ele>
        <time>2020-06-18T10:27:31Z</time>
      </trkpt>
      <trkpt lat="45.36693" lon="5.88604">
        <ele>1596.41</ele>
        <time>2020-06-18T10:27:49Z</time>
      </trkpt>
      <trkpt lat="45.36706" lon="5.88604">
        <ele>1598.33</ele>
        <time>2020-06-18T10:28:10Z</time>
      </trkpt>
      <trkpt lat="45.36717" lon="5.88602">
        <ele>1598.33</ele>
        <time>2020-06-18T10:28:29Z</time>
      </trkpt>
      <trkpt lat="45.36719" lon="5.88602">
        <ele>1601.69</ele>
        <time>2020-06-18T10:28:33Z</time>
      </trkpt>
      <trkpt lat="45.36729" lon="5.88598">
        <ele>1602.17</ele>
        <time>2020-06-18T10:28:51Z</time>
      </trkpt>
      <trkpt lat="45.36733" lon="5.88592">
        <ele>1602.66</ele>
        <time>2020-06-18T10:29:06Z</time>
      </trkpt>
      <trkpt lat="45.3674" lon="5.88586">
        <ele>1603.62</ele>
        <time>2020-06-18T10:29:23Z</time>
      </trkpt>
      <trkpt lat="45.36748" lon="5.88581">
        <ele>1605.06</ele>
        <time>2020-06-18T10:29:42Z</time>
      </trkpt>
      <trkpt lat="45.36755" lon="5.88576">
        <ele>1606.5</ele>
        <time>2020-06-18T10:30:00Z</time>
      </trkpt>
      <trkpt lat="45.36755" lon="5.88567">
        <ele>1609.38</ele>
        <time>2020-06-18T10:30:17Z</time>
      </trkpt>
      <trkpt lat="45.36754" lon="5.88559">
        <ele>1611.79</ele>
        <time>2020-06-18T10:30:38Z</time>
      </trkpt>
      <trkpt lat="45.36751" lon="5.8855">
        <ele>1614.19</ele>
        <time>2020-06-18T10:30:55Z</time>
      </trkpt>
      <trkpt lat="45.36752" lon="5.88539">
        <ele>1617.56</ele>
        <time>2020-06-18T10:31:16Z</time>
      </trkpt>
      <trkpt lat="45.36751" lon="5.8853">
        <ele>1619.96</ele>
        <time>2020-06-18T10:31:34Z</time>
      </trkpt>
      <trkpt lat="45.36749" lon="5.88519">
        <ele>1622.84</ele>
        <time>2020-06-18T10:31:52Z</time>
      </trkpt>
      <trkpt lat="45.36749" lon="5.88509">
        <ele>1626.21</ele>
        <time>2020-06-18T10:32:11Z</time>
      </trkpt>
      <trkpt lat="45.36747" lon="5.88497">
        <ele>1629.09</ele>
        <time>2020-06-18T10:32:36Z</time>
      </trkpt>
      <trkpt lat="45.36748" lon="5.88487">
        <ele>1631.98</ele>
        <time>2020-06-18T10:32:56Z</time>
      </trkpt>
      <trkpt lat="45.36754" lon="5.88487">
        <ele>1635.34</ele>
        <time>2020-06-18T10:33:19Z</time>
      </trkpt>
      <trkpt lat="45.36761" lon="5.8849">
        <ele>1638.22</ele>
        <time>2020-06-18T10:33:42Z</time>
      </trkpt>
      <trkpt lat="45.36766" lon="5.88492">
        <ele>1640.63</ele>
        <time>2020-06-18T10:34:02Z</time>
      </trkpt>
      <trkpt lat="45.36775" lon="5.88496">
        <ele>1643.03</ele>
        <time>2020-06-18T10:34:22Z</time>
      </trkpt>
      <trkpt lat="45.36785" lon="5.88493">
        <ele>1645.91</ele>
        <time>2020-06-18T10:34:41Z</time>
      </trkpt>
      <trkpt lat="45.36787" lon="5.88489">
        <ele>1646.4</ele>
        <time>2020-06-18T10:34:58Z</time>
      </trkpt>
      <trkpt lat="45.36787" lon="5.8849">
        <ele>1643.03</ele>
        <time>2020-06-18T10:35:01Z</time>
      </trkpt>
      <trkpt lat="45.36787" lon="5.8849">
        <ele>1643.03</ele>
        <time>2020-06-18T10:35:02Z</time>
      </trkpt>
      <trkpt lat="45.36788" lon="5.8849">
        <ele>1646.4</ele>
        <time>2020-06-18T10:35:11Z</time>
      </trkpt>
      <trkpt lat="45.36787" lon="5.88491">
        <ele>1649.28</ele>
        <time>2020-06-18T10:35:23Z</time>
      </trkpt>
      <trkpt lat="45.36787" lon="5.88491">
        <ele>1646.88</ele>
        <time>2020-06-18T10:35:43Z</time>
      </trkpt>
      <trkpt lat="45.36787" lon="5.88491">
        <ele>1646.4</ele>
        <time>2020-06-18T10:36:10Z</time>
      </trkpt>
      <trkpt lat="45.36787" lon="5.88492">
        <ele>1646.4</ele>
        <time>2020-06-18T10:36:47Z</time>
      </trkpt>
      <trkpt lat="45.36787" lon="5.88491">
        <ele>1644.95</ele>
        <time>2020-06-18T10:36:58Z</time>
      </trkpt>
      <trkpt lat="45.36787" lon="5.8849">
        <ele>1647.84</ele>
        <time>2020-06-18T10:37:55Z</time>
      </trkpt>
      <trkpt lat="45.36786" lon="5.88491">
        <ele>1646.88</ele>
        <time>2020-06-18T10:40:14Z</time>
      </trkpt>
      <trkpt lat="45.36787" lon="5.8849">
        <ele>1643.03</ele>
        <time>2020-06-18T10:41:18Z</time>
      </trkpt>
      <trkpt lat="45.36787" lon="5.8849">
        <ele>1643.03</ele>
        <time>2020-06-18T10:41:19Z</time>
      </trkpt>
      <trkpt lat="45.36786" lon="5.8849">
        <ele>1646.4</ele>
        <time>2020-06-18T10:43:21Z</time>
      </trkpt>
      <trkpt lat="45.36787" lon="5.88491">
        <ele>1643.99</ele>
        <time>2020-06-18T10:49:53Z</time>
      </trkpt>
      <trkpt lat="45.36786" lon="5.8849">
        <ele>1647.36</ele>
        <time>2020-06-18T10:50:28Z</time>
      </trkpt>
      <trkpt lat="45.36786" lon="5.8849">
        <ele>1647.36</ele>
        <time>2020-06-18T10:50:29Z</time>
      </trkpt>
      <trkpt lat="45.36787" lon="5.88491">
        <ele>1648.32</ele>
        <time>2020-06-18T10:55:06Z</time>
      </trkpt>
      <trkpt lat="45.36788" lon="5.88491">
        <ele>1648.32</ele>
        <time>2020-06-18T10:55:28Z</time>
      </trkpt>
      <trkpt lat="45.36788" lon="5.8849">
        <ele>1648.32</ele>
        <time>2020-06-18T10:56:12Z</time>
      </trkpt>
      <trkpt lat="45.36788" lon="5.8849">
        <ele>1648.32</ele>
        <time>2020-06-18T10:56:37Z</time>
      </trkpt>
      <trkpt lat="45.36788" lon="5.88491">
        <ele>1648.32</ele>
        <time>2020-06-18T10:57:10Z</time>
      </trkpt>
      <trkpt lat="45.36787" lon="5.88492">
        <ele>1648.32</ele>
        <time>2020-06-18T10:59:33Z</time>
      </trkpt>
      <trkpt lat="45.36788" lon="5.88491">
        <ele>1648.32</ele>
        <time>2020-06-18T10:59:57Z</time>
      </trkpt>
      <trkpt lat="45.36788" lon="5.88489">
        <ele>1648.32</ele>
        <time>2020-06-18T11:00:21Z</time>
      </trkpt>
      <trkpt lat="45.36788" lon="5.8849">
        <ele>1648.32</ele>
        <time>2020-06-18T11:01:03Z</time>
      </trkpt>
      <trkpt lat="45.36789" lon="5.88492">
        <ele>1648.32</ele>
        <time>2020-06-18T11:01:25Z</time>
      </trkpt>
      <trkpt lat="45.3679" lon="5.88492">
        <ele>1648.32</ele>
        <time>2020-06-18T11:01:50Z</time>
      </trkpt>
      <trkpt lat="45.36794" lon="5.88493">
        <ele>1648.32</ele>
        <time>2020-06-18T11:02:14Z</time>
      </trkpt>
      <trkpt lat="45.36804" lon="5.88492">
        <ele>1648.32</ele>
        <time>2020-06-18T11:02:31Z</time>
      </trkpt>
      <trkpt lat="45.36819" lon="5.88491">
        <ele>1648.8</ele>
        <time>2020-06-18T11:02:47Z</time>
      </trkpt>
      <trkpt lat="45.3684" lon="5.88488">
        <ele>1649.28</ele>
        <time>2020-06-18T11:03:10Z</time>
      </trkpt>
      <trkpt lat="45.36853" lon="5.88479">
        <ele>1650.24</ele>
        <time>2020-06-18T11:03:26Z</time>
      </trkpt>
      <trkpt lat="45.36866" lon="5.8847">
        <ele>1651.68</ele>
        <time>2020-06-18T11:03:47Z</time>
      </trkpt>
      <trkpt lat="45.36883" lon="5.88469">
        <ele>1654.57</ele>
        <time>2020-06-18T11:04:10Z</time>
      </trkpt>
      <trkpt lat="45.36897" lon="5.88465">
        <ele>1654.57</ele>
        <time>2020-06-18T11:04:32Z</time>
      </trkpt>
      <trkpt lat="45.36903" lon="5.88463">
        <ele>1654.57</ele>
        <time>2020-06-18T11:04:51Z</time>
      </trkpt>
      <trkpt lat="45.36906" lon="5.8845">
        <ele>1655.53</ele>
        <time>2020-06-18T11:05:11Z</time>
      </trkpt>
      <trkpt lat="45.36907" lon="5.88442">
        <ele>1657.45</ele>
        <time>2020-06-18T11:05:26Z</time>
      </trkpt>
      <trkpt lat="45.36903" lon="5.88432">
        <ele>1659.37</ele>
        <time>2020-06-18T11:05:41Z</time>
      </trkpt>
      <trkpt lat="45.36899" lon="5.88419">
        <ele>1661.3</ele>
        <time>2020-06-18T11:05:59Z</time>
      </trkpt>
      <trkpt lat="45.36898" lon="5.88409">
        <ele>1663.22</ele>
        <time>2020-06-18T11:06:13Z</time>
      </trkpt>
      <trkpt lat="45.36896" lon="5.88392">
        <ele>1665.62</ele>
        <time>2020-06-18T11:06:31Z</time>
      </trkpt>
      <trkpt lat="45.36898" lon="5.88377">
        <ele>1665.62</ele>
        <time>2020-06-18T11:06:47Z</time>
      </trkpt>
      <trkpt lat="45.3691" lon="5.88373">
        <ele>1665.62</ele>
        <time>2020-06-18T11:07:02Z</time>
      </trkpt>
      <trkpt lat="45.36919" lon="5.88376">
        <ele>1667.54</ele>
        <time>2020-06-18T11:07:18Z</time>
      </trkpt>
      <trkpt lat="45.36927" lon="5.88371">
        <ele>1668.99</ele>
        <time>2020-06-18T11:07:35Z</time>
      </trkpt>
      <trkpt lat="45.3694" lon="5.88368">
        <ele>1670.91</ele>
        <time>2020-06-18T11:07:57Z</time>
      </trkpt>
      <trkpt lat="45.36949" lon="5.88365">
        <ele>1672.35</ele>
        <time>2020-06-18T11:08:14Z</time>
      </trkpt>
      <trkpt lat="45.36953" lon="5.88363">
        <ele>1675.23</ele>
        <time>2020-06-18T11:08:28Z</time>
      </trkpt>
      <trkpt lat="45.36961" lon="5.88359">
        <ele>1678.6</ele>
        <time>2020-06-18T11:08:45Z</time>
      </trkpt>
      <trkpt lat="45.36972" lon="5.88354">
        <ele>1681</ele>
        <time>2020-06-18T11:09:06Z</time>
      </trkpt>
      <trkpt lat="45.36981" lon="5.88348">
        <ele>1683.89</ele>
        <time>2020-06-18T11:09:29Z</time>
      </trkpt>
      <trkpt lat="45.36989" lon="5.88344">
        <ele>1686.77</ele>
        <time>2020-06-18T11:09:49Z</time>
      </trkpt>
      <trkpt lat="45.36994" lon="5.8834">
        <ele>1689.17</ele>
        <time>2020-06-18T11:10:08Z</time>
      </trkpt>
      <trkpt lat="45.37002" lon="5.88338">
        <ele>1692.54</ele>
        <time>2020-06-18T11:10:30Z</time>
      </trkpt>
      <trkpt lat="45.37013" lon="5.88329">
        <ele>1694.46</ele>
        <time>2020-06-18T11:10:51Z</time>
      </trkpt>
      <trkpt lat="45.37025" lon="5.8832">
        <ele>1695.9</ele>
        <time>2020-06-18T11:11:11Z</time>
      </trkpt>
      <trkpt lat="45.37034" lon="5.88325">
        <ele>1697.83</ele>
        <time>2020-06-18T11:11:29Z</time>
      </trkpt>
      <trkpt lat="45.3705" lon="5.88333">
        <ele>1697.83</ele>
        <time>2020-06-18T11:11:56Z</time>
      </trkpt>
      <trkpt lat="45.37052" lon="5.88333">
        <ele>1701.19</ele>
        <time>2020-06-18T11:12:03Z</time>
      </trkpt>
      <trkpt lat="45.37062" lon="5.88332">
        <ele>1702.63</ele>
        <time>2020-06-18T11:12:29Z</time>
      </trkpt>
      <trkpt lat="45.37068" lon="5.88334">
        <ele>1705.04</ele>
        <time>2020-06-18T11:12:53Z</time>
      </trkpt>
      <trkpt lat="45.37079" lon="5.88336">
        <ele>1706.48</ele>
        <time>2020-06-18T11:13:10Z</time>
      </trkpt>
      <trkpt lat="45.37091" lon="5.88336">
        <ele>1707.44</ele>
        <time>2020-06-18T11:13:34Z</time>
      </trkpt>
      <trkpt lat="45.37108" lon="5.88341">
        <ele>1707.44</ele>
        <time>2020-06-18T11:13:56Z</time>
      </trkpt>
      <trkpt lat="45.37114" lon="5.88338">
        <ele>1707.44</ele>
        <time>2020-06-18T11:14:13Z</time>
      </trkpt>
      <trkpt lat="45.37117" lon="5.8834">
        <ele>1706</ele>
        <time>2020-06-18T11:14:34Z</time>
      </trkpt>
      <trkpt lat="45.37117" lon="5.88339">
        <ele>1708.4</ele>
        <time>2020-06-18T11:14:40Z</time>
      </trkpt>
      <trkpt lat="45.37121" lon="5.88332">
        <ele>1708.88</ele>
        <time>2020-06-18T11:15:01Z</time>
      </trkpt>
      <trkpt lat="45.37115" lon="5.88341">
        <ele>1708.4</ele>
        <time>2020-06-18T11:15:19Z</time>
      </trkpt>
      <trkpt lat="45.37126" lon="5.88344">
        <ele>1707.44</ele>
        <time>2020-06-18T11:15:40Z</time>
      </trkpt>
      <trkpt lat="45.3713" lon="5.88334">
        <ele>1709.84</ele>
        <time>2020-06-18T11:16:06Z</time>
      </trkpt>
      <trkpt lat="45.37136" lon="5.88332">
        <ele>1709.84</ele>
        <time>2020-06-18T11:16:29Z</time>
      </trkpt>
      <trkpt lat="45.37144" lon="5.88324">
        <ele>1712.25</ele>
        <time>2020-06-18T11:16:45Z</time>
      </trkpt>
      <trkpt lat="45.37156" lon="5.88326">
        <ele>1714.17</ele>
        <time>2020-06-18T11:17:04Z</time>
      </trkpt>
      <trkpt lat="45.37158" lon="5.88326">
        <ele>1714.17</ele>
        <time>2020-06-18T11:17:06Z</time>
      </trkpt>
      <trkpt lat="45.3717" lon="5.88333">
        <ele>1715.61</ele>
        <time>2020-06-18T11:17:22Z</time>
      </trkpt>
      <trkpt lat="45.37178" lon="5.88341">
        <ele>1715.61</ele>
        <time>2020-06-18T11:17:37Z</time>
      </trkpt>
      <trkpt lat="45.37187" lon="5.8834">
        <ele>1715.61</ele>
        <time>2020-06-18T11:17:52Z</time>
      </trkpt>
      <trkpt lat="45.37199" lon="5.88338">
        <ele>1718.97</ele>
        <time>2020-06-18T11:18:17Z</time>
      </trkpt>
      <trkpt lat="45.37212" lon="5.88338">
        <ele>1721.38</ele>
        <time>2020-06-18T11:18:42Z</time>
      </trkpt>
      <trkpt lat="45.37219" lon="5.88333">
        <ele>1723.3</ele>
        <time>2020-06-18T11:19:04Z</time>
      </trkpt>
      <trkpt lat="45.37221" lon="5.8832">
        <ele>1725.22</ele>
        <time>2020-06-18T11:19:26Z</time>
      </trkpt>
      <trkpt lat="45.37228" lon="5.88312">
        <ele>1727.63</ele>
        <time>2020-06-18T11:19:49Z</time>
      </trkpt>
      <trkpt lat="45.37239" lon="5.88309">
        <ele>1729.07</ele>
        <time>2020-06-18T11:20:08Z</time>
      </trkpt>
      <trkpt lat="45.3725" lon="5.88304">
        <ele>1731.95</ele>
        <time>2020-06-18T11:20:30Z</time>
      </trkpt>
      <trkpt lat="45.37255" lon="5.88301">
        <ele>1734.36</ele>
        <time>2020-06-18T11:20:48Z</time>
      </trkpt>
      <trkpt lat="45.37257" lon="5.88296">
        <ele>1737.24</ele>
        <time>2020-06-18T11:21:08Z</time>
      </trkpt>
      <trkpt lat="45.37252" lon="5.8829">
        <ele>1739.64</ele>
        <time>2020-06-18T11:21:25Z</time>
      </trkpt>
      <trkpt lat="45.37251" lon="5.88284">
        <ele>1741.57</ele>
        <time>2020-06-18T11:21:42Z</time>
      </trkpt>
      <trkpt lat="45.3725" lon="5.8828">
        <ele>1744.93</ele>
        <time>2020-06-18T11:22:04Z</time>
      </trkpt>
      <trkpt lat="45.37249" lon="5.88272">
        <ele>1747.33</ele>
        <time>2020-06-18T11:22:20Z</time>
      </trkpt>
      <trkpt lat="45.37254" lon="5.8827">
        <ele>1750.22</ele>
        <time>2020-06-18T11:22:36Z</time>
      </trkpt>
      <trkpt lat="45.37261" lon="5.88266">
        <ele>1752.62</ele>
        <time>2020-06-18T11:22:59Z</time>
      </trkpt>
      <trkpt lat="45.37261" lon="5.8826">
        <ele>1754.54</ele>
        <time>2020-06-18T11:23:13Z</time>
      </trkpt>
      <trkpt lat="45.37255" lon="5.88254">
        <ele>1756.95</ele>
        <time>2020-06-18T11:23:34Z</time>
      </trkpt>
      <trkpt lat="45.37251" lon="5.88252">
        <ele>1758.39</ele>
        <time>2020-06-18T11:23:43Z</time>
      </trkpt>
      <trkpt lat="45.37245" lon="5.88247">
        <ele>1760.79</ele>
        <time>2020-06-18T11:23:59Z</time>
      </trkpt>
      <trkpt lat="45.37251" lon="5.88239">
        <ele>1763.68</ele>
        <time>2020-06-18T11:24:19Z</time>
      </trkpt>
      <trkpt lat="45.37255" lon="5.88233">
        <ele>1766.56</ele>
        <time>2020-06-18T11:24:37Z</time>
      </trkpt>
      <trkpt lat="45.3726" lon="5.88229">
        <ele>1769.44</ele>
        <time>2020-06-18T11:24:54Z</time>
      </trkpt>
      <trkpt lat="45.37261" lon="5.88224">
        <ele>1772.81</ele>
        <time>2020-06-18T11:25:16Z</time>
      </trkpt>
      <trkpt lat="45.37263" lon="5.88218">
        <ele>1775.69</ele>
        <time>2020-06-18T11:25:37Z</time>
      </trkpt>
      <trkpt lat="45.37262" lon="5.88212">
        <ele>1778.58</ele>
        <time>2020-06-18T11:25:53Z</time>
      </trkpt>
      <trkpt lat="45.3726" lon="5.88206">
        <ele>1780.98</ele>
        <time>2020-06-18T11:26:08Z</time>
      </trkpt>
      <trkpt lat="45.37267" lon="5.88205">
        <ele>1783.38</ele>
        <time>2020-06-18T11:26:27Z</time>
      </trkpt>
      <trkpt lat="45.37275" lon="5.88202">
        <ele>1786.27</ele>
        <time>2020-06-18T11:26:50Z</time>
      </trkpt>
      <trkpt lat="45.37283" lon="5.88201">
        <ele>1789.63</ele>
        <time>2020-06-18T11:27:10Z</time>
      </trkpt>
      <trkpt lat="45.37288" lon="5.882">
        <ele>1792.03</ele>
        <time>2020-06-18T11:27:28Z</time>
      </trkpt>
      <trkpt lat="45.37295" lon="5.88196">
        <ele>1794.92</ele>
        <time>2020-06-18T11:27:52Z</time>
      </trkpt>
      <trkpt lat="45.37296" lon="5.88192">
        <ele>1796.84</ele>
        <time>2020-06-18T11:28:08Z</time>
      </trkpt>
      <trkpt lat="45.37295" lon="5.88187">
        <ele>1799.24</ele>
        <time>2020-06-18T11:28:23Z</time>
      </trkpt>
      <trkpt lat="45.37296" lon="5.88186">
        <ele>1801.17</ele>
        <time>2020-06-18T11:28:36Z</time>
      </trkpt>
      <trkpt lat="45.37296" lon="5.88182">
        <ele>1802.61</ele>
        <time>2020-06-18T11:28:47Z</time>
      </trkpt>
      <trkpt lat="45.37296" lon="5.88175">
        <ele>1805.01</ele>
        <time>2020-06-18T11:29:05Z</time>
      </trkpt>
      <trkpt lat="45.37298" lon="5.88171">
        <ele>1806.94</ele>
        <time>2020-06-18T11:29:19Z</time>
      </trkpt>
      <trkpt lat="45.37296" lon="5.88166">
        <ele>1809.34</ele>
        <time>2020-06-18T11:29:38Z</time>
      </trkpt>
      <trkpt lat="45.37295" lon="5.88159">
        <ele>1811.74</ele>
        <time>2020-06-18T11:29:56Z</time>
      </trkpt>
      <trkpt lat="45.37294" lon="5.88153">
        <ele>1813.18</ele>
        <time>2020-06-18T11:30:09Z</time>
      </trkpt>
      <trkpt lat="45.37292" lon="5.88147">
        <ele>1815.59</ele>
        <time>2020-06-18T11:30:25Z</time>
      </trkpt>
      <trkpt lat="45.37293" lon="5.88141">
        <ele>1818.47</ele>
        <time>2020-06-18T11:30:45Z</time>
      </trkpt>
      <trkpt lat="45.37295" lon="5.88137">
        <ele>1819.91</ele>
        <time>2020-06-18T11:31:00Z</time>
      </trkpt>
      <trkpt lat="45.37293" lon="5.88131">
        <ele>1821.84</ele>
        <time>2020-06-18T11:31:19Z</time>
      </trkpt>
      <trkpt lat="45.37293" lon="5.88125">
        <ele>1824.24</ele>
        <time>2020-06-18T11:31:35Z</time>
      </trkpt>
      <trkpt lat="45.37293" lon="5.88119">
        <ele>1826.16</ele>
        <time>2020-06-18T11:31:51Z</time>
      </trkpt>
      <trkpt lat="45.37296" lon="5.88115">
        <ele>1829.05</ele>
        <time>2020-06-18T11:32:12Z</time>
      </trkpt>
      <trkpt lat="45.37299" lon="5.88113">
        <ele>1831.93</ele>
        <time>2020-06-18T11:32:33Z</time>
      </trkpt>
      <trkpt lat="45.37299" lon="5.88108">
        <ele>1833.37</ele>
        <time>2020-06-18T11:32:47Z</time>
      </trkpt>
      <trkpt lat="45.37299" lon="5.88102">
        <ele>1835.29</ele>
        <time>2020-06-18T11:33:04Z</time>
      </trkpt>
      <trkpt lat="45.37301" lon="5.88097">
        <ele>1837.22</ele>
        <time>2020-06-18T11:33:19Z</time>
      </trkpt>
      <trkpt lat="45.37299" lon="5.88091">
        <ele>1839.14</ele>
        <time>2020-06-18T11:33:33Z</time>
      </trkpt>
      <trkpt lat="45.373" lon="5.88087">
        <ele>1841.06</ele>
        <time>2020-06-18T11:33:46Z</time>
      </trkpt>
      <trkpt lat="45.373" lon="5.88081">
        <ele>1842.98</ele>
        <time>2020-06-18T11:34:03Z</time>
      </trkpt>
      <trkpt lat="45.37298" lon="5.88078">
        <ele>1845.39</ele>
        <time>2020-06-18T11:34:17Z</time>
      </trkpt>
      <trkpt lat="45.37295" lon="5.88076">
        <ele>1846.35</ele>
        <time>2020-06-18T11:34:29Z</time>
      </trkpt>
      <trkpt lat="45.37295" lon="5.88075">
        <ele>1847.79</ele>
        <time>2020-06-18T11:34:50Z</time>
      </trkpt>
      <trkpt lat="45.37295" lon="5.8807">
        <ele>1848.75</ele>
        <time>2020-06-18T11:35:08Z</time>
      </trkpt>
      <trkpt lat="45.37291" lon="5.88063">
        <ele>1851.16</ele>
        <time>2020-06-18T11:35:28Z</time>
      </trkpt>
      <trkpt lat="45.37289" lon="5.8806">
        <ele>1854.04</ele>
        <time>2020-06-18T11:35:49Z</time>
      </trkpt>
      <trkpt lat="45.37292" lon="5.88055">
        <ele>1857.4</ele>
        <time>2020-06-18T11:36:07Z</time>
      </trkpt>
      <trkpt lat="45.37293" lon="5.88052">
        <ele>1859.33</ele>
        <time>2020-06-18T11:36:30Z</time>
      </trkpt>
      <trkpt lat="45.37292" lon="5.88048">
        <ele>1860.77</ele>
        <time>2020-06-18T11:36:47Z</time>
      </trkpt>
      <trkpt lat="45.37291" lon="5.88043">
        <ele>1863.17</ele>
        <time>2020-06-18T11:37:05Z</time>
      </trkpt>
      <trkpt lat="45.37293" lon="5.88039">
        <ele>1864.61</ele>
        <time>2020-06-18T11:37:30Z</time>
      </trkpt>
      <trkpt lat="45.37293" lon="5.88033">
        <ele>1867.5</ele>
        <time>2020-06-18T11:37:51Z</time>
      </trkpt>
      <trkpt lat="45.37293" lon="5.88031">
        <ele>1869.42</ele>
        <time>2020-06-18T11:38:12Z</time>
      </trkpt>
      <trkpt lat="45.37293" lon="5.88031">
        <ele>1869.42</ele>
        <time>2020-06-18T11:38:31Z</time>
      </trkpt>
      <trkpt lat="45.37292" lon="5.8803">
        <ele>1869.9</ele>
        <time>2020-06-18T11:38:42Z</time>
      </trkpt>
      <trkpt lat="45.37293" lon="5.8803">
        <ele>1869.9</ele>
        <time>2020-06-18T11:38:57Z</time>
      </trkpt>
      <trkpt lat="45.37293" lon="5.88032">
        <ele>1870.38</ele>
        <time>2020-06-18T11:39:20Z</time>
      </trkpt>
      <trkpt lat="45.37292" lon="5.8803">
        <ele>1870.38</ele>
        <time>2020-06-18T11:39:35Z</time>
      </trkpt>
      <trkpt lat="45.37293" lon="5.8803">
        <ele>1869.9</ele>
        <time>2020-06-18T11:40:02Z</time>
      </trkpt>
      <trkpt lat="45.37291" lon="5.88031">
        <ele>1869.42</ele>
        <time>2020-06-18T11:40:29Z</time>
      </trkpt>
      <trkpt lat="45.37292" lon="5.88032">
        <ele>1868.94</ele>
        <time>2020-06-18T11:44:33Z</time>
      </trkpt>
      <trkpt lat="45.37292" lon="5.88032">
        <ele>1868.94</ele>
        <time>2020-06-18T11:44:56Z</time>
      </trkpt>
      <trkpt lat="45.37293" lon="5.88032">
        <ele>1868.94</ele>
        <time>2020-06-18T11:45:18Z</time>
      </trkpt>
      <trkpt lat="45.37293" lon="5.88033">
        <ele>1868.94</ele>
        <time>2020-06-18T11:45:37Z</time>
      </trkpt>
      <trkpt lat="45.37293" lon="5.88032">
        <ele>1868.94</ele>
        <time>2020-06-18T11:46:12Z</time>
      </trkpt>
      <trkpt lat="45.37294" lon="5.88032">
        <ele>1868.94</ele>
        <time>2020-06-18T11:49:25Z</time>
      </trkpt>
      <trkpt lat="45.37295" lon="5.88033">
        <ele>1868.94</ele>
        <time>2020-06-18T11:50:07Z</time>
      </trkpt>
      <trkpt lat="45.37295" lon="5.88033">
        <ele>1868.94</ele>
        <time>2020-06-18T11:50:53Z</time>
      </trkpt>
      <trkpt lat="45.37294" lon="5.88033">
        <ele>1868.94</ele>
        <time>2020-06-18T11:51:22Z</time>
      </trkpt>
      <trkpt lat="45.37294" lon="5.88032">
        <ele>1868.94</ele>
        <time>2020-06-18T11:51:47Z</time>
      </trkpt>
      <trkpt lat="45.37293" lon="5.88035">
        <ele>1868.94</ele>
        <time>2020-06-18T11:52:07Z</time>
      </trkpt>
      <trkpt lat="45.37294" lon="5.88042">
        <ele>1868.94</ele>
        <time>2020-06-18T11:52:27Z</time>
      </trkpt>
      <trkpt lat="45.37295" lon="5.88045">
        <ele>1868.94</ele>
        <time>2020-06-18T11:52:42Z</time>
      </trkpt>
      <trkpt lat="45.37295" lon="5.88042">
        <ele>1868.94</ele>
        <time>2020-06-18T11:53:05Z</time>
      </trkpt>
      <trkpt lat="45.37294" lon="5.88042">
        <ele>1866.54</ele>
        <time>2020-06-18T11:53:19Z</time>
      </trkpt>
      <trkpt lat="45.37296" lon="5.88043">
        <ele>1866.06</ele>
        <time>2020-06-18T11:53:41Z</time>
      </trkpt>
      <trkpt lat="45.37295" lon="5.88044">
        <ele>1865.58</ele>
        <time>2020-06-18T11:54:16Z</time>
      </trkpt>
      <trkpt lat="45.37295" lon="5.88043">
        <ele>1866.06</ele>
        <time>2020-06-18T11:54:41Z</time>
      </trkpt>
      <trkpt lat="45.37294" lon="5.88043">
        <ele>1866.06</ele>
        <time>2020-06-18T11:55:14Z</time>
      </trkpt>
      <trkpt lat="45.37297" lon="5.88045">
        <ele>1866.06</ele>
        <time>2020-06-18T11:55:48Z</time>
      </trkpt>
      <trkpt lat="45.37296" lon="5.88045">
        <ele>1866.06</ele>
        <time>2020-06-18T11:56:24Z</time>
      </trkpt>
      <trkpt lat="45.37296" lon="5.88046">
        <ele>1866.06</ele>
        <time>2020-06-18T11:57:05Z</time>
      </trkpt>
      <trkpt lat="45.37297" lon="5.88047">
        <ele>1866.06</ele>
        <time>2020-06-18T11:57:43Z</time>
      </trkpt>
      <trkpt lat="45.37296" lon="5.8805">
        <ele>1866.06</ele>
        <time>2020-06-18T11:58:00Z</time>
      </trkpt>
      <trkpt lat="45.37295" lon="5.88053">
        <ele>1866.06</ele>
        <time>2020-06-18T11:58:18Z</time>
      </trkpt>
      <trkpt lat="45.37295" lon="5.88055">
        <ele>1863.17</ele>
        <time>2020-06-18T11:58:23Z</time>
      </trkpt>
      <trkpt lat="45.37295" lon="5.88056">
        <ele>1862.69</ele>
        <time>2020-06-18T11:58:24Z</time>
      </trkpt>
      <trkpt lat="45.37292" lon="5.88058">
        <ele>1860.77</ele>
        <time>2020-06-18T11:58:41Z</time>
      </trkpt>
      <trkpt lat="45.37289" lon="5.88062">
        <ele>1857.89</ele>
        <time>2020-06-18T11:58:55Z</time>
      </trkpt>
      <trkpt lat="45.37292" lon="5.88065">
        <ele>1855</ele>
        <time>2020-06-18T11:59:10Z</time>
      </trkpt>
      <trkpt lat="45.37293" lon="5.88073">
        <ele>1852.6</ele>
        <time>2020-06-18T11:59:29Z</time>
      </trkpt>
      <trkpt lat="45.37297" lon="5.88078">
        <ele>1849.71</ele>
        <time>2020-06-18T11:59:45Z</time>
      </trkpt>
      <trkpt lat="45.37298" lon="5.88087">
        <ele>1846.83</ele>
        <time>2020-06-18T12:00:00Z</time>
      </trkpt>
      <trkpt lat="45.37299" lon="5.88096">
        <ele>1843.95</ele>
        <time>2020-06-18T12:00:15Z</time>
      </trkpt>
      <trkpt lat="45.373" lon="5.88104">
        <ele>1841.06</ele>
        <time>2020-06-18T12:00:30Z</time>
      </trkpt>
      <trkpt lat="45.373" lon="5.88114">
        <ele>1837.7</ele>
        <time>2020-06-18T12:00:45Z</time>
      </trkpt>
      <trkpt lat="45.37298" lon="5.88121">
        <ele>1834.81</ele>
        <time>2020-06-18T12:01:02Z</time>
      </trkpt>
      <trkpt lat="45.37294" lon="5.88124">
        <ele>1831.45</ele>
        <time>2020-06-18T12:01:17Z</time>
      </trkpt>
      <trkpt lat="45.37293" lon="5.88131">
        <ele>1828.08</ele>
        <time>2020-06-18T12:01:30Z</time>
      </trkpt>
      <trkpt lat="45.37295" lon="5.88139">
        <ele>1825.2</ele>
        <time>2020-06-18T12:01:45Z</time>
      </trkpt>
      <trkpt lat="45.37291" lon="5.88147">
        <ele>1821.84</ele>
        <time>2020-06-18T12:02:00Z</time>
      </trkpt>
      <trkpt lat="45.37292" lon="5.88155">
        <ele>1818.95</ele>
        <time>2020-06-18T12:02:13Z</time>
      </trkpt>
      <trkpt lat="45.37294" lon="5.88161">
        <ele>1815.59</ele>
        <time>2020-06-18T12:02:25Z</time>
      </trkpt>
      <trkpt lat="45.37296" lon="5.88168">
        <ele>1812.7</ele>
        <time>2020-06-18T12:02:38Z</time>
      </trkpt>
      <trkpt lat="45.37296" lon="5.88175">
        <ele>1809.82</ele>
        <time>2020-06-18T12:02:52Z</time>
      </trkpt>
      <trkpt lat="45.37295" lon="5.88183">
        <ele>1806.94</ele>
        <time>2020-06-18T12:03:07Z</time>
      </trkpt>
      <trkpt lat="45.37298" lon="5.88187">
        <ele>1803.57</ele>
        <time>2020-06-18T12:03:22Z</time>
      </trkpt>
      <trkpt lat="45.37298" lon="5.88192">
        <ele>1801.17</ele>
        <time>2020-06-18T12:03:37Z</time>
      </trkpt>
      <trkpt lat="45.37297" lon="5.88199">
        <ele>1798.76</ele>
        <time>2020-06-18T12:03:51Z</time>
      </trkpt>
      <trkpt lat="45.37291" lon="5.88202">
        <ele>1796.36</ele>
        <time>2020-06-18T12:04:05Z</time>
      </trkpt>
      <trkpt lat="45.37285" lon="5.88206">
        <ele>1793</ele>
        <time>2020-06-18T12:04:18Z</time>
      </trkpt>
      <trkpt lat="45.37278" lon="5.88207">
        <ele>1790.11</ele>
        <time>2020-06-18T12:04:33Z</time>
      </trkpt>
      <trkpt lat="45.3727" lon="5.8821">
        <ele>1787.71</ele>
        <time>2020-06-18T12:04:50Z</time>
      </trkpt>
      <trkpt lat="45.37261" lon="5.88212">
        <ele>1784.34</ele>
        <time>2020-06-18T12:05:04Z</time>
      </trkpt>
      <trkpt lat="45.37263" lon="5.8822">
        <ele>1780.98</ele>
        <time>2020-06-18T12:05:17Z</time>
      </trkpt>
      <trkpt lat="45.37264" lon="5.88228">
        <ele>1778.1</ele>
        <time>2020-06-18T12:05:29Z</time>
      </trkpt>
      <trkpt lat="45.37261" lon="5.88232">
        <ele>1775.21</ele>
        <time>2020-06-18T12:05:41Z</time>
      </trkpt>
      <trkpt lat="45.37257" lon="5.88237">
        <ele>1771.85</ele>
        <time>2020-06-18T12:05:53Z</time>
      </trkpt>
      <trkpt lat="45.37252" lon="5.88242">
        <ele>1768.96</ele>
        <time>2020-06-18T12:06:05Z</time>
      </trkpt>
      <trkpt lat="45.37247" lon="5.88249">
        <ele>1765.6</ele>
        <time>2020-06-18T12:06:16Z</time>
      </trkpt>
      <trkpt lat="45.37254" lon="5.88255">
        <ele>1762.71</ele>
        <time>2020-06-18T12:06:30Z</time>
      </trkpt>
      <trkpt lat="45.3726" lon="5.88259">
        <ele>1759.35</ele>
        <time>2020-06-18T12:06:43Z</time>
      </trkpt>
      <trkpt lat="45.37263" lon="5.88265">
        <ele>1757.43</ele>
        <time>2020-06-18T12:07:02Z</time>
      </trkpt>
      <trkpt lat="45.37263" lon="5.88266">
        <ele>1754.54</ele>
        <time>2020-06-18T12:07:29Z</time>
      </trkpt>
      <trkpt lat="45.37263" lon="5.88267">
        <ele>1754.54</ele>
        <time>2020-06-18T12:08:01Z</time>
      </trkpt>
      <trkpt lat="45.37263" lon="5.88266">
        <ele>1754.06</ele>
        <time>2020-06-18T12:08:31Z</time>
      </trkpt>
      <trkpt lat="45.37263" lon="5.88268">
        <ele>1755.02</ele>
        <time>2020-06-18T12:09:01Z</time>
      </trkpt>
      <trkpt lat="45.37264" lon="5.88267">
        <ele>1755.02</ele>
        <time>2020-06-18T12:09:29Z</time>
      </trkpt>
      <trkpt lat="45.37265" lon="5.88266">
        <ele>1754.06</ele>
        <time>2020-06-18T12:10:02Z</time>
      </trkpt>
      <trkpt lat="45.37264" lon="5.88266">
        <ele>1751.18</ele>
        <time>2020-06-18T12:10:15Z</time>
      </trkpt>
      <trkpt lat="45.37264" lon="5.88266">
        <ele>1754.54</ele>
        <time>2020-06-18T12:10:18Z</time>
      </trkpt>
      <trkpt lat="45.37263" lon="5.88266">
        <ele>1756.47</ele>
        <time>2020-06-18T12:10:21Z</time>
      </trkpt>
      <trkpt lat="45.37263" lon="5.88266">
        <ele>1754.06</ele>
        <time>2020-06-18T12:10:56Z</time>
      </trkpt>
      <trkpt lat="45.37265" lon="5.88265">
        <ele>1754.06</ele>
        <time>2020-06-18T12:11:22Z</time>
      </trkpt>
      <trkpt lat="45.37264" lon="5.88267">
        <ele>1754.06</ele>
        <time>2020-06-18T12:11:38Z</time>
      </trkpt>
      <trkpt lat="45.37259" lon="5.88271">
        <ele>1754.06</ele>
        <time>2020-06-18T12:11:57Z</time>
      </trkpt>
      <trkpt lat="45.37251" lon="5.88275">
        <ele>1754.06</ele>
        <time>2020-06-18T12:12:15Z</time>
      </trkpt>
      <trkpt lat="45.37254" lon="5.88283">
        <ele>1754.06</ele>
        <time>2020-06-18T12:12:31Z</time>
      </trkpt>
      <trkpt lat="45.37253" lon="5.88288">
        <ele>1754.06</ele>
        <time>2020-06-18T12:12:46Z</time>
      </trkpt>
      <trkpt lat="45.37253" lon="5.8829">
        <ele>1743.01</ele>
        <time>2020-06-18T12:12:49Z</time>
      </trkpt>
      <trkpt lat="45.37253" lon="5.88291">
        <ele>1742.53</ele>
        <time>2020-06-18T12:12:50Z</time>
      </trkpt>
      <trkpt lat="45.3726" lon="5.883">
        <ele>1740.6</ele>
        <time>2020-06-18T12:13:06Z</time>
      </trkpt>
      <trkpt lat="45.37256" lon="5.88305">
        <ele>1737.72</ele>
        <time>2020-06-18T12:13:19Z</time>
      </trkpt>
      <trkpt lat="45.37251" lon="5.8831">
        <ele>1734.36</ele>
        <time>2020-06-18T12:13:32Z</time>
      </trkpt>
      <trkpt lat="45.37243" lon="5.88312">
        <ele>1731.47</ele>
        <time>2020-06-18T12:13:49Z</time>
      </trkpt>
      <trkpt lat="45.37233" lon="5.88314">
        <ele>1728.11</ele>
        <time>2020-06-18T12:14:06Z</time>
      </trkpt>
      <trkpt lat="45.37223" lon="5.88319">
        <ele>1726.18</ele>
        <time>2020-06-18T12:14:26Z</time>
      </trkpt>
      <trkpt lat="45.37222" lon="5.88328">
        <ele>1724.74</ele>
        <time>2020-06-18T12:14:41Z</time>
      </trkpt>
      <trkpt lat="45.37222" lon="5.88341">
        <ele>1722.82</ele>
        <time>2020-06-18T12:14:56Z</time>
      </trkpt>
      <trkpt lat="45.3722" lon="5.88342">
        <ele>1721.86</ele>
        <time>2020-06-18T12:15:10Z</time>
      </trkpt>
      <trkpt lat="45.37214" lon="5.88339">
        <ele>1720.42</ele>
        <time>2020-06-18T12:15:27Z</time>
      </trkpt>
      <trkpt lat="45.37208" lon="5.88339">
        <ele>1719.94</ele>
        <time>2020-06-18T12:15:40Z</time>
      </trkpt>
      <trkpt lat="45.37201" lon="5.88342">
        <ele>1718.97</ele>
        <time>2020-06-18T12:15:53Z</time>
      </trkpt>
      <trkpt lat="45.37194" lon="5.88345">
        <ele>1717.05</ele>
        <time>2020-06-18T12:16:08Z</time>
      </trkpt>
      <trkpt lat="45.37186" lon="5.88346">
        <ele>1715.13</ele>
        <time>2020-06-18T12:16:22Z</time>
      </trkpt>
      <trkpt lat="45.37179" lon="5.88342">
        <ele>1714.17</ele>
        <time>2020-06-18T12:16:35Z</time>
      </trkpt>
      <trkpt lat="45.37174" lon="5.88338">
        <ele>1714.17</ele>
        <time>2020-06-18T12:16:48Z</time>
      </trkpt>
      <trkpt lat="45.37162" lon="5.8833">
        <ele>1713.69</ele>
        <time>2020-06-18T12:17:06Z</time>
      </trkpt>
      <trkpt lat="45.37156" lon="5.8833">
        <ele>1713.21</ele>
        <time>2020-06-18T12:17:14Z</time>
      </trkpt>
      <trkpt lat="45.37145" lon="5.88329">
        <ele>1711.76</ele>
        <time>2020-06-18T12:17:29Z</time>
      </trkpt>
      <trkpt lat="45.37141" lon="5.88338">
        <ele>1710.32</ele>
        <time>2020-06-18T12:17:42Z</time>
      </trkpt>
      <trkpt lat="45.37132" lon="5.88344">
        <ele>1708.88</ele>
        <time>2020-06-18T12:18:02Z</time>
      </trkpt>
      <trkpt lat="45.37123" lon="5.88347">
        <ele>1707.44</ele>
        <time>2020-06-18T12:18:20Z</time>
      </trkpt>
      <trkpt lat="45.37117" lon="5.88344">
        <ele>1706.96</ele>
        <time>2020-06-18T12:18:34Z</time>
      </trkpt>
      <trkpt lat="45.37116" lon="5.88341">
        <ele>1706.96</ele>
        <time>2020-06-18T12:18:51Z</time>
      </trkpt>
      <trkpt lat="45.37116" lon="5.88339">
        <ele>1706.96</ele>
        <time>2020-06-18T12:19:02Z</time>
      </trkpt>
      <trkpt lat="45.37107" lon="5.88338">
        <ele>1706</ele>
        <time>2020-06-18T12:19:16Z</time>
      </trkpt>
      <trkpt lat="45.37098" lon="5.88338">
        <ele>1706.48</ele>
        <time>2020-06-18T12:19:37Z</time>
      </trkpt>
      <trkpt lat="45.37086" lon="5.88339">
        <ele>1706.48</ele>
        <time>2020-06-18T12:19:56Z</time>
      </trkpt>
      <trkpt lat="45.37077" lon="5.88339">
        <ele>1705.52</ele>
        <time>2020-06-18T12:20:13Z</time>
      </trkpt>
      <trkpt lat="45.37069" lon="5.88339">
        <ele>1704.55</ele>
        <time>2020-06-18T12:20:33Z</time>
      </trkpt>
      <trkpt lat="45.37064" lon="5.8834">
        <ele>1703.59</ele>
        <time>2020-06-18T12:20:46Z</time>
      </trkpt>
      <trkpt lat="45.37059" lon="5.88339">
        <ele>1702.15</ele>
        <time>2020-06-18T12:21:06Z</time>
      </trkpt>
      <trkpt lat="45.37053" lon="5.88337">
        <ele>1700.23</ele>
        <time>2020-06-18T12:21:25Z</time>
      </trkpt>
      <trkpt lat="45.37046" lon="5.88336">
        <ele>1697.83</ele>
        <time>2020-06-18T12:21:42Z</time>
      </trkpt>
      <trkpt lat="45.37039" lon="5.88332">
        <ele>1696.38</ele>
        <time>2020-06-18T12:21:59Z</time>
      </trkpt>
      <trkpt lat="45.3703" lon="5.88325">
        <ele>1695.42</ele>
        <time>2020-06-18T12:22:18Z</time>
      </trkpt>
      <trkpt lat="45.37022" lon="5.88327">
        <ele>1693.98</ele>
        <time>2020-06-18T12:22:30Z</time>
      </trkpt>
      <trkpt lat="45.37012" lon="5.88335">
        <ele>1693.02</ele>
        <time>2020-06-18T12:22:45Z</time>
      </trkpt>
      <trkpt lat="45.37004" lon="5.88339">
        <ele>1691.58</ele>
        <time>2020-06-18T12:22:58Z</time>
      </trkpt>
      <trkpt lat="45.37" lon="5.88343">
        <ele>1690.62</ele>
        <time>2020-06-18T12:23:12Z</time>
      </trkpt>
      <trkpt lat="45.36996" lon="5.88343">
        <ele>1689.65</ele>
        <time>2020-06-18T12:23:26Z</time>
      </trkpt>
      <trkpt lat="45.36995" lon="5.88346">
        <ele>1688.69</ele>
        <time>2020-06-18T12:23:40Z</time>
      </trkpt>
      <trkpt lat="45.36991" lon="5.88349">
        <ele>1687.25</ele>
        <time>2020-06-18T12:23:53Z</time>
      </trkpt>
      <trkpt lat="45.36986" lon="5.88352">
        <ele>1685.33</ele>
        <time>2020-06-18T12:24:05Z</time>
      </trkpt>
      <trkpt lat="45.36982" lon="5.88356">
        <ele>1683.41</ele>
        <time>2020-06-18T12:24:17Z</time>
      </trkpt>
      <trkpt lat="45.36975" lon="5.88361">
        <ele>1681</ele>
        <time>2020-06-18T12:24:38Z</time>
      </trkpt>
      <trkpt lat="45.36967" lon="5.88365">
        <ele>1679.08</ele>
        <time>2020-06-18T12:24:50Z</time>
      </trkpt>
      <trkpt lat="45.36961" lon="5.88365">
        <ele>1677.64</ele>
        <time>2020-06-18T12:25:02Z</time>
      </trkpt>
      <trkpt lat="45.36955" lon="5.88372">
        <ele>1674.75</ele>
        <time>2020-06-18T12:25:22Z</time>
      </trkpt>
      <trkpt lat="45.36947" lon="5.88375">
        <ele>1672.35</ele>
        <time>2020-06-18T12:25:39Z</time>
      </trkpt>
      <trkpt lat="45.36939" lon="5.88379">
        <ele>1670.43</ele>
        <time>2020-06-18T12:25:53Z</time>
      </trkpt>
      <trkpt lat="45.36932" lon="5.88375">
        <ele>1668.99</ele>
        <time>2020-06-18T12:26:06Z</time>
      </trkpt>
      <trkpt lat="45.36924" lon="5.88376">
        <ele>1668.02</ele>
        <time>2020-06-18T12:26:22Z</time>
      </trkpt>
      <trkpt lat="45.36919" lon="5.88377">
        <ele>1666.58</ele>
        <time>2020-06-18T12:26:34Z</time>
      </trkpt>
      <trkpt lat="45.3691" lon="5.88378">
        <ele>1665.62</ele>
        <time>2020-06-18T12:26:48Z</time>
      </trkpt>
      <trkpt lat="45.36907" lon="5.88379">
        <ele>1665.14</ele>
        <time>2020-06-18T12:26:51Z</time>
      </trkpt>
      <trkpt lat="45.36899" lon="5.88392">
        <ele>1664.66</ele>
        <time>2020-06-18T12:27:07Z</time>
      </trkpt>
      <trkpt lat="45.36902" lon="5.88405">
        <ele>1664.66</ele>
        <time>2020-06-18T12:27:23Z</time>
      </trkpt>
      <trkpt lat="45.36901" lon="5.88418">
        <ele>1664.18</ele>
        <time>2020-06-18T12:27:37Z</time>
      </trkpt>
      <trkpt lat="45.36902" lon="5.88422">
        <ele>1663.7</ele>
        <time>2020-06-18T12:27:43Z</time>
      </trkpt>
      <trkpt lat="45.36903" lon="5.88434">
        <ele>1662.26</ele>
        <time>2020-06-18T12:27:57Z</time>
      </trkpt>
      <trkpt lat="45.36908" lon="5.8844">
        <ele>1660.81</ele>
        <time>2020-06-18T12:28:07Z</time>
      </trkpt>
      <trkpt lat="45.3691" lon="5.88454">
        <ele>1657.45</ele>
        <time>2020-06-18T12:28:24Z</time>
      </trkpt>
      <trkpt lat="45.36906" lon="5.88462">
        <ele>1655.05</ele>
        <time>2020-06-18T12:28:40Z</time>
      </trkpt>
      <trkpt lat="45.36898" lon="5.88471">
        <ele>1652.64</ele>
        <time>2020-06-18T12:28:57Z</time>
      </trkpt>
      <trkpt lat="45.36887" lon="5.8847">
        <ele>1653.12</ele>
        <time>2020-06-18T12:29:12Z</time>
      </trkpt>
      <trkpt lat="45.36876" lon="5.8847">
        <ele>1653.6</ele>
        <time>2020-06-18T12:29:30Z</time>
      </trkpt>
      <trkpt lat="45.36866" lon="5.88476">
        <ele>1652.16</ele>
        <time>2020-06-18T12:29:45Z</time>
      </trkpt>
      <trkpt lat="45.36859" lon="5.8848">
        <ele>1651.2</ele>
        <time>2020-06-18T12:29:55Z</time>
      </trkpt>
      <trkpt lat="45.36858" lon="5.88481">
        <ele>1650.72</ele>
        <time>2020-06-18T12:29:56Z</time>
      </trkpt>
      <trkpt lat="45.36848" lon="5.88487">
        <ele>1649.76</ele>
        <time>2020-06-18T12:30:10Z</time>
      </trkpt>
      <trkpt lat="45.36846" lon="5.88489">
        <ele>1650.24</ele>
        <time>2020-06-18T12:30:13Z</time>
      </trkpt>
      <trkpt lat="45.36845" lon="5.8849">
        <ele>1650.24</ele>
        <time>2020-06-18T12:30:14Z</time>
      </trkpt>
      <trkpt lat="45.3684" lon="5.88493">
        <ele>1649.76</ele>
        <time>2020-06-18T12:30:20Z</time>
      </trkpt>
      <trkpt lat="45.36836" lon="5.88492">
        <ele>1649.76</ele>
        <time>2020-06-18T12:30:24Z</time>
      </trkpt>
      <trkpt lat="45.36822" lon="5.88492">
        <ele>1648.8</ele>
        <time>2020-06-18T12:30:40Z</time>
      </trkpt>
      <trkpt lat="45.36809" lon="5.88493">
        <ele>1648.8</ele>
        <time>2020-06-18T12:30:54Z</time>
      </trkpt>
      <trkpt lat="45.36798" lon="5.88492">
        <ele>1648.8</ele>
        <time>2020-06-18T12:31:06Z</time>
      </trkpt>
      <trkpt lat="45.36797" lon="5.88493">
        <ele>1648.8</ele>
        <time>2020-06-18T12:31:07Z</time>
      </trkpt>
      <trkpt lat="45.36791" lon="5.88495">
        <ele>1647.84</ele>
        <time>2020-06-18T12:31:20Z</time>
      </trkpt>
      <trkpt lat="45.36791" lon="5.88495">
        <ele>1647.36</ele>
        <time>2020-06-18T12:31:43Z</time>
      </trkpt>
      <trkpt lat="45.36791" lon="5.88495">
        <ele>1648.8</ele>
        <time>2020-06-18T12:31:53Z</time>
      </trkpt>
      <trkpt lat="45.36792" lon="5.88494">
        <ele>1646.88</ele>
        <time>2020-06-18T12:32:15Z</time>
      </trkpt>
      <trkpt lat="45.36791" lon="5.88495">
        <ele>1646.88</ele>
        <time>2020-06-18T12:32:38Z</time>
      </trkpt>
      <trkpt lat="45.36791" lon="5.88495">
        <ele>1648.32</ele>
        <time>2020-06-18T12:32:41Z</time>
      </trkpt>
      <trkpt lat="45.36795" lon="5.88496">
        <ele>1645.91</ele>
        <time>2020-06-18T12:33:16Z</time>
      </trkpt>
      <trkpt lat="45.36792" lon="5.88497">
        <ele>1645.91</ele>
        <time>2020-06-18T12:33:42Z</time>
      </trkpt>
      <trkpt lat="45.36789" lon="5.88487">
        <ele>1643.03</ele>
        <time>2020-06-18T12:34:15Z</time>
      </trkpt>
      <trkpt lat="45.36789" lon="5.88486">
        <ele>1645.43</ele>
        <time>2020-06-18T12:34:19Z</time>
      </trkpt>
      <trkpt lat="45.3679" lon="5.88486">
        <ele>1646.4</ele>
        <time>2020-06-18T12:34:32Z</time>
      </trkpt>
      <trkpt lat="45.36798" lon="5.88478">
        <ele>1644.95</ele>
        <time>2020-06-18T12:35:05Z</time>
      </trkpt>
      <trkpt lat="45.36788" lon="5.88487">
        <ele>1644.47</ele>
        <time>2020-06-18T12:35:10Z</time>
      </trkpt>
      <trkpt lat="45.36789" lon="5.88488">
        <ele>1644.47</ele>
        <time>2020-06-18T12:35:11Z</time>
      </trkpt>
      <trkpt lat="45.3679" lon="5.88489">
        <ele>1644.95</ele>
        <time>2020-06-18T12:35:12Z</time>
      </trkpt>
      <trkpt lat="45.36792" lon="5.88493">
        <ele>1645.43</ele>
        <time>2020-06-18T12:35:17Z</time>
      </trkpt>
      <trkpt lat="45.36792" lon="5.88492">
        <ele>1645.43</ele>
        <time>2020-06-18T12:35:57Z</time>
      </trkpt>
      <trkpt lat="45.3679" lon="5.88492">
        <ele>1645.91</ele>
        <time>2020-06-18T12:36:33Z</time>
      </trkpt>
      <trkpt lat="45.36794" lon="5.88499">
        <ele>1645.43</ele>
        <time>2020-06-18T12:37:08Z</time>
      </trkpt>
      <trkpt lat="45.36791" lon="5.88494">
        <ele>1644.47</ele>
        <time>2020-06-18T12:37:44Z</time>
      </trkpt>
      <trkpt lat="45.36781" lon="5.88499">
        <ele>1643.03</ele>
        <time>2020-06-18T12:38:10Z</time>
      </trkpt>
      <trkpt lat="45.36773" lon="5.88498">
        <ele>1640.15</ele>
        <time>2020-06-18T12:38:26Z</time>
      </trkpt>
      <trkpt lat="45.36765" lon="5.88492">
        <ele>1636.78</ele>
        <time>2020-06-18T12:38:40Z</time>
      </trkpt>
      <trkpt lat="45.36759" lon="5.88491">
        <ele>1633.9</ele>
        <time>2020-06-18T12:38:54Z</time>
      </trkpt>
      <trkpt lat="45.36754" lon="5.88495">
        <ele>1631.01</ele>
        <time>2020-06-18T12:39:09Z</time>
      </trkpt>
      <trkpt lat="45.36753" lon="5.88507">
        <ele>1627.65</ele>
        <time>2020-06-18T12:39:23Z</time>
      </trkpt>
      <trkpt lat="45.36756" lon="5.88515">
        <ele>1624.77</ele>
        <time>2020-06-18T12:39:36Z</time>
      </trkpt>
      <trkpt lat="45.36757" lon="5.88528">
        <ele>1621.4</ele>
        <time>2020-06-18T12:39:50Z</time>
      </trkpt>
      <trkpt lat="45.36758" lon="5.88538">
        <ele>1618.52</ele>
        <time>2020-06-18T12:40:01Z</time>
      </trkpt>
      <trkpt lat="45.36757" lon="5.88548">
        <ele>1615.63</ele>
        <time>2020-06-18T12:40:11Z</time>
      </trkpt>
      <trkpt lat="45.36758" lon="5.8856">
        <ele>1612.27</ele>
        <time>2020-06-18T12:40:23Z</time>
      </trkpt>
      <trkpt lat="45.3676" lon="5.88572">
        <ele>1609.38</ele>
        <time>2020-06-18T12:40:35Z</time>
      </trkpt>
      <trkpt lat="45.36759" lon="5.88582">
        <ele>1606.02</ele>
        <time>2020-06-18T12:40:49Z</time>
      </trkpt>
      <trkpt lat="45.36751" lon="5.88589">
        <ele>1603.14</ele>
        <time>2020-06-18T12:41:00Z</time>
      </trkpt>
      <trkpt lat="45.36746" lon="5.88604">
        <ele>1599.77</ele>
        <time>2020-06-18T12:41:13Z</time>
      </trkpt>
      <trkpt lat="45.36743" lon="5.88614">
        <ele>1596.89</ele>
        <time>2020-06-18T12:41:25Z</time>
      </trkpt>
      <trkpt lat="45.36734" lon="5.88632">
        <ele>1593.52</ele>
        <time>2020-06-18T12:41:40Z</time>
      </trkpt>
      <trkpt lat="45.36725" lon="5.88638">
        <ele>1591.6</ele>
        <time>2020-06-18T12:41:56Z</time>
      </trkpt>
      <trkpt lat="45.36717" lon="5.88639">
        <ele>1590.64</ele>
        <time>2020-06-18T12:42:14Z</time>
      </trkpt>
      <trkpt lat="45.3671" lon="5.88644">
        <ele>1589.2</ele>
        <time>2020-06-18T12:42:34Z</time>
      </trkpt>
      <trkpt lat="45.36701" lon="5.88646">
        <ele>1588.24</ele>
        <time>2020-06-18T12:42:57Z</time>
      </trkpt>
      <trkpt lat="45.36678" lon="5.88641">
        <ele>1589.2</ele>
        <time>2020-06-18T12:43:22Z</time>
      </trkpt>
      <trkpt lat="45.36657" lon="5.88627">
        <ele>1589.2</ele>
        <time>2020-06-18T12:43:43Z</time>
      </trkpt>
      <trkpt lat="45.36631" lon="5.88614">
        <ele>1589.68</ele>
        <time>2020-06-18T12:44:11Z</time>
      </trkpt>
      <trkpt lat="45.36609" lon="5.88602">
        <ele>1589.68</ele>
        <time>2020-06-18T12:44:36Z</time>
      </trkpt>
      <trkpt lat="45.36583" lon="5.88588">
        <ele>1590.16</ele>
        <time>2020-06-18T12:45:02Z</time>
      </trkpt>
      <trkpt lat="45.36557" lon="5.88576">
        <ele>1590.64</ele>
        <time>2020-06-18T12:45:30Z</time>
      </trkpt>
      <trkpt lat="45.36531" lon="5.88568">
        <ele>1591.12</ele>
        <time>2020-06-18T12:45:55Z</time>
      </trkpt>
      <trkpt lat="45.36513" lon="5.88562">
        <ele>1591.6</ele>
        <time>2020-06-18T12:46:11Z</time>
      </trkpt>
      <trkpt lat="45.365" lon="5.88554">
        <ele>1592.08</ele>
        <time>2020-06-18T12:46:25Z</time>
      </trkpt>
      <trkpt lat="45.36496" lon="5.88555">
        <ele>1592.08</ele>
        <time>2020-06-18T12:46:29Z</time>
      </trkpt>
      <trkpt lat="45.36491" lon="5.88553">
        <ele>1591.6</ele>
        <time>2020-06-18T12:46:34Z</time>
      </trkpt>
      <trkpt lat="45.36477" lon="5.88549">
        <ele>1592.08</ele>
        <time>2020-06-18T12:46:51Z</time>
      </trkpt>
      <trkpt lat="45.36454" lon="5.88541">
        <ele>1592.56</ele>
        <time>2020-06-18T12:47:18Z</time>
      </trkpt>
      <trkpt lat="45.36428" lon="5.88535">
        <ele>1593.04</ele>
        <time>2020-06-18T12:47:52Z</time>
      </trkpt>
      <trkpt lat="45.36405" lon="5.88525">
        <ele>1593.52</ele>
        <time>2020-06-18T12:48:19Z</time>
      </trkpt>
      <trkpt lat="45.36389" lon="5.88519">
        <ele>1594</ele>
        <time>2020-06-18T12:48:36Z</time>
      </trkpt>
      <trkpt lat="45.36378" lon="5.88509">
        <ele>1594.48</ele>
        <time>2020-06-18T12:48:59Z</time>
      </trkpt>
      <trkpt lat="45.36361" lon="5.88507">
        <ele>1594.96</ele>
        <time>2020-06-18T12:49:21Z</time>
      </trkpt>
      <trkpt lat="45.36334" lon="5.88501">
        <ele>1596.89</ele>
        <time>2020-06-18T12:49:51Z</time>
      </trkpt>
      <trkpt lat="45.36315" lon="5.885">
        <ele>1599.77</ele>
        <time>2020-06-18T12:50:22Z</time>
      </trkpt>
      <trkpt lat="45.36299" lon="5.88506">
        <ele>1602.66</ele>
        <time>2020-06-18T12:50:49Z</time>
      </trkpt>
      <trkpt lat="45.36286" lon="5.88518">
        <ele>1605.54</ele>
        <time>2020-06-18T12:51:14Z</time>
      </trkpt>
      <trkpt lat="45.36274" lon="5.8852">
        <ele>1606.02</ele>
        <time>2020-06-18T12:51:32Z</time>
      </trkpt>
      <trkpt lat="45.36253" lon="5.88513">
        <ele>1606.98</ele>
        <time>2020-06-18T12:51:57Z</time>
      </trkpt>
      <trkpt lat="45.36234" lon="5.88509">
        <ele>1608.42</ele>
        <time>2020-06-18T12:52:19Z</time>
      </trkpt>
      <trkpt lat="45.36216" lon="5.88514">
        <ele>1610.35</ele>
        <time>2020-06-18T12:52:44Z</time>
      </trkpt>
      <trkpt lat="45.36202" lon="5.88515">
        <ele>1611.31</ele>
        <time>2020-06-18T12:53:04Z</time>
      </trkpt>
      <trkpt lat="45.36182" lon="5.88513">
        <ele>1612.27</ele>
        <time>2020-06-18T12:53:29Z</time>
      </trkpt>
      <trkpt lat="45.36162" lon="5.88509">
        <ele>1614.19</ele>
        <time>2020-06-18T12:53:53Z</time>
      </trkpt>
      <trkpt lat="45.36144" lon="5.885">
        <ele>1614.67</ele>
        <time>2020-06-18T12:54:13Z</time>
      </trkpt>
      <trkpt lat="45.36133" lon="5.88505">
        <ele>1615.63</ele>
        <time>2020-06-18T12:54:34Z</time>
      </trkpt>
      <trkpt lat="45.36121" lon="5.88522">
        <ele>1618.04</ele>
        <time>2020-06-18T12:54:59Z</time>
      </trkpt>
      <trkpt lat="45.36104" lon="5.8854">
        <ele>1619.96</ele>
        <time>2020-06-18T12:55:29Z</time>
      </trkpt>
      <trkpt lat="45.36095" lon="5.88558">
        <ele>1620.44</ele>
        <time>2020-06-18T12:55:49Z</time>
      </trkpt>
      <trkpt lat="45.36089" lon="5.88574">
        <ele>1622.84</ele>
        <time>2020-06-18T12:56:08Z</time>
      </trkpt>
      <trkpt lat="45.3608" lon="5.88596">
        <ele>1625.73</ele>
        <time>2020-06-18T12:56:35Z</time>
      </trkpt>
      <trkpt lat="45.36071" lon="5.88621">
        <ele>1628.61</ele>
        <time>2020-06-18T12:57:01Z</time>
      </trkpt>
      <trkpt lat="45.36064" lon="5.88637">
        <ele>1631.98</ele>
        <time>2020-06-18T12:57:23Z</time>
      </trkpt>
      <trkpt lat="45.36056" lon="5.88656">
        <ele>1634.86</ele>
        <time>2020-06-18T12:57:46Z</time>
      </trkpt>
      <trkpt lat="45.36045" lon="5.88668">
        <ele>1638.22</ele>
        <time>2020-06-18T12:58:05Z</time>
      </trkpt>
      <trkpt lat="45.36032" lon="5.88675">
        <ele>1637.26</ele>
        <time>2020-06-18T12:58:25Z</time>
      </trkpt>
      <trkpt lat="45.36024" lon="5.88693">
        <ele>1640.63</ele>
        <time>2020-06-18T12:58:49Z</time>
      </trkpt>
      <trkpt lat="45.36015" lon="5.88706">
        <ele>1643.03</ele>
        <time>2020-06-18T12:59:10Z</time>
      </trkpt>
      <trkpt lat="45.3601" lon="5.88715">
        <ele>1643.99</ele>
        <time>2020-06-18T12:59:25Z</time>
      </trkpt>
      <trkpt lat="45.36001" lon="5.88742">
        <ele>1645.91</ele>
        <time>2020-06-18T12:59:50Z</time>
      </trkpt>
      <trkpt lat="45.36" lon="5.88744">
        <ele>1646.4</ele>
        <time>2020-06-18T12:59:52Z</time>
      </trkpt>
      <trkpt lat="45.35989" lon="5.88759">
        <ele>1647.36</ele>
        <time>2020-06-18T13:00:10Z</time>
      </trkpt>
      <trkpt lat="45.35974" lon="5.88771">
        <ele>1649.76</ele>
        <time>2020-06-18T13:00:31Z</time>
      </trkpt>
      <trkpt lat="45.35973" lon="5.88771">
        <ele>1649.76</ele>
        <time>2020-06-18T13:00:32Z</time>
      </trkpt>
      <trkpt lat="45.35955" lon="5.88779">
        <ele>1650.72</ele>
        <time>2020-06-18T13:00:51Z</time>
      </trkpt>
      <trkpt lat="45.35941" lon="5.88778">
        <ele>1651.68</ele>
        <time>2020-06-18T13:01:10Z</time>
      </trkpt>
      <trkpt lat="45.35923" lon="5.8877">
        <ele>1652.64</ele>
        <time>2020-06-18T13:01:36Z</time>
      </trkpt>
      <trkpt lat="45.35908" lon="5.88768">
        <ele>1651.2</ele>
        <time>2020-06-18T13:01:58Z</time>
      </trkpt>
      <trkpt lat="45.35886" lon="5.88772">
        <ele>1652.16</ele>
        <time>2020-06-18T13:02:25Z</time>
      </trkpt>
      <trkpt lat="45.3587" lon="5.88789">
        <ele>1654.57</ele>
        <time>2020-06-18T13:02:52Z</time>
      </trkpt>
      <trkpt lat="45.35866" lon="5.88808">
        <ele>1656.49</ele>
        <time>2020-06-18T13:03:10Z</time>
      </trkpt>
      <trkpt lat="45.35866" lon="5.88819">
        <ele>1656.97</ele>
        <time>2020-06-18T13:03:16Z</time>
      </trkpt>
      <trkpt lat="45.35859" lon="5.88833">
        <ele>1657.45</ele>
        <time>2020-06-18T13:03:34Z</time>
      </trkpt>
      <trkpt lat="45.35852" lon="5.88857">
        <ele>1659.85</ele>
        <time>2020-06-18T13:03:58Z</time>
      </trkpt>
      <trkpt lat="45.35846" lon="5.88875">
        <ele>1662.74</ele>
        <time>2020-06-18T13:04:21Z</time>
      </trkpt>
      <trkpt lat="45.35842" lon="5.88895">
        <ele>1666.1</ele>
        <time>2020-06-18T13:04:43Z</time>
      </trkpt>
      <trkpt lat="45.35833" lon="5.88905">
        <ele>1668.51</ele>
        <time>2020-06-18T13:05:01Z</time>
      </trkpt>
      <trkpt lat="45.35827" lon="5.88918">
        <ele>1671.39</ele>
        <time>2020-06-18T13:05:19Z</time>
      </trkpt>
      <trkpt lat="45.35825" lon="5.88932">
        <ele>1672.83</ele>
        <time>2020-06-18T13:05:34Z</time>
      </trkpt>
      <trkpt lat="45.35823" lon="5.88947">
        <ele>1675.23</ele>
        <time>2020-06-18T13:05:50Z</time>
      </trkpt>
      <trkpt lat="45.35819" lon="5.8896">
        <ele>1677.64</ele>
        <time>2020-06-18T13:06:07Z</time>
      </trkpt>
      <trkpt lat="45.35814" lon="5.88977">
        <ele>1681</ele>
        <time>2020-06-18T13:06:26Z</time>
      </trkpt>
      <trkpt lat="45.35814" lon="5.88978">
        <ele>1681</ele>
        <time>2020-06-18T13:06:27Z</time>
      </trkpt>
      <trkpt lat="45.3581" lon="5.88991">
        <ele>1682.44</ele>
        <time>2020-06-18T13:06:39Z</time>
      </trkpt>
      <trkpt lat="45.35805" lon="5.89015">
        <ele>1681.96</ele>
        <time>2020-06-18T13:06:57Z</time>
      </trkpt>
      <trkpt lat="45.35802" lon="5.8903">
        <ele>1682.44</ele>
        <time>2020-06-18T13:07:13Z</time>
      </trkpt>
      <trkpt lat="45.35799" lon="5.89042">
        <ele>1683.41</ele>
        <time>2020-06-18T13:07:25Z</time>
      </trkpt>
      <trkpt lat="45.35795" lon="5.89052">
        <ele>1684.37</ele>
        <time>2020-06-18T13:07:35Z</time>
      </trkpt>
      <trkpt lat="45.3579" lon="5.89067">
        <ele>1685.33</ele>
        <time>2020-06-18T13:07:50Z</time>
      </trkpt>
      <trkpt lat="45.35782" lon="5.89075">
        <ele>1687.25</ele>
        <time>2020-06-18T13:08:08Z</time>
      </trkpt>
      <trkpt lat="45.35777" lon="5.89087">
        <ele>1690.62</ele>
        <time>2020-06-18T13:08:28Z</time>
      </trkpt>
      <trkpt lat="45.35776" lon="5.89088">
        <ele>1690.62</ele>
        <time>2020-06-18T13:08:30Z</time>
      </trkpt>
      <trkpt lat="45.35773" lon="5.89101">
        <ele>1693.02</ele>
        <time>2020-06-18T13:08:48Z</time>
      </trkpt>
      <trkpt lat="45.35769" lon="5.89114">
        <ele>1694.94</ele>
        <time>2020-06-18T13:09:08Z</time>
      </trkpt>
      <trkpt lat="45.35775" lon="5.89134">
        <ele>1697.34</ele>
        <time>2020-06-18T13:09:28Z</time>
      </trkpt>
      <trkpt lat="45.35778" lon="5.8916">
        <ele>1700.71</ele>
        <time>2020-06-18T13:09:57Z</time>
      </trkpt>
      <trkpt lat="45.35781" lon="5.89178">
        <ele>1703.59</ele>
        <time>2020-06-18T13:10:16Z</time>
      </trkpt>
      <trkpt lat="45.35785" lon="5.89203">
        <ele>1706</ele>
        <time>2020-06-18T13:10:35Z</time>
      </trkpt>
      <trkpt lat="45.35789" lon="5.89227">
        <ele>1706.96</ele>
        <time>2020-06-18T13:10:54Z</time>
      </trkpt>
      <trkpt lat="45.35792" lon="5.89253">
        <ele>1709.36</ele>
        <time>2020-06-18T13:11:16Z</time>
      </trkpt>
      <trkpt lat="45.35797" lon="5.89275">
        <ele>1711.28</ele>
        <time>2020-06-18T13:11:37Z</time>
      </trkpt>
      <trkpt lat="45.35802" lon="5.89296">
        <ele>1714.17</ele>
        <time>2020-06-18T13:12:01Z</time>
      </trkpt>
      <trkpt lat="45.35805" lon="5.8931">
        <ele>1717.53</ele>
        <time>2020-06-18T13:12:17Z</time>
      </trkpt>
      <trkpt lat="45.35807" lon="5.8933">
        <ele>1720.42</ele>
        <time>2020-06-18T13:12:37Z</time>
      </trkpt>
      <trkpt lat="45.35805" lon="5.89347">
        <ele>1723.78</ele>
        <time>2020-06-18T13:12:55Z</time>
      </trkpt>
      <trkpt lat="45.35807" lon="5.89363">
        <ele>1726.67</ele>
        <time>2020-06-18T13:13:13Z</time>
      </trkpt>
      <trkpt lat="45.35808" lon="5.8938">
        <ele>1730.03</ele>
        <time>2020-06-18T13:13:31Z</time>
      </trkpt>
      <trkpt lat="45.35809" lon="5.89393">
        <ele>1733.39</ele>
        <time>2020-06-18T13:13:48Z</time>
      </trkpt>
      <trkpt lat="45.35807" lon="5.89413">
        <ele>1736.28</ele>
        <time>2020-06-18T13:14:08Z</time>
      </trkpt>
      <trkpt lat="45.35805" lon="5.89428">
        <ele>1739.16</ele>
        <time>2020-06-18T13:14:27Z</time>
      </trkpt>
      <trkpt lat="45.35807" lon="5.89446">
        <ele>1742.53</ele>
        <time>2020-06-18T13:14:45Z</time>
      </trkpt>
      <trkpt lat="45.35805" lon="5.89461">
        <ele>1745.41</ele>
        <time>2020-06-18T13:15:04Z</time>
      </trkpt>
      <trkpt lat="45.35803" lon="5.89477">
        <ele>1748.78</ele>
        <time>2020-06-18T13:15:24Z</time>
      </trkpt>
      <trkpt lat="45.35803" lon="5.89486">
        <ele>1751.66</ele>
        <time>2020-06-18T13:15:44Z</time>
      </trkpt>
      <trkpt lat="45.35802" lon="5.89498">
        <ele>1755.02</ele>
        <time>2020-06-18T13:16:01Z</time>
      </trkpt>
      <trkpt lat="45.35803" lon="5.8951">
        <ele>1757.91</ele>
        <time>2020-06-18T13:16:17Z</time>
      </trkpt>
      <trkpt lat="45.35792" lon="5.89512">
        <ele>1760.79</ele>
        <time>2020-06-18T13:16:34Z</time>
      </trkpt>
      <trkpt lat="45.35791" lon="5.89519">
        <ele>1764.16</ele>
        <time>2020-06-18T13:16:54Z</time>
      </trkpt>
      <trkpt lat="45.35795" lon="5.89535">
        <ele>1767.04</ele>
        <time>2020-06-18T13:17:14Z</time>
      </trkpt>
      <trkpt lat="45.358" lon="5.89549">
        <ele>1770.41</ele>
        <time>2020-06-18T13:17:34Z</time>
      </trkpt>
      <trkpt lat="45.35805" lon="5.89561">
        <ele>1773.29</ele>
        <time>2020-06-18T13:17:50Z</time>
      </trkpt>
      <trkpt lat="45.35811" lon="5.89573">
        <ele>1776.17</ele>
        <time>2020-06-18T13:18:07Z</time>
      </trkpt>
      <trkpt lat="45.35811" lon="5.89587">
        <ele>1779.54</ele>
        <time>2020-06-18T13:18:25Z</time>
      </trkpt>
      <trkpt lat="45.35809" lon="5.89595">
        <ele>1782.9</ele>
        <time>2020-06-18T13:18:44Z</time>
      </trkpt>
      <trkpt lat="45.3581" lon="5.89604">
        <ele>1785.79</ele>
        <time>2020-06-18T13:19:01Z</time>
      </trkpt>
      <trkpt lat="45.35815" lon="5.89617">
        <ele>1789.15</ele>
        <time>2020-06-18T13:19:19Z</time>
      </trkpt>
      <trkpt lat="45.35818" lon="5.89632">
        <ele>1792.03</ele>
        <time>2020-06-18T13:19:38Z</time>
      </trkpt>
      <trkpt lat="45.3582" lon="5.89645">
        <ele>1795.4</ele>
        <time>2020-06-18T13:19:56Z</time>
      </trkpt>
      <trkpt lat="45.35823" lon="5.89656">
        <ele>1798.28</ele>
        <time>2020-06-18T13:20:15Z</time>
      </trkpt>
      <trkpt lat="45.3583" lon="5.89669">
        <ele>1801.17</ele>
        <time>2020-06-18T13:20:30Z</time>
      </trkpt>
      <trkpt lat="45.35827" lon="5.89676">
        <ele>1804.53</ele>
        <time>2020-06-18T13:20:49Z</time>
      </trkpt>
      <trkpt lat="45.35825" lon="5.89685">
        <ele>1807.42</ele>
        <time>2020-06-18T13:21:08Z</time>
      </trkpt>
      <trkpt lat="45.35816" lon="5.89689">
        <ele>1810.78</ele>
        <time>2020-06-18T13:21:27Z</time>
      </trkpt>
      <trkpt lat="45.3581" lon="5.89695">
        <ele>1811.74</ele>
        <time>2020-06-18T13:22:00Z</time>
      </trkpt>
      <trkpt lat="45.35812" lon="5.89689">
        <ele>1812.22</ele>
        <time>2020-06-18T13:22:20Z</time>
      </trkpt>
      <trkpt lat="45.35812" lon="5.89689">
        <ele>1812.22</ele>
        <time>2020-06-18T13:23:00Z</time>
      </trkpt>
      <trkpt lat="45.35814" lon="5.89688">
        <ele>1812.22</ele>
        <time>2020-06-18T13:23:42Z</time>
      </trkpt>
      <trkpt lat="45.35813" lon="5.89688">
        <ele>1812.22</ele>
        <time>2020-06-18T13:24:00Z</time>
      </trkpt>
      <trkpt lat="45.35814" lon="5.89688">
        <ele>1812.22</ele>
        <time>2020-06-18T13:24:27Z</time>
      </trkpt>
      <trkpt lat="45.35814" lon="5.89688">
        <ele>1812.22</ele>
        <time>2020-06-18T13:25:09Z</time>
      </trkpt>
      <trkpt lat="45.35814" lon="5.8969">
        <ele>1812.22</ele>
        <time>2020-06-18T13:25:45Z</time>
      </trkpt>
      <trkpt lat="45.35812" lon="5.89688">
        <ele>1812.22</ele>
        <time>2020-06-18T13:26:06Z</time>
      </trkpt>
      <trkpt lat="45.35813" lon="5.8969">
        <ele>1812.22</ele>
        <time>2020-06-18T13:26:34Z</time>
      </trkpt>
      <trkpt lat="45.35813" lon="5.8969">
        <ele>1815.59</ele>
        <time>2020-06-18T13:26:49Z</time>
      </trkpt>
      <trkpt lat="45.35813" lon="5.8969">
        <ele>1815.59</ele>
        <time>2020-06-18T13:26:50Z</time>
      </trkpt>
      <trkpt lat="45.35813" lon="5.89689">
        <ele>1812.22</ele>
        <time>2020-06-18T13:27:11Z</time>
      </trkpt>
      <trkpt lat="45.35813" lon="5.89691">
        <ele>1815.11</ele>
        <time>2020-06-18T13:27:31Z</time>
      </trkpt>
      <trkpt lat="45.35813" lon="5.89689">
        <ele>1813.66</ele>
        <time>2020-06-18T13:27:57Z</time>
      </trkpt>
      <trkpt lat="45.35814" lon="5.89689">
        <ele>1813.18</ele>
        <time>2020-06-18T13:28:28Z</time>
      </trkpt>
      <trkpt lat="45.35813" lon="5.8969">
        <ele>1813.18</ele>
        <time>2020-06-18T13:28:57Z</time>
      </trkpt>
      <trkpt lat="45.35812" lon="5.89688">
        <ele>1813.18</ele>
        <time>2020-06-18T13:29:27Z</time>
      </trkpt>
      <trkpt lat="45.35808" lon="5.8969">
        <ele>1813.18</ele>
        <time>2020-06-18T13:29:42Z</time>
      </trkpt>
      <trkpt lat="45.35805" lon="5.89708">
        <ele>1813.18</ele>
        <time>2020-06-18T13:30:06Z</time>
      </trkpt>
      <trkpt lat="45.35802" lon="5.89725">
        <ele>1813.18</ele>
        <time>2020-06-18T13:30:31Z</time>
      </trkpt>
      <trkpt lat="45.35807" lon="5.89741">
        <ele>1813.18</ele>
        <time>2020-06-18T13:30:51Z</time>
      </trkpt>
      <trkpt lat="45.35808" lon="5.89742">
        <ele>1801.17</ele>
        <time>2020-06-18T13:30:53Z</time>
      </trkpt>
      <trkpt lat="45.35809" lon="5.89742">
        <ele>1801.17</ele>
        <time>2020-06-18T13:30:54Z</time>
      </trkpt>
      <trkpt lat="45.3581" lon="5.89741">
        <ele>1801.17</ele>
        <time>2020-06-18T13:30:55Z</time>
      </trkpt>
      <trkpt lat="45.35814" lon="5.89732">
        <ele>1799.24</ele>
        <time>2020-06-18T13:31:12Z</time>
      </trkpt>
      <trkpt lat="45.35821" lon="5.89736">
        <ele>1796.36</ele>
        <time>2020-06-18T13:31:25Z</time>
      </trkpt>
      <trkpt lat="45.35824" lon="5.89743">
        <ele>1794.44</ele>
        <time>2020-06-18T13:31:40Z</time>
      </trkpt>
      <trkpt lat="45.35824" lon="5.89748">
        <ele>1791.55</ele>
        <time>2020-06-18T13:31:54Z</time>
      </trkpt>
      <trkpt lat="45.35812" lon="5.89743">
        <ele>1788.19</ele>
        <time>2020-06-18T13:32:09Z</time>
      </trkpt>
      <trkpt lat="45.35806" lon="5.89752">
        <ele>1788.19</ele>
        <time>2020-06-18T13:32:19Z</time>
      </trkpt>
      <trkpt lat="45.35806" lon="5.89755">
        <ele>1788.19</ele>
        <time>2020-06-18T13:32:20Z</time>
      </trkpt>
      <trkpt lat="45.358" lon="5.89765">
        <ele>1788.19</ele>
        <time>2020-06-18T13:32:33Z</time>
      </trkpt>
      <trkpt lat="45.35794" lon="5.89781">
        <ele>1790.59</ele>
        <time>2020-06-18T13:32:48Z</time>
      </trkpt>
      <trkpt lat="45.35789" lon="5.89794">
        <ele>1788.67</ele>
        <time>2020-06-18T13:33:03Z</time>
      </trkpt>
      <trkpt lat="45.35787" lon="5.89796">
        <ele>1792.52</ele>
        <time>2020-06-18T13:33:08Z</time>
      </trkpt>
      <trkpt lat="45.35773" lon="5.89801">
        <ele>1793.96</ele>
        <time>2020-06-18T13:33:28Z</time>
      </trkpt>
      <trkpt lat="45.35765" lon="5.89795">
        <ele>1794.92</ele>
        <time>2020-06-18T13:33:41Z</time>
      </trkpt>
      <trkpt lat="45.35759" lon="5.89789">
        <ele>1794.44</ele>
        <time>2020-06-18T13:33:49Z</time>
      </trkpt>
      <trkpt lat="45.35758" lon="5.89788">
        <ele>1794.44</ele>
        <time>2020-06-18T13:33:50Z</time>
      </trkpt>
      <trkpt lat="45.35757" lon="5.89788">
        <ele>1793.96</ele>
        <time>2020-06-18T13:33:51Z</time>
      </trkpt>
      <trkpt lat="45.35742" lon="5.89771">
        <ele>1792.03</ele>
        <time>2020-06-18T13:34:10Z</time>
      </trkpt>
      <trkpt lat="45.3574" lon="5.89767">
        <ele>1792.03</ele>
        <time>2020-06-18T13:34:14Z</time>
      </trkpt>
      <trkpt lat="45.3574" lon="5.89766">
        <ele>1791.55</ele>
        <time>2020-06-18T13:34:15Z</time>
      </trkpt>
      <trkpt lat="45.35739" lon="5.89764">
        <ele>1791.55</ele>
        <time>2020-06-18T13:34:16Z</time>
      </trkpt>
      <trkpt lat="45.35738" lon="5.89759">
        <ele>1791.55</ele>
        <time>2020-06-18T13:34:21Z</time>
      </trkpt>
      <trkpt lat="45.35738" lon="5.89743">
        <ele>1790.11</ele>
        <time>2020-06-18T13:34:34Z</time>
      </trkpt>
      <trkpt lat="45.35741" lon="5.89723">
        <ele>1787.71</ele>
        <time>2020-06-18T13:34:51Z</time>
      </trkpt>
      <trkpt lat="45.35741" lon="5.89722">
        <ele>1787.23</ele>
        <time>2020-06-18T13:34:52Z</time>
      </trkpt>
      <trkpt lat="45.35741" lon="5.89719">
        <ele>1786.75</ele>
        <time>2020-06-18T13:34:54Z</time>
      </trkpt>
      <trkpt lat="45.35744" lon="5.89701">
        <ele>1785.31</ele>
        <time>2020-06-18T13:35:08Z</time>
      </trkpt>
      <trkpt lat="45.35745" lon="5.89688">
        <ele>1784.34</ele>
        <time>2020-06-18T13:35:21Z</time>
      </trkpt>
      <trkpt lat="45.35745" lon="5.8966">
        <ele>1781.46</ele>
        <time>2020-06-18T13:35:42Z</time>
      </trkpt>
      <trkpt lat="45.35745" lon="5.89653">
        <ele>1780.98</ele>
        <time>2020-06-18T13:35:46Z</time>
      </trkpt>
      <trkpt lat="45.35737" lon="5.89629">
        <ele>1777.61</ele>
        <time>2020-06-18T13:36:05Z</time>
      </trkpt>
      <trkpt lat="45.35722" lon="5.8962">
        <ele>1776.17</ele>
        <time>2020-06-18T13:36:15Z</time>
      </trkpt>
      <trkpt lat="45.35714" lon="5.89615">
        <ele>1774.73</ele>
        <time>2020-06-18T13:36:21Z</time>
      </trkpt>
      <trkpt lat="45.35698" lon="5.89602">
        <ele>1771.85</ele>
        <time>2020-06-18T13:36:38Z</time>
      </trkpt>
      <trkpt lat="45.35685" lon="5.89596">
        <ele>1768.96</ele>
        <time>2020-06-18T13:36:54Z</time>
      </trkpt>
      <trkpt lat="45.35697" lon="5.89575">
        <ele>1767.04</ele>
        <time>2020-06-18T13:37:08Z</time>
      </trkpt>
      <trkpt lat="45.357" lon="5.89564">
        <ele>1765.6</ele>
        <time>2020-06-18T13:37:15Z</time>
      </trkpt>
      <trkpt lat="45.357" lon="5.89563">
        <ele>1765.12</ele>
        <time>2020-06-18T13:37:16Z</time>
      </trkpt>
      <trkpt lat="45.357" lon="5.89561">
        <ele>1765.12</ele>
        <time>2020-06-18T13:37:17Z</time>
      </trkpt>
      <trkpt lat="45.35695" lon="5.89538">
        <ele>1761.75</ele>
        <time>2020-06-18T13:37:33Z</time>
      </trkpt>
      <trkpt lat="45.35704" lon="5.89533">
        <ele>1759.83</ele>
        <time>2020-06-18T13:37:46Z</time>
      </trkpt>
      <trkpt lat="45.35707" lon="5.89549">
        <ele>1757.43</ele>
        <time>2020-06-18T13:38:01Z</time>
      </trkpt>
      <trkpt lat="45.35709" lon="5.89563">
        <ele>1755.02</ele>
        <time>2020-06-18T13:38:17Z</time>
      </trkpt>
      <trkpt lat="45.35705" lon="5.89559">
        <ele>1752.62</ele>
        <time>2020-06-18T13:38:33Z</time>
      </trkpt>
      <trkpt lat="45.35702" lon="5.89553">
        <ele>1749.74</ele>
        <time>2020-06-18T13:38:47Z</time>
      </trkpt>
      <trkpt lat="45.35697" lon="5.89541">
        <ele>1746.85</ele>
        <time>2020-06-18T13:39:05Z</time>
      </trkpt>
      <trkpt lat="45.35686" lon="5.89541">
        <ele>1744.45</ele>
        <time>2020-06-18T13:39:23Z</time>
      </trkpt>
      <trkpt lat="45.3568" lon="5.8954">
        <ele>1742.53</ele>
        <time>2020-06-18T13:39:37Z</time>
      </trkpt>
      <trkpt lat="45.35687" lon="5.89549">
        <ele>1740.12</ele>
        <time>2020-06-18T13:39:48Z</time>
      </trkpt>
      <trkpt lat="45.3569" lon="5.89557">
        <ele>1738.2</ele>
        <time>2020-06-18T13:40:00Z</time>
      </trkpt>
      <trkpt lat="45.35691" lon="5.89563">
        <ele>1736.76</ele>
        <time>2020-06-18T13:40:14Z</time>
      </trkpt>
      <trkpt lat="45.35695" lon="5.89573">
        <ele>1735.32</ele>
        <time>2020-06-18T13:40:30Z</time>
      </trkpt>
      <trkpt lat="45.35693" lon="5.89573">
        <ele>1733.39</ele>
        <time>2020-06-18T13:40:43Z</time>
      </trkpt>
      <trkpt lat="45.35688" lon="5.8957">
        <ele>1730.99</ele>
        <time>2020-06-18T13:40:56Z</time>
      </trkpt>
      <trkpt lat="45.35684" lon="5.89567">
        <ele>1728.59</ele>
        <time>2020-06-18T13:41:09Z</time>
      </trkpt>
      <trkpt lat="45.35678" lon="5.89563">
        <ele>1725.7</ele>
        <time>2020-06-18T13:41:22Z</time>
      </trkpt>
      <trkpt lat="45.35675" lon="5.89558">
        <ele>1723.3</ele>
        <time>2020-06-18T13:41:33Z</time>
      </trkpt>
      <trkpt lat="45.35675" lon="5.89559">
        <ele>1722.82</ele>
        <time>2020-06-18T13:41:35Z</time>
      </trkpt>
      <trkpt lat="45.35675" lon="5.89556">
        <ele>1721.38</ele>
        <time>2020-06-18T13:41:52Z</time>
      </trkpt>
      <trkpt lat="45.35669" lon="5.89553">
        <ele>1720.42</ele>
        <time>2020-06-18T13:42:13Z</time>
      </trkpt>
      <trkpt lat="45.35659" lon="5.8955">
        <ele>1718.01</ele>
        <time>2020-06-18T13:42:27Z</time>
      </trkpt>
      <trkpt lat="45.35651" lon="5.89556">
        <ele>1715.13</ele>
        <time>2020-06-18T13:42:43Z</time>
      </trkpt>
      <trkpt lat="45.35654" lon="5.89568">
        <ele>1711.76</ele>
        <time>2020-06-18T13:43:11Z</time>
      </trkpt>
      <trkpt lat="45.35658" lon="5.89579">
        <ele>1708.88</ele>
        <time>2020-06-18T13:43:26Z</time>
      </trkpt>
      <trkpt lat="45.35655" lon="5.89586">
        <ele>1706</ele>
        <time>2020-06-18T13:43:44Z</time>
      </trkpt>
      <trkpt lat="45.35646" lon="5.89586">
        <ele>1703.11</ele>
        <time>2020-06-18T13:44:01Z</time>
      </trkpt>
      <trkpt lat="45.35637" lon="5.89584">
        <ele>1699.75</ele>
        <time>2020-06-18T13:44:17Z</time>
      </trkpt>
      <trkpt lat="45.35627" lon="5.89582">
        <ele>1697.34</ele>
        <time>2020-06-18T13:44:32Z</time>
      </trkpt>
      <trkpt lat="45.35631" lon="5.89592">
        <ele>1694.46</ele>
        <time>2020-06-18T13:44:46Z</time>
      </trkpt>
      <trkpt lat="45.35638" lon="5.89598">
        <ele>1691.58</ele>
        <time>2020-06-18T13:44:59Z</time>
      </trkpt>
      <trkpt lat="45.35643" lon="5.8961">
        <ele>1688.69</ele>
        <time>2020-06-18T13:45:14Z</time>
      </trkpt>
      <trkpt lat="45.35648" lon="5.89624">
        <ele>1685.81</ele>
        <time>2020-06-18T13:45:31Z</time>
      </trkpt>
      <trkpt lat="45.3565" lon="5.89631">
        <ele>1682.93</ele>
        <time>2020-06-18T13:45:47Z</time>
      </trkpt>
      <trkpt lat="45.35649" lon="5.89638">
        <ele>1681</ele>
        <time>2020-06-18T13:46:02Z</time>
      </trkpt>
      <trkpt lat="45.35639" lon="5.89636">
        <ele>1678.6</ele>
        <time>2020-06-18T13:46:17Z</time>
      </trkpt>
      <trkpt lat="45.35641" lon="5.89643">
        <ele>1676.68</ele>
        <time>2020-06-18T13:46:30Z</time>
      </trkpt>
      <trkpt lat="45.35645" lon="5.89645">
        <ele>1673.79</ele>
        <time>2020-06-18T13:46:50Z</time>
      </trkpt>
      <trkpt lat="45.35646" lon="5.89654">
        <ele>1671.39</ele>
        <time>2020-06-18T13:47:06Z</time>
      </trkpt>
      <trkpt lat="45.35647" lon="5.89661">
        <ele>1669.95</ele>
        <time>2020-06-18T13:47:30Z</time>
      </trkpt>
      <trkpt lat="45.3564" lon="5.89658">
        <ele>1668.02</ele>
        <time>2020-06-18T13:47:46Z</time>
      </trkpt>
      <trkpt lat="45.35635" lon="5.89658">
        <ele>1665.62</ele>
        <time>2020-06-18T13:47:58Z</time>
      </trkpt>
      <trkpt lat="45.35629" lon="5.89658">
        <ele>1663.22</ele>
        <time>2020-06-18T13:48:12Z</time>
      </trkpt>
      <trkpt lat="45.35624" lon="5.8965">
        <ele>1660.33</ele>
        <time>2020-06-18T13:48:28Z</time>
      </trkpt>
      <trkpt lat="45.35617" lon="5.89649">
        <ele>1657.93</ele>
        <time>2020-06-18T13:48:40Z</time>
      </trkpt>
      <trkpt lat="45.35609" lon="5.89649">
        <ele>1654.57</ele>
        <time>2020-06-18T13:48:53Z</time>
      </trkpt>
      <trkpt lat="45.35611" lon="5.89658">
        <ele>1652.16</ele>
        <time>2020-06-18T13:49:06Z</time>
      </trkpt>
      <trkpt lat="45.35615" lon="5.89667">
        <ele>1650.24</ele>
        <time>2020-06-18T13:49:19Z</time>
      </trkpt>
      <trkpt lat="45.35613" lon="5.89677">
        <ele>1646.88</ele>
        <time>2020-06-18T13:49:32Z</time>
      </trkpt>
      <trkpt lat="45.35612" lon="5.89687">
        <ele>1643.99</ele>
        <time>2020-06-18T13:49:45Z</time>
      </trkpt>
      <trkpt lat="45.35614" lon="5.89693">
        <ele>1641.59</ele>
        <time>2020-06-18T13:49:59Z</time>
      </trkpt>
      <trkpt lat="45.35612" lon="5.89692">
        <ele>1640.63</ele>
        <time>2020-06-18T13:50:02Z</time>
      </trkpt>
      <trkpt lat="45.35611" lon="5.89703">
        <ele>1636.78</ele>
        <time>2020-06-18T13:50:16Z</time>
      </trkpt>
      <trkpt lat="45.35615" lon="5.8971">
        <ele>1634.38</ele>
        <time>2020-06-18T13:50:29Z</time>
      </trkpt>
      <trkpt lat="45.35614" lon="5.89712">
        <ele>1633.42</ele>
        <time>2020-06-18T13:50:32Z</time>
      </trkpt>
      <trkpt lat="45.35611" lon="5.89718">
        <ele>1630.05</ele>
        <time>2020-06-18T13:50:46Z</time>
      </trkpt>
      <trkpt lat="45.35615" lon="5.89729">
        <ele>1627.17</ele>
        <time>2020-06-18T13:50:59Z</time>
      </trkpt>
      <trkpt lat="45.35615" lon="5.89742">
        <ele>1623.8</ele>
        <time>2020-06-18T13:51:11Z</time>
      </trkpt>
      <trkpt lat="45.35619" lon="5.89748">
        <ele>1621.4</ele>
        <time>2020-06-18T13:51:19Z</time>
      </trkpt>
      <trkpt lat="45.3562" lon="5.89763">
        <ele>1618.52</ele>
        <time>2020-06-18T13:51:31Z</time>
      </trkpt>
      <trkpt lat="45.3562" lon="5.89776">
        <ele>1615.63</ele>
        <time>2020-06-18T13:51:41Z</time>
      </trkpt>
      <trkpt lat="45.35619" lon="5.89783">
        <ele>1612.27</ele>
        <time>2020-06-18T13:51:55Z</time>
      </trkpt>
      <trkpt lat="45.35619" lon="5.89787">
        <ele>1610.35</ele>
        <time>2020-06-18T13:52:18Z</time>
      </trkpt>
      <trkpt lat="45.35621" lon="5.898">
        <ele>1608.9</ele>
        <time>2020-06-18T13:52:35Z</time>
      </trkpt>
      <trkpt lat="45.35628" lon="5.89817">
        <ele>1606.02</ele>
        <time>2020-06-18T13:52:51Z</time>
      </trkpt>
      <trkpt lat="45.35632" lon="5.89827">
        <ele>1602.66</ele>
        <time>2020-06-18T13:53:03Z</time>
      </trkpt>
      <trkpt lat="45.35636" lon="5.89835">
        <ele>1600.73</ele>
        <time>2020-06-18T13:53:11Z</time>
      </trkpt>
      <trkpt lat="45.35636" lon="5.89836">
        <ele>1600.25</ele>
        <time>2020-06-18T13:53:12Z</time>
      </trkpt>
      <trkpt lat="45.35636" lon="5.89838">
        <ele>1599.77</ele>
        <time>2020-06-18T13:53:13Z</time>
      </trkpt>
      <trkpt lat="45.3563" lon="5.89838">
        <ele>1596.89</ele>
        <time>2020-06-18T13:53:24Z</time>
      </trkpt>
      <trkpt lat="45.35626" lon="5.89833">
        <ele>1595.93</ele>
        <time>2020-06-18T13:53:29Z</time>
      </trkpt>
      <trkpt lat="45.35617" lon="5.89837">
        <ele>1593.52</ele>
        <time>2020-06-18T13:53:39Z</time>
      </trkpt>
      <trkpt lat="45.35626" lon="5.8986">
        <ele>1590.64</ele>
        <time>2020-06-18T13:53:57Z</time>
      </trkpt>
      <trkpt lat="45.3563" lon="5.89877">
        <ele>1587.27</ele>
        <time>2020-06-18T13:54:12Z</time>
      </trkpt>
      <trkpt lat="45.35633" lon="5.89892">
        <ele>1584.39</ele>
        <time>2020-06-18T13:54:24Z</time>
      </trkpt>
      <trkpt lat="45.35635" lon="5.89904">
        <ele>1581.51</ele>
        <time>2020-06-18T13:54:35Z</time>
      </trkpt>
      <trkpt lat="45.35637" lon="5.89915">
        <ele>1578.14</ele>
        <time>2020-06-18T13:54:46Z</time>
      </trkpt>
      <trkpt lat="45.3563" lon="5.89923">
        <ele>1575.26</ele>
        <time>2020-06-18T13:54:56Z</time>
      </trkpt>
      <trkpt lat="45.35631" lon="5.89939">
        <ele>1571.89</ele>
        <time>2020-06-18T13:55:09Z</time>
      </trkpt>
      <trkpt lat="45.35624" lon="5.89944">
        <ele>1569.01</ele>
        <time>2020-06-18T13:55:21Z</time>
      </trkpt>
      <trkpt lat="45.35622" lon="5.89941">
        <ele>1566.61</ele>
        <time>2020-06-18T13:55:36Z</time>
      </trkpt>
      <trkpt lat="45.35621" lon="5.89951">
        <ele>1566.12</ele>
        <time>2020-06-18T13:55:48Z</time>
      </trkpt>
      <trkpt lat="45.35621" lon="5.8996">
        <ele>1563.24</ele>
        <time>2020-06-18T13:56:04Z</time>
      </trkpt>
      <trkpt lat="45.35613" lon="5.89964">
        <ele>1560.36</ele>
        <time>2020-06-18T13:56:23Z</time>
      </trkpt>
      <trkpt lat="45.35611" lon="5.8997">
        <ele>1556.03</ele>
        <time>2020-06-18T13:56:45Z</time>
      </trkpt>
      <trkpt lat="45.35612" lon="5.8997">
        <ele>1559.88</ele>
        <time>2020-06-18T13:57:12Z</time>
      </trkpt>
      <trkpt lat="45.35613" lon="5.8997">
        <ele>1558.43</ele>
        <time>2020-06-18T13:57:36Z</time>
      </trkpt>
      <trkpt lat="45.35613" lon="5.89975">
        <ele>1557.95</ele>
        <time>2020-06-18T13:58:01Z</time>
      </trkpt>
      <trkpt lat="45.35612" lon="5.89988">
        <ele>1555.07</ele>
        <time>2020-06-18T13:58:24Z</time>
      </trkpt>
      <trkpt lat="45.35615" lon="5.90002">
        <ele>1552.19</ele>
        <time>2020-06-18T13:58:40Z</time>
      </trkpt>
      <trkpt lat="45.35617" lon="5.90019">
        <ele>1548.82</ele>
        <time>2020-06-18T13:58:55Z</time>
      </trkpt>
      <trkpt lat="45.35617" lon="5.9002">
        <ele>1548.82</ele>
        <time>2020-06-18T13:58:56Z</time>
      </trkpt>
      <trkpt lat="45.35622" lon="5.90035">
        <ele>1545.94</ele>
        <time>2020-06-18T13:59:10Z</time>
      </trkpt>
      <trkpt lat="45.35628" lon="5.90055">
        <ele>1542.57</ele>
        <time>2020-06-18T13:59:27Z</time>
      </trkpt>
      <trkpt lat="45.35636" lon="5.90068">
        <ele>1539.69</ele>
        <time>2020-06-18T13:59:42Z</time>
      </trkpt>
      <trkpt lat="45.35644" lon="5.90079">
        <ele>1536.8</ele>
        <time>2020-06-18T13:59:55Z</time>
      </trkpt>
      <trkpt lat="45.35651" lon="5.90092">
        <ele>1533.44</ele>
        <time>2020-06-18T14:00:08Z</time>
      </trkpt>
      <trkpt lat="45.35658" lon="5.90106">
        <ele>1530.56</ele>
        <time>2020-06-18T14:00:21Z</time>
      </trkpt>
      <trkpt lat="45.35662" lon="5.90116">
        <ele>1527.67</ele>
        <time>2020-06-18T14:00:38Z</time>
      </trkpt>
      <trkpt lat="45.35667" lon="5.90124">
        <ele>1524.79</ele>
        <time>2020-06-18T14:00:50Z</time>
      </trkpt>
      <trkpt lat="45.35673" lon="5.90136">
        <ele>1521.42</ele>
        <time>2020-06-18T14:01:02Z</time>
      </trkpt>
      <trkpt lat="45.35679" lon="5.90147">
        <ele>1518.54</ele>
        <time>2020-06-18T14:01:13Z</time>
      </trkpt>
      <trkpt lat="45.35674" lon="5.90158">
        <ele>1515.18</ele>
        <time>2020-06-18T14:01:27Z</time>
      </trkpt>
      <trkpt lat="45.35667" lon="5.90156">
        <ele>1512.29</ele>
        <time>2020-06-18T14:01:39Z</time>
      </trkpt>
      <trkpt lat="45.35658" lon="5.90156">
        <ele>1509.41</ele>
        <time>2020-06-18T14:01:51Z</time>
      </trkpt>
      <trkpt lat="45.3565" lon="5.90156">
        <ele>1506.04</ele>
        <time>2020-06-18T14:02:01Z</time>
      </trkpt>
      <trkpt lat="45.35643" lon="5.90157">
        <ele>1503.64</ele>
        <time>2020-06-18T14:02:09Z</time>
      </trkpt>
      <trkpt lat="45.35632" lon="5.90158">
        <ele>1500.76</ele>
        <time>2020-06-18T14:02:22Z</time>
      </trkpt>
      <trkpt lat="45.35625" lon="5.90158">
        <ele>1497.39</ele>
        <time>2020-06-18T14:02:34Z</time>
      </trkpt>
      <trkpt lat="45.35615" lon="5.90162">
        <ele>1494.51</ele>
        <time>2020-06-18T14:02:50Z</time>
      </trkpt>
      <trkpt lat="45.35602" lon="5.90164">
        <ele>1491.14</ele>
        <time>2020-06-18T14:03:04Z</time>
      </trkpt>
      <trkpt lat="45.35595" lon="5.90165">
        <ele>1488.26</ele>
        <time>2020-06-18T14:03:15Z</time>
      </trkpt>
      <trkpt lat="45.35584" lon="5.90169">
        <ele>1484.89</ele>
        <time>2020-06-18T14:03:28Z</time>
      </trkpt>
      <trkpt lat="45.35573" lon="5.90166">
        <ele>1481.53</ele>
        <time>2020-06-18T14:03:41Z</time>
      </trkpt>
      <trkpt lat="45.35564" lon="5.90166">
        <ele>1478.65</ele>
        <time>2020-06-18T14:03:53Z</time>
      </trkpt>
      <trkpt lat="45.35556" lon="5.90165">
        <ele>1475.76</ele>
        <time>2020-06-18T14:04:03Z</time>
      </trkpt>
      <trkpt lat="45.35545" lon="5.90165">
        <ele>1472.4</ele>
        <time>2020-06-18T14:04:16Z</time>
      </trkpt>
      <trkpt lat="45.35531" lon="5.90164">
        <ele>1469.03</ele>
        <time>2020-06-18T14:04:31Z</time>
      </trkpt>
      <trkpt lat="45.35518" lon="5.90165">
        <ele>1466.15</ele>
        <time>2020-06-18T14:04:44Z</time>
      </trkpt>
      <trkpt lat="45.35508" lon="5.90162">
        <ele>1462.78</ele>
        <time>2020-06-18T14:04:56Z</time>
      </trkpt>
      <trkpt lat="45.35506" lon="5.90162">
        <ele>1462.78</ele>
        <time>2020-06-18T14:04:57Z</time>
      </trkpt>
      <trkpt lat="45.35505" lon="5.90162">
        <ele>1462.78</ele>
        <time>2020-06-18T14:04:58Z</time>
      </trkpt>
      <trkpt lat="45.35504" lon="5.90162">
        <ele>1462.3</ele>
        <time>2020-06-18T14:04:59Z</time>
      </trkpt>
      <trkpt lat="45.35496" lon="5.90164">
        <ele>1460.86</ele>
        <time>2020-06-18T14:05:06Z</time>
      </trkpt>
      <trkpt lat="45.3549" lon="5.9017">
        <ele>1459.42</ele>
        <time>2020-06-18T14:05:14Z</time>
      </trkpt>
      <trkpt lat="45.35483" lon="5.90191">
        <ele>1456.05</ele>
        <time>2020-06-18T14:05:32Z</time>
      </trkpt>
      <trkpt lat="45.35475" lon="5.90214">
        <ele>1453.65</ele>
        <time>2020-06-18T14:05:51Z</time>
      </trkpt>
      <trkpt lat="45.35474" lon="5.90224">
        <ele>1452.21</ele>
        <time>2020-06-18T14:06:06Z</time>
      </trkpt>
      <trkpt lat="45.35471" lon="5.90248">
        <ele>1449.81</ele>
        <time>2020-06-18T14:06:25Z</time>
      </trkpt>
      <trkpt lat="45.35471" lon="5.90267">
        <ele>1446.92</ele>
        <time>2020-06-18T14:06:41Z</time>
      </trkpt>
      <trkpt lat="45.35471" lon="5.9028">
        <ele>1444.04</ele>
        <time>2020-06-18T14:06:55Z</time>
      </trkpt>
      <trkpt lat="45.35467" lon="5.90289">
        <ele>1441.63</ele>
        <time>2020-06-18T14:07:07Z</time>
      </trkpt>
      <trkpt lat="45.35469" lon="5.90291">
        <ele>1439.71</ele>
        <time>2020-06-18T14:07:21Z</time>
      </trkpt>
      <trkpt lat="45.35469" lon="5.90289">
        <ele>1435.87</ele>
        <time>2020-06-18T14:07:36Z</time>
      </trkpt>
      <trkpt lat="45.35469" lon="5.90289">
        <ele>1433.94</ele>
        <time>2020-06-18T14:07:39Z</time>
      </trkpt>
      <trkpt lat="45.35469" lon="5.90289">
        <ele>1435.39</ele>
        <time>2020-06-18T14:07:45Z</time>
      </trkpt>
      <trkpt lat="45.3547" lon="5.90289">
        <ele>1438.75</ele>
        <time>2020-06-18T14:07:51Z</time>
      </trkpt>
      <trkpt lat="45.3547" lon="5.90289">
        <ele>1441.63</ele>
        <time>2020-06-18T14:07:53Z</time>
      </trkpt>
      <trkpt lat="45.35471" lon="5.90293">
        <ele>1438.75</ele>
        <time>2020-06-18T14:08:12Z</time>
      </trkpt>
      <trkpt lat="45.35482" lon="5.90293">
        <ele>1435.87</ele>
        <time>2020-06-18T14:08:31Z</time>
      </trkpt>
      <trkpt lat="45.35494" lon="5.90285">
        <ele>1432.98</ele>
        <time>2020-06-18T14:08:49Z</time>
      </trkpt>
      <trkpt lat="45.35502" lon="5.9029">
        <ele>1429.62</ele>
        <time>2020-06-18T14:09:05Z</time>
      </trkpt>
      <trkpt lat="45.35513" lon="5.90299">
        <ele>1426.25</ele>
        <time>2020-06-18T14:09:24Z</time>
      </trkpt>
      <trkpt lat="45.35517" lon="5.90309">
        <ele>1423.37</ele>
        <time>2020-06-18T14:09:43Z</time>
      </trkpt>
      <trkpt lat="45.35517" lon="5.90319">
        <ele>1420.97</ele>
        <time>2020-06-18T14:09:57Z</time>
      </trkpt>
      <trkpt lat="45.35519" lon="5.90329">
        <ele>1418.56</ele>
        <time>2020-06-18T14:10:13Z</time>
      </trkpt>
      <trkpt lat="45.35519" lon="5.9034">
        <ele>1415.2</ele>
        <time>2020-06-18T14:10:30Z</time>
      </trkpt>
      <trkpt lat="45.35526" lon="5.90342">
        <ele>1412.79</ele>
        <time>2020-06-18T14:10:49Z</time>
      </trkpt>
      <trkpt lat="45.35538" lon="5.90344">
        <ele>1409.91</ele>
        <time>2020-06-18T14:11:06Z</time>
      </trkpt>
      <trkpt lat="45.35541" lon="5.90346">
        <ele>1409.43</ele>
        <time>2020-06-18T14:11:09Z</time>
      </trkpt>
      <trkpt lat="45.3555" lon="5.90351">
        <ele>1406.07</ele>
        <time>2020-06-18T14:11:22Z</time>
      </trkpt>
      <trkpt lat="45.3556" lon="5.90358">
        <ele>1403.18</ele>
        <time>2020-06-18T14:11:37Z</time>
      </trkpt>
      <trkpt lat="45.35568" lon="5.90368">
        <ele>1399.82</ele>
        <time>2020-06-18T14:11:50Z</time>
      </trkpt>
      <trkpt lat="45.35583" lon="5.90375">
        <ele>1396.45</ele>
        <time>2020-06-18T14:12:03Z</time>
      </trkpt>
      <trkpt lat="45.35595" lon="5.90388">
        <ele>1393.57</ele>
        <time>2020-06-18T14:12:19Z</time>
      </trkpt>
      <trkpt lat="45.35601" lon="5.90392">
        <ele>1392.13</ele>
        <time>2020-06-18T14:12:27Z</time>
      </trkpt>
      <trkpt lat="45.35602" lon="5.90393">
        <ele>1392.13</ele>
        <time>2020-06-18T14:12:28Z</time>
      </trkpt>
      <trkpt lat="45.35606" lon="5.90396">
        <ele>1391.65</ele>
        <time>2020-06-18T14:12:31Z</time>
      </trkpt>
      <trkpt lat="45.35625" lon="5.90417">
        <ele>1388.76</ele>
        <time>2020-06-18T14:12:48Z</time>
      </trkpt>
      <trkpt lat="45.35637" lon="5.90441">
        <ele>1385.4</ele>
        <time>2020-06-18T14:13:08Z</time>
      </trkpt>
      <trkpt lat="45.35644" lon="5.90463">
        <ele>1382.51</ele>
        <time>2020-06-18T14:13:24Z</time>
      </trkpt>
      <trkpt lat="45.35651" lon="5.9048">
        <ele>1379.63</ele>
        <time>2020-06-18T14:13:37Z</time>
      </trkpt>
      <trkpt lat="45.35655" lon="5.90496">
        <ele>1376.26</ele>
        <time>2020-06-18T14:13:49Z</time>
      </trkpt>
      <trkpt lat="45.35655" lon="5.90498">
        <ele>1376.26</ele>
        <time>2020-06-18T14:13:50Z</time>
      </trkpt>
      <trkpt lat="45.35656" lon="5.905">
        <ele>1376.26</ele>
        <time>2020-06-18T14:13:51Z</time>
      </trkpt>
      <trkpt lat="45.35663" lon="5.90512">
        <ele>1373.38</ele>
        <time>2020-06-18T14:14:07Z</time>
      </trkpt>
      <trkpt lat="45.35667" lon="5.90529">
        <ele>1370.98</ele>
        <time>2020-06-18T14:14:18Z</time>
      </trkpt>
      <trkpt lat="45.35669" lon="5.90544">
        <ele>1367.61</ele>
        <time>2020-06-18T14:14:30Z</time>
      </trkpt>
      <trkpt lat="45.35675" lon="5.90556">
        <ele>1364.73</ele>
        <time>2020-06-18T14:14:43Z</time>
      </trkpt>
      <trkpt lat="45.35682" lon="5.9057">
        <ele>1361.36</ele>
        <time>2020-06-18T14:14:58Z</time>
      </trkpt>
      <trkpt lat="45.35694" lon="5.90585">
        <ele>1358.48</ele>
        <time>2020-06-18T14:15:13Z</time>
      </trkpt>
      <trkpt lat="45.35705" lon="5.90595">
        <ele>1355.12</ele>
        <time>2020-06-18T14:15:27Z</time>
      </trkpt>
      <trkpt lat="45.35712" lon="5.90606">
        <ele>1352.23</ele>
        <time>2020-06-18T14:15:38Z</time>
      </trkpt>
      <trkpt lat="45.35717" lon="5.90616">
        <ele>1350.79</ele>
        <time>2020-06-18T14:15:45Z</time>
      </trkpt>
      <trkpt lat="45.35718" lon="5.90617">
        <ele>1350.79</ele>
        <time>2020-06-18T14:15:46Z</time>
      </trkpt>
      <trkpt lat="45.35726" lon="5.90635">
        <ele>1347.43</ele>
        <time>2020-06-18T14:15:59Z</time>
      </trkpt>
      <trkpt lat="45.3573" lon="5.9065">
        <ele>1345.02</ele>
        <time>2020-06-18T14:16:10Z</time>
      </trkpt>
      <trkpt lat="45.35736" lon="5.90664">
        <ele>1342.62</ele>
        <time>2020-06-18T14:16:26Z</time>
      </trkpt>
      <trkpt lat="45.35741" lon="5.90678">
        <ele>1339.25</ele>
        <time>2020-06-18T14:16:39Z</time>
      </trkpt>
      <trkpt lat="45.35746" lon="5.90692">
        <ele>1336.37</ele>
        <time>2020-06-18T14:16:53Z</time>
      </trkpt>
      <trkpt lat="45.35754" lon="5.90705">
        <ele>1333.49</ele>
        <time>2020-06-18T14:17:07Z</time>
      </trkpt>
      <trkpt lat="45.35761" lon="5.9072">
        <ele>1330.12</ele>
        <time>2020-06-18T14:17:22Z</time>
      </trkpt>
      <trkpt lat="45.35764" lon="5.90727">
        <ele>1329.16</ele>
        <time>2020-06-18T14:17:26Z</time>
      </trkpt>
      <trkpt lat="45.35771" lon="5.90737">
        <ele>1325.8</ele>
        <time>2020-06-18T14:17:37Z</time>
      </trkpt>
      <trkpt lat="45.35779" lon="5.90748">
        <ele>1322.91</ele>
        <time>2020-06-18T14:17:49Z</time>
      </trkpt>
      <trkpt lat="45.35789" lon="5.90756">
        <ele>1320.03</ele>
        <time>2020-06-18T14:18:01Z</time>
      </trkpt>
      <trkpt lat="45.35791" lon="5.90758">
        <ele>1320.03</ele>
        <time>2020-06-18T14:18:02Z</time>
      </trkpt>
      <trkpt lat="45.35805" lon="5.90773">
        <ele>1317.14</ele>
        <time>2020-06-18T14:18:21Z</time>
      </trkpt>
      <trkpt lat="45.35809" lon="5.9078">
        <ele>1315.22</ele>
        <time>2020-06-18T14:18:36Z</time>
      </trkpt>
      <trkpt lat="45.35813" lon="5.90794">
        <ele>1311.86</ele>
        <time>2020-06-18T14:18:52Z</time>
      </trkpt>
      <trkpt lat="45.35814" lon="5.90804">
        <ele>1308.97</ele>
        <time>2020-06-18T14:19:04Z</time>
      </trkpt>
      <trkpt lat="45.35812" lon="5.9081">
        <ele>1306.57</ele>
        <time>2020-06-18T14:19:12Z</time>
      </trkpt>
      <trkpt lat="45.35813" lon="5.90819">
        <ele>1303.69</ele>
        <time>2020-06-18T14:19:26Z</time>
      </trkpt>
      <trkpt lat="45.35812" lon="5.9083">
        <ele>1300.32</ele>
        <time>2020-06-18T14:19:41Z</time>
      </trkpt>
      <trkpt lat="45.35812" lon="5.90841">
        <ele>1297.44</ele>
        <time>2020-06-18T14:19:54Z</time>
      </trkpt>
      <trkpt lat="45.35811" lon="5.90854">
        <ele>1294.07</ele>
        <time>2020-06-18T14:20:07Z</time>
      </trkpt>
      <trkpt lat="45.35813" lon="5.90865">
        <ele>1291.19</ele>
        <time>2020-06-18T14:20:19Z</time>
      </trkpt>
      <trkpt lat="45.35813" lon="5.90878">
        <ele>1288.3</ele>
        <time>2020-06-18T14:20:31Z</time>
      </trkpt>
      <trkpt lat="45.35815" lon="5.90891">
        <ele>1284.94</ele>
        <time>2020-06-18T14:20:43Z</time>
      </trkpt>
      <trkpt lat="45.35817" lon="5.909">
        <ele>1282.54</ele>
        <time>2020-06-18T14:20:52Z</time>
      </trkpt>
      <trkpt lat="45.35819" lon="5.90907">
        <ele>1278.21</ele>
        <time>2020-06-18T14:20:58Z</time>
      </trkpt>
      <trkpt lat="45.35825" lon="5.90922">
        <ele>1277.73</ele>
        <time>2020-06-18T14:21:14Z</time>
      </trkpt>
      <trkpt lat="45.35826" lon="5.90924">
        <ele>1278.21</ele>
        <time>2020-06-18T14:21:16Z</time>
      </trkpt>
      <trkpt lat="45.35833" lon="5.90932">
        <ele>1274.85</ele>
        <time>2020-06-18T14:21:24Z</time>
      </trkpt>
      <trkpt lat="45.35833" lon="5.90934">
        <ele>1273.88</ele>
        <time>2020-06-18T14:21:26Z</time>
      </trkpt>
      <trkpt lat="45.35833" lon="5.90936">
        <ele>1277.25</ele>
        <time>2020-06-18T14:21:29Z</time>
      </trkpt>
      <trkpt lat="45.35839" lon="5.90946">
        <ele>1273.88</ele>
        <time>2020-06-18T14:21:40Z</time>
      </trkpt>
      <trkpt lat="45.35843" lon="5.90961">
        <ele>1271</ele>
        <time>2020-06-18T14:21:52Z</time>
      </trkpt>
      <trkpt lat="45.35848" lon="5.90971">
        <ele>1268.6</ele>
        <time>2020-06-18T14:21:59Z</time>
      </trkpt>
      <trkpt lat="45.35842" lon="5.90979">
        <ele>1265.71</ele>
        <time>2020-06-18T14:22:11Z</time>
      </trkpt>
      <trkpt lat="45.35841" lon="5.90996">
        <ele>1262.83</ele>
        <time>2020-06-18T14:22:23Z</time>
      </trkpt>
      <trkpt lat="45.35843" lon="5.91002">
        <ele>1261.39</ele>
        <time>2020-06-18T14:22:28Z</time>
      </trkpt>
      <trkpt lat="45.35842" lon="5.91008">
        <ele>1260.43</ele>
        <time>2020-06-18T14:22:32Z</time>
      </trkpt>
      <trkpt lat="45.35844" lon="5.91022">
        <ele>1257.06</ele>
        <time>2020-06-18T14:22:44Z</time>
      </trkpt>
      <trkpt lat="45.35846" lon="5.91034">
        <ele>1254.18</ele>
        <time>2020-06-18T14:22:55Z</time>
      </trkpt>
      <trkpt lat="45.35852" lon="5.91049">
        <ele>1250.81</ele>
        <time>2020-06-18T14:23:07Z</time>
      </trkpt>
      <trkpt lat="45.35858" lon="5.91065">
        <ele>1247.93</ele>
        <time>2020-06-18T14:23:20Z</time>
      </trkpt>
      <trkpt lat="45.35861" lon="5.91082">
        <ele>1245.04</ele>
        <time>2020-06-18T14:23:34Z</time>
      </trkpt>
      <trkpt lat="45.35867" lon="5.91092">
        <ele>1241.68</ele>
        <time>2020-06-18T14:23:48Z</time>
      </trkpt>
      <trkpt lat="45.35864" lon="5.9109">
        <ele>1240.72</ele>
        <time>2020-06-18T14:24:06Z</time>
      </trkpt>
      <trkpt lat="45.35866" lon="5.91096">
        <ele>1240.24</ele>
        <time>2020-06-18T14:24:28Z</time>
      </trkpt>
      <trkpt lat="45.35874" lon="5.91104">
        <ele>1238.8</ele>
        <time>2020-06-18T14:24:46Z</time>
      </trkpt>
      <trkpt lat="45.35881" lon="5.91115">
        <ele>1235.43</ele>
        <time>2020-06-18T14:25:03Z</time>
      </trkpt>
      <trkpt lat="45.35892" lon="5.91125">
        <ele>1232.55</ele>
        <time>2020-06-18T14:25:20Z</time>
      </trkpt>
      <trkpt lat="45.35901" lon="5.91132">
        <ele>1229.18</ele>
        <time>2020-06-18T14:25:37Z</time>
      </trkpt>
      <trkpt lat="45.35911" lon="5.91135">
        <ele>1226.3</ele>
        <time>2020-06-18T14:25:52Z</time>
      </trkpt>
      <trkpt lat="45.35923" lon="5.91135">
        <ele>1223.42</ele>
        <time>2020-06-18T14:26:11Z</time>
      </trkpt>
      <trkpt lat="45.35941" lon="5.91139">
        <ele>1220.53</ele>
        <time>2020-06-18T14:26:36Z</time>
      </trkpt>
      <trkpt lat="45.35943" lon="5.91139">
        <ele>1220.05</ele>
        <time>2020-06-18T14:26:37Z</time>
      </trkpt>
      <trkpt lat="45.35958" lon="5.91148">
        <ele>1217.17</ele>
        <time>2020-06-18T14:26:52Z</time>
      </trkpt>
      <trkpt lat="45.35968" lon="5.91162">
        <ele>1214.28</ele>
        <time>2020-06-18T14:27:06Z</time>
      </trkpt>
      <trkpt lat="45.3596" lon="5.91169">
        <ele>1210.92</ele>
        <time>2020-06-18T14:27:20Z</time>
      </trkpt>
      <trkpt lat="45.35955" lon="5.9118">
        <ele>1208.03</ele>
        <time>2020-06-18T14:27:34Z</time>
      </trkpt>
      <trkpt lat="45.35946" lon="5.91189">
        <ele>1205.15</ele>
        <time>2020-06-18T14:27:48Z</time>
      </trkpt>
      <trkpt lat="45.35933" lon="5.91197">
        <ele>1201.79</ele>
        <time>2020-06-18T14:28:04Z</time>
      </trkpt>
      <trkpt lat="45.35922" lon="5.91216">
        <ele>1198.42</ele>
        <time>2020-06-18T14:28:25Z</time>
      </trkpt>
      <trkpt lat="45.35912" lon="5.91229">
        <ele>1195.54</ele>
        <time>2020-06-18T14:28:46Z</time>
      </trkpt>
      <trkpt lat="45.35902" lon="5.91234">
        <ele>1193.61</ele>
        <time>2020-06-18T14:29:04Z</time>
      </trkpt>
      <trkpt lat="45.35894" lon="5.91239">
        <ele>1191.21</ele>
        <time>2020-06-18T14:29:24Z</time>
      </trkpt>
      <trkpt lat="45.35884" lon="5.91248">
        <ele>1188.33</ele>
        <time>2020-06-18T14:29:43Z</time>
      </trkpt>
      <trkpt lat="45.35876" lon="5.91259">
        <ele>1184.96</ele>
        <time>2020-06-18T14:30:00Z</time>
      </trkpt>
      <trkpt lat="45.35865" lon="5.91261">
        <ele>1183.52</ele>
        <time>2020-06-18T14:30:20Z</time>
      </trkpt>
      <trkpt lat="45.3585" lon="5.91271">
        <ele>1181.12</ele>
        <time>2020-06-18T14:30:43Z</time>
      </trkpt>
      <trkpt lat="45.35845" lon="5.91275">
        <ele>1179.67</ele>
        <time>2020-06-18T14:30:55Z</time>
      </trkpt>
      <trkpt lat="45.35838" lon="5.91278">
        <ele>1178.23</ele>
        <time>2020-06-18T14:31:14Z</time>
      </trkpt>
      <trkpt lat="45.35835" lon="5.91277">
        <ele>1178.23</ele>
        <time>2020-06-18T14:31:35Z</time>
      </trkpt>
      <trkpt lat="45.35831" lon="5.91275">
        <ele>1177.27</ele>
        <time>2020-06-18T14:31:53Z</time>
      </trkpt>
      <trkpt lat="45.35825" lon="5.91277">
        <ele>1177.27</ele>
        <time>2020-06-18T14:32:23Z</time>
      </trkpt>
      <trkpt lat="45.35817" lon="5.91289">
        <ele>1175.35</ele>
        <time>2020-06-18T14:32:37Z</time>
      </trkpt>
      <trkpt lat="45.35812" lon="5.91301">
        <ele>1171.98</ele>
        <time>2020-06-18T14:32:51Z</time>
      </trkpt>
      <trkpt lat="45.35803" lon="5.91311">
        <ele>1169.1</ele>
        <time>2020-06-18T14:33:06Z</time>
      </trkpt>
      <trkpt lat="45.35799" lon="5.91313">
        <ele>1167.66</ele>
        <time>2020-06-18T14:33:11Z</time>
      </trkpt>
      <trkpt lat="45.35798" lon="5.91313">
        <ele>1167.66</ele>
        <time>2020-06-18T14:33:12Z</time>
      </trkpt>
      <trkpt lat="45.35797" lon="5.91313">
        <ele>1167.66</ele>
        <time>2020-06-18T14:33:13Z</time>
      </trkpt>
      <trkpt lat="45.35783" lon="5.91317">
        <ele>1165.26</ele>
        <time>2020-06-18T14:33:33Z</time>
      </trkpt>
      <trkpt lat="45.35778" lon="5.91321">
        <ele>1164.77</ele>
        <time>2020-06-18T14:33:40Z</time>
      </trkpt>
      <trkpt lat="45.35766" lon="5.91329">
        <ele>1163.33</ele>
        <time>2020-06-18T14:33:57Z</time>
      </trkpt>
      <trkpt lat="45.35765" lon="5.91329">
        <ele>1163.33</ele>
        <time>2020-06-18T14:33:58Z</time>
      </trkpt>
      <trkpt lat="45.35765" lon="5.9133">
        <ele>1162.85</ele>
        <time>2020-06-18T14:33:59Z</time>
      </trkpt>
      <trkpt lat="45.35756" lon="5.9133">
        <ele>1160.93</ele>
        <time>2020-06-18T14:34:14Z</time>
      </trkpt>
      <trkpt lat="45.35742" lon="5.9133">
        <ele>1157.56</ele>
        <time>2020-06-18T14:34:31Z</time>
      </trkpt>
      <trkpt lat="45.35736" lon="5.91334">
        <ele>1156.6</ele>
        <time>2020-06-18T14:34:37Z</time>
      </trkpt>
      <trkpt lat="45.35724" lon="5.9134">
        <ele>1154.2</ele>
        <time>2020-06-18T14:34:52Z</time>
      </trkpt>
      <trkpt lat="45.3572" lon="5.91342">
        <ele>1153.24</ele>
        <time>2020-06-18T14:34:56Z</time>
      </trkpt>
      <trkpt lat="45.35703" lon="5.91348">
        <ele>1150.35</ele>
        <time>2020-06-18T14:35:14Z</time>
      </trkpt>
      <trkpt lat="45.35689" lon="5.91351">
        <ele>1148.91</ele>
        <time>2020-06-18T14:35:31Z</time>
      </trkpt>
      <trkpt lat="45.35675" lon="5.91356">
        <ele>1146.99</ele>
        <time>2020-06-18T14:35:47Z</time>
      </trkpt>
      <trkpt lat="45.35664" lon="5.91363">
        <ele>1144.59</ele>
        <time>2020-06-18T14:36:01Z</time>
      </trkpt>
      <trkpt lat="45.35653" lon="5.9137">
        <ele>1141.7</ele>
        <time>2020-06-18T14:36:20Z</time>
      </trkpt>
      <trkpt lat="45.35635" lon="5.91366">
        <ele>1138.82</ele>
        <time>2020-06-18T14:36:41Z</time>
      </trkpt>
      <trkpt lat="45.35615" lon="5.91362">
        <ele>1135.45</ele>
        <time>2020-06-18T14:37:03Z</time>
      </trkpt>
      <trkpt lat="45.35597" lon="5.91371">
        <ele>1132.57</ele>
        <time>2020-06-18T14:37:22Z</time>
      </trkpt>
      <trkpt lat="45.35595" lon="5.91372">
        <ele>1132.57</ele>
        <time>2020-06-18T14:37:23Z</time>
      </trkpt>
      <trkpt lat="45.35589" lon="5.91374">
        <ele>1131.61</ele>
        <time>2020-06-18T14:37:29Z</time>
      </trkpt>
      <trkpt lat="45.35588" lon="5.91376">
        <ele>1131.61</ele>
        <time>2020-06-18T14:37:30Z</time>
      </trkpt>
      <trkpt lat="45.35587" lon="5.91376">
        <ele>1131.61</ele>
        <time>2020-06-18T14:37:31Z</time>
      </trkpt>
      <trkpt lat="45.35586" lon="5.91377">
        <ele>1131.13</ele>
        <time>2020-06-18T14:37:32Z</time>
      </trkpt>
      <trkpt lat="45.35584" lon="5.91377">
        <ele>1131.13</ele>
        <time>2020-06-18T14:37:33Z</time>
      </trkpt>
      <trkpt lat="45.35572" lon="5.91371">
        <ele>1127.76</ele>
        <time>2020-06-18T14:37:45Z</time>
      </trkpt>
      <trkpt lat="45.3557" lon="5.91369">
        <ele>1125.84</ele>
        <time>2020-06-18T14:37:49Z</time>
      </trkpt>
      <trkpt lat="45.35577" lon="5.91372">
        <ele>1126.8</ele>
        <time>2020-06-18T14:38:11Z</time>
      </trkpt>
      <trkpt lat="45.35588" lon="5.91371">
        <ele>1126.8</ele>
        <time>2020-06-18T14:38:27Z</time>
      </trkpt>
      <trkpt lat="45.35589" lon="5.91368">
        <ele>1127.28</ele>
        <time>2020-06-18T14:38:45Z</time>
      </trkpt>
      <trkpt lat="45.35588" lon="5.91367">
        <ele>1127.28</ele>
        <time>2020-06-18T14:38:55Z</time>
      </trkpt>
      <trkpt lat="45.35587" lon="5.91369">
        <ele>1127.28</ele>
        <time>2020-06-18T14:39:19Z</time>
      </trkpt>
      <trkpt lat="45.35578" lon="5.9137">
        <ele>1128.73</ele>
        <time>2020-06-18T14:39:35Z</time>
      </trkpt>
      <trkpt lat="45.35565" lon="5.91363">
        <ele>1126.8</ele>
        <time>2020-06-18T14:39:50Z</time>
      </trkpt>
      <trkpt lat="45.35549" lon="5.9136">
        <ele>1125.36</ele>
        <time>2020-06-18T14:40:06Z</time>
      </trkpt>
      <trkpt lat="45.35536" lon="5.91355">
        <ele>1123.44</ele>
        <time>2020-06-18T14:40:22Z</time>
      </trkpt>
      <trkpt lat="45.35524" lon="5.91356">
        <ele>1122</ele>
        <time>2020-06-18T14:40:38Z</time>
      </trkpt>
      <trkpt lat="45.35525" lon="5.91361">
        <ele>1121.52</ele>
        <time>2020-06-18T14:40:51Z</time>
      </trkpt>
      <trkpt lat="45.35527" lon="5.91368">
        <ele>1121.52</ele>
        <time>2020-06-18T14:40:57Z</time>
      </trkpt>
      <trkpt lat="45.35527" lon="5.9137">
        <ele>1121.03</ele>
        <time>2020-06-18T14:40:58Z</time>
      </trkpt>
      <trkpt lat="45.35534" lon="5.91395">
        <ele>1118.63</ele>
        <time>2020-06-18T14:41:16Z</time>
      </trkpt>
      <trkpt lat="45.35536" lon="5.91401">
        <ele>1119.11</ele>
        <time>2020-06-18T14:41:21Z</time>
      </trkpt>
      <trkpt lat="45.35537" lon="5.91402">
        <ele>1119.59</ele>
        <time>2020-06-18T14:41:22Z</time>
      </trkpt>
      <trkpt lat="45.35538" lon="5.91403">
        <ele>1119.59</ele>
        <time>2020-06-18T14:41:23Z</time>
      </trkpt>
      <trkpt lat="45.35539" lon="5.91404">
        <ele>1119.59</ele>
        <time>2020-06-18T14:41:24Z</time>
      </trkpt>
      <trkpt lat="45.35539" lon="5.91405">
        <ele>1119.59</ele>
        <time>2020-06-18T14:41:25Z</time>
      </trkpt>
      <trkpt lat="45.3554" lon="5.91406">
        <ele>1119.59</ele>
        <time>2020-06-18T14:41:26Z</time>
      </trkpt>
      <trkpt lat="45.35542" lon="5.91408">
        <ele>1119.11</ele>
        <time>2020-06-18T14:41:28Z</time>
      </trkpt>
      <trkpt lat="45.3555" lon="5.91423">
        <ele>1119.11</ele>
        <time>2020-06-18T14:41:43Z</time>
      </trkpt>
      <trkpt lat="45.35564" lon="5.9144">
        <ele>1115.27</ele>
        <time>2020-06-18T14:41:59Z</time>
      </trkpt>
      <trkpt lat="45.35566" lon="5.91442">
        <ele>1114.31</ele>
        <time>2020-06-18T14:42:01Z</time>
      </trkpt>
      <trkpt lat="45.35576" lon="5.9147">
        <ele>1113.82</ele>
        <time>2020-06-18T14:42:19Z</time>
      </trkpt>
      <trkpt lat="45.35573" lon="5.91481">
        <ele>1113.34</ele>
        <time>2020-06-18T14:42:26Z</time>
      </trkpt>
      <trkpt lat="45.35572" lon="5.91482">
        <ele>1113.34</ele>
        <time>2020-06-18T14:42:27Z</time>
      </trkpt>
      <trkpt lat="45.35571" lon="5.91483">
        <ele>1113.34</ele>
        <time>2020-06-18T14:42:28Z</time>
      </trkpt>
      <trkpt lat="45.3557" lon="5.91484">
        <ele>1112.86</ele>
        <time>2020-06-18T14:42:29Z</time>
      </trkpt>
      <trkpt lat="45.35569" lon="5.91485">
        <ele>1112.86</ele>
        <time>2020-06-18T14:42:30Z</time>
      </trkpt>
      <trkpt lat="45.35568" lon="5.91485">
        <ele>1112.86</ele>
        <time>2020-06-18T14:42:31Z</time>
      </trkpt>
      <trkpt lat="45.35567" lon="5.91486">
        <ele>1112.86</ele>
        <time>2020-06-18T14:42:32Z</time>
      </trkpt>
      <trkpt lat="45.35566" lon="5.91486">
        <ele>1112.86</ele>
        <time>2020-06-18T14:42:33Z</time>
      </trkpt>
      <trkpt lat="45.3555" lon="5.91478">
        <ele>1111.42</ele>
        <time>2020-06-18T14:42:51Z</time>
      </trkpt>
      <trkpt lat="45.35524" lon="5.91465">
        <ele>1108.06</ele>
        <time>2020-06-18T14:43:16Z</time>
      </trkpt>
      <trkpt lat="45.35493" lon="5.91448">
        <ele>1105.65</ele>
        <time>2020-06-18T14:43:43Z</time>
      </trkpt>
      <trkpt lat="45.35477" lon="5.91441">
        <ele>1104.21</ele>
        <time>2020-06-18T14:44:03Z</time>
      </trkpt>
      <trkpt lat="45.35466" lon="5.9143">
        <ele>1101.81</ele>
        <time>2020-06-18T14:44:18Z</time>
      </trkpt>
      <trkpt lat="45.35457" lon="5.91418">
        <ele>1098.92</ele>
        <time>2020-06-18T14:44:27Z</time>
      </trkpt>
      <trkpt lat="45.35444" lon="5.91402">
        <ele>1097.96</ele>
        <time>2020-06-18T14:44:39Z</time>
      </trkpt>
      <trkpt lat="45.3544" lon="5.91397">
        <ele>1094.6</ele>
        <time>2020-06-18T14:44:45Z</time>
      </trkpt>
      <trkpt lat="45.35438" lon="5.91395">
        <ele>1092.68</ele>
        <time>2020-06-18T14:44:47Z</time>
      </trkpt>
      <trkpt lat="45.35435" lon="5.91391">
        <ele>1096.04</ele>
        <time>2020-06-18T14:44:51Z</time>
      </trkpt>
      <trkpt lat="45.35428" lon="5.91381">
        <ele>1095.08</ele>
        <time>2020-06-18T14:45:01Z</time>
      </trkpt>
      <trkpt lat="45.35419" lon="5.91369">
        <ele>1096.52</ele>
        <time>2020-06-18T14:45:11Z</time>
      </trkpt>
      <trkpt lat="45.35407" lon="5.91358">
        <ele>1093.64</ele>
        <time>2020-06-18T14:45:23Z</time>
      </trkpt>
      <trkpt lat="45.3539" lon="5.91341">
        <ele>1091.23</ele>
        <time>2020-06-18T14:45:42Z</time>
      </trkpt>
      <trkpt lat="45.35374" lon="5.9132">
        <ele>1089.79</ele>
        <time>2020-06-18T14:45:59Z</time>
      </trkpt>
      <trkpt lat="45.3536" lon="5.91302">
        <ele>1088.83</ele>
        <time>2020-06-18T14:46:15Z</time>
      </trkpt>
      <trkpt lat="45.35345" lon="5.91297">
        <ele>1087.39</ele>
        <time>2020-06-18T14:46:28Z</time>
      </trkpt>
      <trkpt lat="45.35344" lon="5.91298">
        <ele>1087.39</ele>
        <time>2020-06-18T14:46:29Z</time>
      </trkpt>
      <trkpt lat="45.35343" lon="5.91299">
        <ele>1087.39</ele>
        <time>2020-06-18T14:46:30Z</time>
      </trkpt>
      <trkpt lat="45.35337" lon="5.91307">
        <ele>1086.43</ele>
        <time>2020-06-18T14:46:38Z</time>
      </trkpt>
      <trkpt lat="45.35337" lon="5.91312">
        <ele>1085.95</ele>
        <time>2020-06-18T14:46:42Z</time>
      </trkpt>
      <trkpt lat="45.3535" lon="5.91331">
        <ele>1084.02</ele>
        <time>2020-06-18T14:46:59Z</time>
      </trkpt>
      <trkpt lat="45.35358" lon="5.91343">
        <ele>1083.06</ele>
        <time>2020-06-18T14:47:13Z</time>
      </trkpt>
      <trkpt lat="45.35366" lon="5.9136">
        <ele>1082.58</ele>
        <time>2020-06-18T14:47:27Z</time>
      </trkpt>
      <trkpt lat="45.35375" lon="5.9139">
        <ele>1080.66</ele>
        <time>2020-06-18T14:47:45Z</time>
      </trkpt>
      <trkpt lat="45.35378" lon="5.91414">
        <ele>1078.74</ele>
        <time>2020-06-18T14:48:02Z</time>
      </trkpt>
      <trkpt lat="45.35379" lon="5.91444">
        <ele>1076.81</ele>
        <time>2020-06-18T14:48:20Z</time>
      </trkpt>
      <trkpt lat="45.3538" lon="5.91473">
        <ele>1074.41</ele>
        <time>2020-06-18T14:48:38Z</time>
      </trkpt>
      <trkpt lat="45.35389" lon="5.91502">
        <ele>1072.01</ele>
        <time>2020-06-18T14:48:54Z</time>
      </trkpt>
      <trkpt lat="45.35405" lon="5.91531">
        <ele>1069.12</ele>
        <time>2020-06-18T14:49:15Z</time>
      </trkpt>
      <trkpt lat="45.35417" lon="5.91555">
        <ele>1067.2</ele>
        <time>2020-06-18T14:49:32Z</time>
      </trkpt>
      <trkpt lat="45.3543" lon="5.91574">
        <ele>1065.76</ele>
        <time>2020-06-18T14:49:48Z</time>
      </trkpt>
      <trkpt lat="45.35443" lon="5.91596">
        <ele>1064.32</ele>
        <time>2020-06-18T14:50:05Z</time>
      </trkpt>
      <trkpt lat="45.35444" lon="5.91597">
        <ele>1064.32</ele>
        <time>2020-06-18T14:50:06Z</time>
      </trkpt>
      <trkpt lat="45.35445" lon="5.91598">
        <ele>1064.8</ele>
        <time>2020-06-18T14:50:07Z</time>
      </trkpt>
      <trkpt lat="45.35454" lon="5.91623">
        <ele>1062.39</ele>
        <time>2020-06-18T14:50:24Z</time>
      </trkpt>
      <trkpt lat="45.35465" lon="5.91655">
        <ele>1059.51</ele>
        <time>2020-06-18T14:50:43Z</time>
      </trkpt>
      <trkpt lat="45.35466" lon="5.91657">
        <ele>1059.03</ele>
        <time>2020-06-18T14:50:44Z</time>
      </trkpt>
      <trkpt lat="45.35472" lon="5.91687">
        <ele>1058.07</ele>
        <time>2020-06-18T14:51:00Z</time>
      </trkpt>
      <trkpt lat="45.35479" lon="5.91722">
        <ele>1056.63</ele>
        <time>2020-06-18T14:51:20Z</time>
      </trkpt>
      <trkpt lat="45.35486" lon="5.91754">
        <ele>1055.67</ele>
        <time>2020-06-18T14:51:38Z</time>
      </trkpt>
      <trkpt lat="45.35488" lon="5.91761">
        <ele>1055.18</ele>
        <time>2020-06-18T14:51:42Z</time>
      </trkpt>
      <trkpt lat="45.35489" lon="5.91763">
        <ele>1055.18</ele>
        <time>2020-06-18T14:51:43Z</time>
      </trkpt>
      <trkpt lat="45.35489" lon="5.91764">
        <ele>1055.18</ele>
        <time>2020-06-18T14:51:44Z</time>
      </trkpt>
      <trkpt lat="45.35495" lon="5.91791">
        <ele>1054.22</ele>
        <time>2020-06-18T14:52:01Z</time>
      </trkpt>
      <trkpt lat="45.35503" lon="5.91813">
        <ele>1053.26</ele>
        <time>2020-06-18T14:52:16Z</time>
      </trkpt>
      <trkpt lat="45.35517" lon="5.91843">
        <ele>1052.3</ele>
        <time>2020-06-18T14:52:34Z</time>
      </trkpt>
      <trkpt lat="45.35537" lon="5.91862">
        <ele>1052.78</ele>
        <time>2020-06-18T14:52:54Z</time>
      </trkpt>
      <trkpt lat="45.35561" lon="5.91872">
        <ele>1055.18</ele>
        <time>2020-06-18T14:53:15Z</time>
      </trkpt>
      <trkpt lat="45.35581" lon="5.91878">
        <ele>1057.11</ele>
        <time>2020-06-18T14:53:32Z</time>
      </trkpt>
      <trkpt lat="45.35604" lon="5.91887">
        <ele>1058.55</ele>
        <time>2020-06-18T14:53:50Z</time>
      </trkpt>
      <trkpt lat="45.35633" lon="5.91885">
        <ele>1059.03</ele>
        <time>2020-06-18T14:54:11Z</time>
      </trkpt>
      <trkpt lat="45.35633" lon="5.91883">
        <ele>1054.22</ele>
        <time>2020-06-18T14:54:29Z</time>
      </trkpt>
      <trkpt lat="45.35633" lon="5.91883">
        <ele>1054.22</ele>
        <time>2020-06-18T14:54:33Z</time>
      </trkpt>
    </trkseg>
  </trk>
</gpx>